<?xml version="1.0" encoding="UTF-8"?>
<gpx xmlns="http://www.topografix.com/GPX/1/1" xmlns:dkl="http://www.gpsware.de/DKL/1/1" xmlns:rtx="http://www.bike-gps.de/RTX/1/1" version="1.1" creator="KOMPASS Digital Map" xmlns:xsi="http://www.w3.org/2001/XMLSchema-instance" xsi:schemaLocation="http://www.topografix.com/GPX/1/1 http://www.topografix.com/GPX/1/1/gpx.xsd">
 <metadata>
 <name>KOMPASS Digital Map Track</name>
 <desc> </desc>
 <time>2010-04-30T15:38:31Z</time>
 <bounds minlat="47.414135" minlon="13.164659" maxlat="47.600685" maxlon="13.505794"/>
 </metadata>
 <trk>
 <name>2010_Pass_Gschütt</name>
 <cmt>Pass Gschütt</cmt>
 <extensions>
 <dkl:dkl>
 <dkl:format_version>1.1</dkl:format_version>
 <dkl:format>
 <dkl:color>FF0000</dkl:color>
 <dkl:style>00000000</dkl:style>
 <dkl:strength>3</dkl:strength>
 <dkl:transparent>0</dkl:transparent>
 </dkl:format>
 </dkl:dkl>
 </extensions>
 <trkseg>
 <trkpt lat="47.421837" lon="13.219022">
 <ele>548.07</ele>
 <time>2010-04-30T07:14:11Z</time>
 </trkpt>
 <trkpt lat="47.421810" lon="13.219189">
 <ele>547.91</ele>
 <time>2010-04-30T07:14:20Z</time>
 </trkpt>
 <trkpt lat="47.421864" lon="13.219232">
 <ele>547.87</ele>
 <time>2010-04-30T07:14:23Z</time>
 </trkpt>
 <trkpt lat="47.422150" lon="13.219205">
 <ele>547.74</ele>
 <time>2010-04-30T07:14:32Z</time>
 </trkpt>
 <trkpt lat="47.422543" lon="13.219164">
 <ele>547.47</ele>
 <time>2010-04-30T07:14:42Z</time>
 </trkpt>
 <trkpt lat="47.422928" lon="13.219143">
 <ele>547.31</ele>
 <time>2010-04-30T07:14:51Z</time>
 </trkpt>
 <trkpt lat="47.423264" lon="13.219140">
 <ele>547.39</ele>
 <time>2010-04-30T07:14:59Z</time>
 </trkpt>
 <trkpt lat="47.423546" lon="13.219134">
 <ele>546.99</ele>
 <time>2010-04-30T07:15:05Z</time>
 </trkpt>
 <trkpt lat="47.423878" lon="13.219185">
 <ele>546.77</ele>
 <time>2010-04-30T07:15:13Z</time>
 </trkpt>
 <trkpt lat="47.423916" lon="13.219330">
 <ele>546.75</ele>
 <time>2010-04-30T07:15:17Z</time>
 </trkpt>
 <trkpt lat="47.423912" lon="13.219387">
 <ele>546.66</ele>
 <time>2010-04-30T07:15:18Z</time>
 </trkpt>
 <trkpt lat="47.423859" lon="13.219749">
 <ele>545.08</ele>
 <time>2010-04-30T07:15:23Z</time>
 </trkpt>
 <trkpt lat="47.423904" lon="13.219994">
 <ele>545.16</ele>
 <time>2010-04-30T07:15:27Z</time>
 </trkpt>
 <trkpt lat="47.424042" lon="13.220127">
 <ele>546.50</ele>
 <time>2010-04-30T07:15:32Z</time>
 </trkpt>
 <trkpt lat="47.424080" lon="13.220145">
 <ele>546.67</ele>
 <time>2010-04-30T07:15:33Z</time>
 </trkpt>
 <trkpt lat="47.424435" lon="13.220286">
 <ele>546.57</ele>
 <time>2010-04-30T07:15:42Z</time>
 </trkpt>
 <trkpt lat="47.424477" lon="13.220307">
 <ele>546.49</ele>
 <time>2010-04-30T07:15:43Z</time>
 </trkpt>
 <trkpt lat="47.424774" lon="13.220576">
 <ele>546.31</ele>
 <time>2010-04-30T07:15:51Z</time>
 </trkpt>
 <trkpt lat="47.424973" lon="13.220796">
 <ele>546.35</ele>
 <time>2010-04-30T07:15:58Z</time>
 </trkpt>
 <trkpt lat="47.425011" lon="13.220845">
 <ele>546.31</ele>
 <time>2010-04-30T07:16:00Z</time>
 </trkpt>
 <trkpt lat="47.425095" lon="13.220794">
 <ele>546.38</ele>
 <time>2010-04-30T07:16:04Z</time>
 </trkpt>
 <trkpt lat="47.425224" lon="13.220658">
 <ele>546.73</ele>
 <time>2010-04-30T07:16:09Z</time>
 </trkpt>
 <trkpt lat="47.425400" lon="13.220641">
 <ele>547.85</ele>
 <time>2010-04-30T07:16:15Z</time>
 </trkpt>
 <trkpt lat="47.425495" lon="13.220673">
 <ele>549.02</ele>
 <time>2010-04-30T07:16:19Z</time>
 </trkpt>
 <trkpt lat="47.425709" lon="13.220764">
 <ele>548.60</ele>
 <time>2010-04-30T07:16:25Z</time>
 </trkpt>
 <trkpt lat="47.426060" lon="13.220902">
 <ele>548.33</ele>
 <time>2010-04-30T07:16:34Z</time>
 </trkpt>
 <trkpt lat="47.426327" lon="13.221017">
 <ele>547.36</ele>
 <time>2010-04-30T07:16:41Z</time>
 </trkpt>
 <trkpt lat="47.426460" lon="13.221099">
 <ele>546.44</ele>
 <time>2010-04-30T07:16:44Z</time>
 </trkpt>
 <trkpt lat="47.426617" lon="13.221155">
 <ele>546.12</ele>
 <time>2010-04-30T07:16:47Z</time>
 </trkpt>
 <trkpt lat="47.426865" lon="13.221291">
 <ele>545.57</ele>
 <time>2010-04-30T07:16:52Z</time>
 </trkpt>
 <trkpt lat="47.427006" lon="13.221167">
 <ele>544.90</ele>
 <time>2010-04-30T07:16:56Z</time>
 </trkpt>
 <trkpt lat="47.427013" lon="13.221085">
 <ele>544.73</ele>
 <time>2010-04-30T07:16:57Z</time>
 </trkpt>
 <trkpt lat="47.427044" lon="13.220769">
 <ele>543.36</ele>
 <time>2010-04-30T07:17:01Z</time>
 </trkpt>
 <trkpt lat="47.427162" lon="13.220555">
 <ele>543.52</ele>
 <time>2010-04-30T07:17:05Z</time>
 </trkpt>
 <trkpt lat="47.427277" lon="13.220491">
 <ele>544.46</ele>
 <time>2010-04-30T07:17:08Z</time>
 </trkpt>
 <trkpt lat="47.427547" lon="13.220453">
 <ele>545.33</ele>
 <time>2010-04-30T07:17:15Z</time>
 </trkpt>
 <trkpt lat="47.427792" lon="13.220291">
 <ele>545.15</ele>
 <time>2010-04-30T07:17:21Z</time>
 </trkpt>
 <trkpt lat="47.427929" lon="13.220028">
 <ele>545.45</ele>
 <time>2010-04-30T07:17:26Z</time>
 </trkpt>
 <trkpt lat="47.427940" lon="13.219888">
 <ele>545.34</ele>
 <time>2010-04-30T07:17:28Z</time>
 </trkpt>
 <trkpt lat="47.427952" lon="13.219663">
 <ele>544.96</ele>
 <time>2010-04-30T07:17:31Z</time>
 </trkpt>
 <trkpt lat="47.428028" lon="13.219383">
 <ele>544.48</ele>
 <time>2010-04-30T07:17:35Z</time>
 </trkpt>
 <trkpt lat="47.428150" lon="13.219134">
 <ele>544.31</ele>
 <time>2010-04-30T07:17:39Z</time>
 </trkpt>
 <trkpt lat="47.428394" lon="13.218877">
 <ele>543.96</ele>
 <time>2010-04-30T07:17:45Z</time>
 </trkpt>
 <trkpt lat="47.428440" lon="13.218845">
 <ele>543.93</ele>
 <time>2010-04-30T07:17:46Z</time>
 </trkpt>
 <trkpt lat="47.428612" lon="13.218591">
 <ele>544.04</ele>
 <time>2010-04-30T07:17:51Z</time>
 </trkpt>
 <trkpt lat="47.428654" lon="13.218457">
 <ele>544.15</ele>
 <time>2010-04-30T07:17:53Z</time>
 </trkpt>
 <trkpt lat="47.428841" lon="13.218143">
 <ele>544.10</ele>
 <time>2010-04-30T07:17:59Z</time>
 </trkpt>
 <trkpt lat="47.429115" lon="13.217882">
 <ele>544.40</ele>
 <time>2010-04-30T07:18:06Z</time>
 </trkpt>
 <trkpt lat="47.429214" lon="13.217577">
 <ele>544.80</ele>
 <time>2010-04-30T07:18:11Z</time>
 </trkpt>
 <trkpt lat="47.429253" lon="13.217240">
 <ele>544.35</ele>
 <time>2010-04-30T07:18:16Z</time>
 </trkpt>
 <trkpt lat="47.429314" lon="13.217015">
 <ele>544.75</ele>
 <time>2010-04-30T07:18:20Z</time>
 </trkpt>
 <trkpt lat="47.429348" lon="13.216771">
 <ele>545.30</ele>
 <time>2010-04-30T07:18:24Z</time>
 </trkpt>
 <trkpt lat="47.429356" lon="13.216428">
 <ele>545.35</ele>
 <time>2010-04-30T07:18:29Z</time>
 </trkpt>
 <trkpt lat="47.429455" lon="13.216214">
 <ele>545.53</ele>
 <time>2010-04-30T07:18:33Z</time>
 </trkpt>
 <trkpt lat="47.429848" lon="13.215970">
 <ele>545.42</ele>
 <time>2010-04-30T07:18:42Z</time>
 </trkpt>
 <trkpt lat="47.430134" lon="13.215908">
 <ele>545.56</ele>
 <time>2010-04-30T07:18:48Z</time>
 </trkpt>
 <trkpt lat="47.430401" lon="13.215772">
 <ele>545.49</ele>
 <time>2010-04-30T07:18:54Z</time>
 </trkpt>
 <trkpt lat="47.430489" lon="13.215732">
 <ele>545.46</ele>
 <time>2010-04-30T07:18:56Z</time>
 </trkpt>
 <trkpt lat="47.430817" lon="13.215638">
 <ele>545.59</ele>
 <time>2010-04-30T07:19:03Z</time>
 </trkpt>
 <trkpt lat="47.430992" lon="13.215525">
 <ele>545.61</ele>
 <time>2010-04-30T07:19:07Z</time>
 </trkpt>
 <trkpt lat="47.431458" lon="13.215319">
 <ele>545.34</ele>
 <time>2010-04-30T07:19:16Z</time>
 </trkpt>
 <trkpt lat="47.431915" lon="13.215045">
 <ele>545.33</ele>
 <time>2010-04-30T07:19:25Z</time>
 </trkpt>
 <trkpt lat="47.432316" lon="13.214694">
 <ele>545.47</ele>
 <time>2010-04-30T07:19:34Z</time>
 </trkpt>
 <trkpt lat="47.432663" lon="13.214267">
 <ele>545.75</ele>
 <time>2010-04-30T07:19:43Z</time>
 </trkpt>
 <trkpt lat="47.432995" lon="13.213823">
 <ele>545.52</ele>
 <time>2010-04-30T07:19:52Z</time>
 </trkpt>
 <trkpt lat="47.433353" lon="13.213310">
 <ele>545.53</ele>
 <time>2010-04-30T07:20:02Z</time>
 </trkpt>
 <trkpt lat="47.433632" lon="13.212789">
 <ele>545.61</ele>
 <time>2010-04-30T07:20:11Z</time>
 </trkpt>
 <trkpt lat="47.433929" lon="13.212110">
 <ele>545.85</ele>
 <time>2010-04-30T07:20:22Z</time>
 </trkpt>
 <trkpt lat="47.434116" lon="13.211577">
 <ele>545.80</ele>
 <time>2010-04-30T07:20:30Z</time>
 </trkpt>
 <trkpt lat="47.434345" lon="13.211182">
 <ele>546.02</ele>
 <time>2010-04-30T07:20:37Z</time>
 </trkpt>
 <trkpt lat="47.434601" lon="13.210970">
 <ele>546.07</ele>
 <time>2010-04-30T07:20:43Z</time>
 </trkpt>
 <trkpt lat="47.434879" lon="13.210824">
 <ele>545.78</ele>
 <time>2010-04-30T07:20:49Z</time>
 </trkpt>
 <trkpt lat="47.435265" lon="13.210732">
 <ele>546.15</ele>
 <time>2010-04-30T07:20:57Z</time>
 </trkpt>
 <trkpt lat="47.435833" lon="13.210516">
 <ele>546.41</ele>
 <time>2010-04-30T07:21:09Z</time>
 </trkpt>
 <trkpt lat="47.436226" lon="13.210408">
 <ele>546.89</ele>
 <time>2010-04-30T07:21:17Z</time>
 </trkpt>
 <trkpt lat="47.436321" lon="13.210377">
 <ele>546.88</ele>
 <time>2010-04-30T07:21:19Z</time>
 </trkpt>
 <trkpt lat="47.436516" lon="13.210249">
 <ele>547.39</ele>
 <time>2010-04-30T07:21:24Z</time>
 </trkpt>
 <trkpt lat="47.436665" lon="13.210160">
 <ele>549.64</ele>
 <time>2010-04-30T07:21:31Z</time>
 </trkpt>
 <trkpt lat="47.436756" lon="13.210035">
 <ele>551.67</ele>
 <time>2010-04-30T07:21:37Z</time>
 </trkpt>
 <trkpt lat="47.436813" lon="13.209826">
 <ele>554.39</ele>
 <time>2010-04-30T07:21:44Z</time>
 </trkpt>
 <trkpt lat="47.436836" lon="13.209587">
 <ele>556.85</ele>
 <time>2010-04-30T07:21:53Z</time>
 </trkpt>
 <trkpt lat="47.436909" lon="13.209483">
 <ele>559.02</ele>
 <time>2010-04-30T07:21:59Z</time>
 </trkpt>
 <trkpt lat="47.436947" lon="13.209497">
 <ele>559.36</ele>
 <time>2010-04-30T07:22:01Z</time>
 </trkpt>
 <trkpt lat="47.436993" lon="13.209729">
 <ele>559.65</ele>
 <time>2010-04-30T07:22:07Z</time>
 </trkpt>
 <trkpt lat="47.436981" lon="13.210175">
 <ele>559.04</ele>
 <time>2010-04-30T07:22:15Z</time>
 </trkpt>
 <trkpt lat="47.436874" lon="13.210565">
 <ele>559.45</ele>
 <time>2010-04-30T07:22:22Z</time>
 </trkpt>
 <trkpt lat="47.436611" lon="13.211282">
 <ele>559.54</ele>
 <time>2010-04-30T07:22:35Z</time>
 </trkpt>
 <trkpt lat="47.436459" lon="13.211754">
 <ele>559.50</ele>
 <time>2010-04-30T07:22:43Z</time>
 </trkpt>
 <trkpt lat="47.436283" lon="13.212387">
 <ele>559.12</ele>
 <time>2010-04-30T07:22:52Z</time>
 </trkpt>
 <trkpt lat="47.436176" lon="13.212905">
 <ele>558.16</ele>
 <time>2010-04-30T07:22:58Z</time>
 </trkpt>
 <trkpt lat="47.436096" lon="13.213599">
 <ele>556.06</ele>
 <time>2010-04-30T07:23:05Z</time>
 </trkpt>
 <trkpt lat="47.436077" lon="13.214321">
 <ele>554.62</ele>
 <time>2010-04-30T07:23:12Z</time>
 </trkpt>
 <trkpt lat="47.436119" lon="13.215045">
 <ele>554.37</ele>
 <time>2010-04-30T07:23:20Z</time>
 </trkpt>
 <trkpt lat="47.436195" lon="13.215784">
 <ele>554.64</ele>
 <time>2010-04-30T07:23:29Z</time>
 </trkpt>
 <trkpt lat="47.436245" lon="13.216379">
 <ele>555.40</ele>
 <time>2010-04-30T07:23:37Z</time>
 </trkpt>
 <trkpt lat="47.436245" lon="13.216964">
 <ele>556.95</ele>
 <time>2010-04-30T07:23:46Z</time>
 </trkpt>
 <trkpt lat="47.436230" lon="13.217428">
 <ele>558.41</ele>
 <time>2010-04-30T07:23:54Z</time>
 </trkpt>
 <trkpt lat="47.436226" lon="13.217939">
 <ele>560.26</ele>
 <time>2010-04-30T07:24:03Z</time>
 </trkpt>
 <trkpt lat="47.436268" lon="13.218475">
 <ele>561.62</ele>
 <time>2010-04-30T07:24:13Z</time>
 </trkpt>
 <trkpt lat="47.436321" lon="13.219052">
 <ele>563.44</ele>
 <time>2010-04-30T07:24:24Z</time>
 </trkpt>
 <trkpt lat="47.436420" lon="13.219748">
 <ele>565.20</ele>
 <time>2010-04-30T07:24:38Z</time>
 </trkpt>
 <trkpt lat="47.436508" lon="13.220180">
 <ele>566.11</ele>
 <time>2010-04-30T07:24:47Z</time>
 </trkpt>
 <trkpt lat="47.436619" lon="13.220608">
 <ele>567.59</ele>
 <time>2010-04-30T07:24:56Z</time>
 </trkpt>
 <trkpt lat="47.436752" lon="13.221250">
 <ele>569.45</ele>
 <time>2010-04-30T07:25:09Z</time>
 </trkpt>
 <trkpt lat="47.436756" lon="13.221700">
 <ele>570.38</ele>
 <time>2010-04-30T07:25:18Z</time>
 </trkpt>
 <trkpt lat="47.436661" lon="13.222189">
 <ele>572.00</ele>
 <time>2010-04-30T07:25:29Z</time>
 </trkpt>
 <trkpt lat="47.436512" lon="13.222754">
 <ele>574.31</ele>
 <time>2010-04-30T07:25:41Z</time>
 </trkpt>
 <trkpt lat="47.436382" lon="13.223253">
 <ele>576.09</ele>
 <time>2010-04-30T07:25:51Z</time>
 </trkpt>
 <trkpt lat="47.436356" lon="13.223567">
 <ele>576.77</ele>
 <time>2010-04-30T07:25:57Z</time>
 </trkpt>
 <trkpt lat="47.436428" lon="13.223940">
 <ele>577.23</ele>
 <time>2010-04-30T07:26:04Z</time>
 </trkpt>
 <trkpt lat="47.436523" lon="13.224451">
 <ele>578.27</ele>
 <time>2010-04-30T07:26:12Z</time>
 </trkpt>
 <trkpt lat="47.436558" lon="13.224911">
 <ele>579.02</ele>
 <time>2010-04-30T07:26:20Z</time>
 </trkpt>
 <trkpt lat="47.436539" lon="13.225047">
 <ele>579.46</ele>
 <time>2010-04-30T07:26:24Z</time>
 </trkpt>
 <trkpt lat="47.436424" lon="13.225307">
 <ele>580.32</ele>
 <time>2010-04-30T07:26:31Z</time>
 </trkpt>
 <trkpt lat="47.436180" lon="13.225662">
 <ele>582.15</ele>
 <time>2010-04-30T07:26:42Z</time>
 </trkpt>
 <trkpt lat="47.436066" lon="13.225998">
 <ele>583.42</ele>
 <time>2010-04-30T07:26:49Z</time>
 </trkpt>
 <trkpt lat="47.435993" lon="13.226402">
 <ele>583.99</ele>
 <time>2010-04-30T07:26:56Z</time>
 </trkpt>
 <trkpt lat="47.435875" lon="13.226720">
 <ele>585.19</ele>
 <time>2010-04-30T07:27:03Z</time>
 </trkpt>
 <trkpt lat="47.435612" lon="13.226922">
 <ele>586.48</ele>
 <time>2010-04-30T07:27:11Z</time>
 </trkpt>
 <trkpt lat="47.435287" lon="13.227200">
 <ele>587.42</ele>
 <time>2010-04-30T07:27:21Z</time>
 </trkpt>
 <trkpt lat="47.435196" lon="13.227509">
 <ele>588.62</ele>
 <time>2010-04-30T07:27:27Z</time>
 </trkpt>
 <trkpt lat="47.435181" lon="13.227942">
 <ele>589.47</ele>
 <time>2010-04-30T07:27:34Z</time>
 </trkpt>
 <trkpt lat="47.435184" lon="13.228558">
 <ele>590.35</ele>
 <time>2010-04-30T07:27:44Z</time>
 </trkpt>
 <trkpt lat="47.435089" lon="13.228886">
 <ele>590.79</ele>
 <time>2010-04-30T07:27:50Z</time>
 </trkpt>
 <trkpt lat="47.434944" lon="13.229061">
 <ele>591.93</ele>
 <time>2010-04-30T07:27:55Z</time>
 </trkpt>
 <trkpt lat="47.434589" lon="13.229378">
 <ele>592.91</ele>
 <time>2010-04-30T07:28:06Z</time>
 </trkpt>
 <trkpt lat="47.434242" lon="13.229683">
 <ele>593.78</ele>
 <time>2010-04-30T07:28:16Z</time>
 </trkpt>
 <trkpt lat="47.433926" lon="13.229852">
 <ele>595.70</ele>
 <time>2010-04-30T07:28:25Z</time>
 </trkpt>
 <trkpt lat="47.433762" lon="13.230125">
 <ele>595.81</ele>
 <time>2010-04-30T07:28:31Z</time>
 </trkpt>
 <trkpt lat="47.433701" lon="13.230462">
 <ele>596.49</ele>
 <time>2010-04-30T07:28:36Z</time>
 </trkpt>
 <trkpt lat="47.433655" lon="13.231027">
 <ele>596.92</ele>
 <time>2010-04-30T07:28:44Z</time>
 </trkpt>
 <trkpt lat="47.433544" lon="13.231580">
 <ele>597.75</ele>
 <time>2010-04-30T07:28:53Z</time>
 </trkpt>
 <trkpt lat="47.433460" lon="13.232051">
 <ele>598.19</ele>
 <time>2010-04-30T07:29:01Z</time>
 </trkpt>
 <trkpt lat="47.433353" lon="13.232667">
 <ele>599.20</ele>
 <time>2010-04-30T07:29:11Z</time>
 </trkpt>
 <trkpt lat="47.433155" lon="13.233290">
 <ele>600.28</ele>
 <time>2010-04-30T07:29:22Z</time>
 </trkpt>
 <trkpt lat="47.433025" lon="13.233907">
 <ele>601.56</ele>
 <time>2010-04-30T07:29:32Z</time>
 </trkpt>
 <trkpt lat="47.432941" lon="13.234577">
 <ele>601.77</ele>
 <time>2010-04-30T07:29:42Z</time>
 </trkpt>
 <trkpt lat="47.432892" lon="13.235180">
 <ele>602.51</ele>
 <time>2010-04-30T07:29:51Z</time>
 </trkpt>
 <trkpt lat="47.432774" lon="13.236233">
 <ele>604.06</ele>
 <time>2010-04-30T07:30:07Z</time>
 </trkpt>
 <trkpt lat="47.432674" lon="13.236891">
 <ele>605.10</ele>
 <time>2010-04-30T07:30:18Z</time>
 </trkpt>
 <trkpt lat="47.432537" lon="13.237528">
 <ele>605.66</ele>
 <time>2010-04-30T07:30:29Z</time>
 </trkpt>
 <trkpt lat="47.432446" lon="13.238287">
 <ele>606.22</ele>
 <time>2010-04-30T07:30:40Z</time>
 </trkpt>
 <trkpt lat="47.432316" lon="13.239016">
 <ele>607.29</ele>
 <time>2010-04-30T07:30:51Z</time>
 </trkpt>
 <trkpt lat="47.432137" lon="13.239474">
 <ele>608.22</ele>
 <time>2010-04-30T07:30:59Z</time>
 </trkpt>
 <trkpt lat="47.431870" lon="13.239887">
 <ele>609.51</ele>
 <time>2010-04-30T07:31:08Z</time>
 </trkpt>
 <trkpt lat="47.431484" lon="13.240300">
 <ele>610.54</ele>
 <time>2010-04-30T07:31:19Z</time>
 </trkpt>
 <trkpt lat="47.431179" lon="13.240773">
 <ele>611.75</ele>
 <time>2010-04-30T07:31:29Z</time>
 </trkpt>
 <trkpt lat="47.430946" lon="13.241276">
 <ele>612.46</ele>
 <time>2010-04-30T07:31:38Z</time>
 </trkpt>
 <trkpt lat="47.430824" lon="13.241707">
 <ele>613.35</ele>
 <time>2010-04-30T07:31:45Z</time>
 </trkpt>
 <trkpt lat="47.430733" lon="13.242265">
 <ele>613.69</ele>
 <time>2010-04-30T07:31:53Z</time>
 </trkpt>
 <trkpt lat="47.430717" lon="13.242996">
 <ele>614.33</ele>
 <time>2010-04-30T07:32:04Z</time>
 </trkpt>
 <trkpt lat="47.430702" lon="13.243898">
 <ele>615.11</ele>
 <time>2010-04-30T07:32:17Z</time>
 </trkpt>
 <trkpt lat="47.430656" lon="13.244858">
 <ele>615.96</ele>
 <time>2010-04-30T07:32:31Z</time>
 </trkpt>
 <trkpt lat="47.430599" lon="13.245532">
 <ele>616.63</ele>
 <time>2010-04-30T07:32:41Z</time>
 </trkpt>
 <trkpt lat="47.430603" lon="13.246108">
 <ele>617.78</ele>
 <time>2010-04-30T07:32:50Z</time>
 </trkpt>
 <trkpt lat="47.430702" lon="13.246716">
 <ele>618.69</ele>
 <time>2010-04-30T07:33:00Z</time>
 </trkpt>
 <trkpt lat="47.430908" lon="13.247278">
 <ele>619.73</ele>
 <time>2010-04-30T07:33:10Z</time>
 </trkpt>
 <trkpt lat="47.431168" lon="13.247912">
 <ele>620.54</ele>
 <time>2010-04-30T07:33:21Z</time>
 </trkpt>
 <trkpt lat="47.431423" lon="13.248680">
 <ele>621.62</ele>
 <time>2010-04-30T07:33:34Z</time>
 </trkpt>
 <trkpt lat="47.431553" lon="13.249379">
 <ele>622.17</ele>
 <time>2010-04-30T07:33:45Z</time>
 </trkpt>
 <trkpt lat="47.431591" lon="13.250111">
 <ele>622.96</ele>
 <time>2010-04-30T07:33:56Z</time>
 </trkpt>
 <trkpt lat="47.431576" lon="13.250786">
 <ele>623.39</ele>
 <time>2010-04-30T07:34:06Z</time>
 </trkpt>
 <trkpt lat="47.431522" lon="13.251501">
 <ele>624.37</ele>
 <time>2010-04-30T07:34:17Z</time>
 </trkpt>
 <trkpt lat="47.431404" lon="13.252203">
 <ele>625.34</ele>
 <time>2010-04-30T07:34:28Z</time>
 </trkpt>
 <trkpt lat="47.431217" lon="13.252812">
 <ele>626.36</ele>
 <time>2010-04-30T07:34:38Z</time>
 </trkpt>
 <trkpt lat="47.430984" lon="13.253462">
 <ele>627.58</ele>
 <time>2010-04-30T07:34:49Z</time>
 </trkpt>
 <trkpt lat="47.430809" lon="13.254054">
 <ele>628.78</ele>
 <time>2010-04-30T07:34:59Z</time>
 </trkpt>
 <trkpt lat="47.430618" lon="13.254864">
 <ele>629.33</ele>
 <time>2010-04-30T07:35:12Z</time>
 </trkpt>
 <trkpt lat="47.430534" lon="13.255533">
 <ele>630.51</ele>
 <time>2010-04-30T07:35:22Z</time>
 </trkpt>
 <trkpt lat="47.430523" lon="13.256133">
 <ele>631.17</ele>
 <time>2010-04-30T07:35:31Z</time>
 </trkpt>
 <trkpt lat="47.430496" lon="13.256960">
 <ele>632.48</ele>
 <time>2010-04-30T07:35:44Z</time>
 </trkpt>
 <trkpt lat="47.430462" lon="13.257758">
 <ele>633.62</ele>
 <time>2010-04-30T07:35:56Z</time>
 </trkpt>
 <trkpt lat="47.430420" lon="13.258497">
 <ele>634.29</ele>
 <time>2010-04-30T07:36:07Z</time>
 </trkpt>
 <trkpt lat="47.430336" lon="13.259402">
 <ele>635.48</ele>
 <time>2010-04-30T07:36:21Z</time>
 </trkpt>
 <trkpt lat="47.430199" lon="13.260306">
 <ele>636.59</ele>
 <time>2010-04-30T07:36:35Z</time>
 </trkpt>
 <trkpt lat="47.430054" lon="13.261064">
 <ele>638.14</ele>
 <time>2010-04-30T07:36:47Z</time>
 </trkpt>
 <trkpt lat="47.429958" lon="13.261680">
 <ele>639.56</ele>
 <time>2010-04-30T07:36:57Z</time>
 </trkpt>
 <trkpt lat="47.429985" lon="13.262183">
 <ele>640.39</ele>
 <time>2010-04-30T07:37:05Z</time>
 </trkpt>
 <trkpt lat="47.430122" lon="13.262731">
 <ele>640.84</ele>
 <time>2010-04-30T07:37:14Z</time>
 </trkpt>
 <trkpt lat="47.430321" lon="13.263405">
 <ele>641.29</ele>
 <time>2010-04-30T07:37:25Z</time>
 </trkpt>
 <trkpt lat="47.430401" lon="13.263922">
 <ele>641.82</ele>
 <time>2010-04-30T07:37:33Z</time>
 </trkpt>
 <trkpt lat="47.430424" lon="13.264551">
 <ele>643.26</ele>
 <time>2010-04-30T07:37:43Z</time>
 </trkpt>
 <trkpt lat="47.430473" lon="13.265086">
 <ele>645.02</ele>
 <time>2010-04-30T07:37:52Z</time>
 </trkpt>
 <trkpt lat="47.430538" lon="13.265551">
 <ele>646.77</ele>
 <time>2010-04-30T07:38:00Z</time>
 </trkpt>
 <trkpt lat="47.430538" lon="13.265613">
 <ele>646.95</ele>
 <time>2010-04-30T07:38:01Z</time>
 </trkpt>
 <trkpt lat="47.430431" lon="13.266114">
 <ele>648.83</ele>
 <time>2010-04-30T07:38:10Z</time>
 </trkpt>
 <trkpt lat="47.430264" lon="13.266432">
 <ele>650.57</ele>
 <time>2010-04-30T07:38:17Z</time>
 </trkpt>
 <trkpt lat="47.430004" lon="13.266765">
 <ele>653.13</ele>
 <time>2010-04-30T07:38:26Z</time>
 </trkpt>
 <trkpt lat="47.429977" lon="13.266808">
 <ele>653.47</ele>
 <time>2010-04-30T07:38:27Z</time>
 </trkpt>
 <trkpt lat="47.429897" lon="13.267025">
 <ele>654.25</ele>
 <time>2010-04-30T07:38:31Z</time>
 </trkpt>
 <trkpt lat="47.429844" lon="13.267542">
 <ele>654.82</ele>
 <time>2010-04-30T07:38:39Z</time>
 </trkpt>
 <trkpt lat="47.429840" lon="13.267955">
 <ele>654.57</ele>
 <time>2010-04-30T07:38:45Z</time>
 </trkpt>
 <trkpt lat="47.429863" lon="13.268201">
 <ele>654.57</ele>
 <time>2010-04-30T07:38:49Z</time>
 </trkpt>
 <trkpt lat="47.429897" lon="13.268379">
 <ele>654.50</ele>
 <time>2010-04-30T07:38:52Z</time>
 </trkpt>
 <trkpt lat="47.429920" lon="13.268500">
 <ele>654.78</ele>
 <time>2010-04-30T07:38:54Z</time>
 </trkpt>
 <trkpt lat="47.430080" lon="13.269035">
 <ele>654.81</ele>
 <time>2010-04-30T07:39:03Z</time>
 </trkpt>
 <trkpt lat="47.430130" lon="13.269299">
 <ele>654.97</ele>
 <time>2010-04-30T07:39:08Z</time>
 </trkpt>
 <trkpt lat="47.430157" lon="13.269740">
 <ele>655.24</ele>
 <time>2010-04-30T07:39:15Z</time>
 </trkpt>
 <trkpt lat="47.430084" lon="13.270266">
 <ele>655.88</ele>
 <time>2010-04-30T07:39:23Z</time>
 </trkpt>
 <trkpt lat="47.430023" lon="13.270690">
 <ele>656.27</ele>
 <time>2010-04-30T07:39:30Z</time>
 </trkpt>
 <trkpt lat="47.429955" lon="13.271108">
 <ele>656.86</ele>
 <time>2010-04-30T07:39:37Z</time>
 </trkpt>
 <trkpt lat="47.429928" lon="13.271235">
 <ele>657.04</ele>
 <time>2010-04-30T07:39:39Z</time>
 </trkpt>
 <trkpt lat="47.429882" lon="13.271604">
 <ele>657.46</ele>
 <time>2010-04-30T07:39:45Z</time>
 </trkpt>
 <trkpt lat="47.429852" lon="13.271858">
 <ele>657.80</ele>
 <time>2010-04-30T07:39:49Z</time>
 </trkpt>
 <trkpt lat="47.429855" lon="13.272400">
 <ele>658.18</ele>
 <time>2010-04-30T07:39:57Z</time>
 </trkpt>
 <trkpt lat="47.429859" lon="13.272467">
 <ele>658.34</ele>
 <time>2010-04-30T07:39:58Z</time>
 </trkpt>
 <trkpt lat="47.429893" lon="13.272655">
 <ele>658.34</ele>
 <time>2010-04-30T07:40:01Z</time>
 </trkpt>
 <trkpt lat="47.429897" lon="13.273007">
 <ele>658.28</ele>
 <time>2010-04-30T07:40:06Z</time>
 </trkpt>
 <trkpt lat="47.429848" lon="13.273485">
 <ele>658.92</ele>
 <time>2010-04-30T07:40:13Z</time>
 </trkpt>
 <trkpt lat="47.429794" lon="13.273983">
 <ele>659.27</ele>
 <time>2010-04-30T07:40:21Z</time>
 </trkpt>
 <trkpt lat="47.429852" lon="13.274349">
 <ele>660.06</ele>
 <time>2010-04-30T07:40:27Z</time>
 </trkpt>
 <trkpt lat="47.430035" lon="13.274935">
 <ele>661.03</ele>
 <time>2010-04-30T07:40:37Z</time>
 </trkpt>
 <trkpt lat="47.430050" lon="13.274995">
 <ele>661.03</ele>
 <time>2010-04-30T07:40:38Z</time>
 </trkpt>
 <trkpt lat="47.430077" lon="13.275256">
 <ele>661.27</ele>
 <time>2010-04-30T07:40:42Z</time>
 </trkpt>
 <trkpt lat="47.430035" lon="13.275674">
 <ele>661.99</ele>
 <time>2010-04-30T07:40:49Z</time>
 </trkpt>
 <trkpt lat="47.430023" lon="13.275729">
 <ele>662.09</ele>
 <time>2010-04-30T07:40:50Z</time>
 </trkpt>
 <trkpt lat="47.429958" lon="13.275904">
 <ele>662.50</ele>
 <time>2010-04-30T07:40:53Z</time>
 </trkpt>
 <trkpt lat="47.429688" lon="13.276297">
 <ele>663.30</ele>
 <time>2010-04-30T07:41:02Z</time>
 </trkpt>
 <trkpt lat="47.429550" lon="13.276450">
 <ele>663.60</ele>
 <time>2010-04-30T07:41:06Z</time>
 </trkpt>
 <trkpt lat="47.429066" lon="13.276922">
 <ele>664.86</ele>
 <time>2010-04-30T07:41:17Z</time>
 </trkpt>
 <trkpt lat="47.428776" lon="13.277200">
 <ele>666.50</ele>
 <time>2010-04-30T07:41:24Z</time>
 </trkpt>
 <trkpt lat="47.428673" lon="13.277480">
 <ele>666.90</ele>
 <time>2010-04-30T07:41:29Z</time>
 </trkpt>
 <trkpt lat="47.428673" lon="13.277783">
 <ele>667.12</ele>
 <time>2010-04-30T07:41:34Z</time>
 </trkpt>
 <trkpt lat="47.428684" lon="13.278080">
 <ele>667.78</ele>
 <time>2010-04-30T07:41:39Z</time>
 </trkpt>
 <trkpt lat="47.428665" lon="13.278290">
 <ele>668.64</ele>
 <time>2010-04-30T07:41:43Z</time>
 </trkpt>
 <trkpt lat="47.428528" lon="13.278643">
 <ele>669.53</ele>
 <time>2010-04-30T07:41:50Z</time>
 </trkpt>
 <trkpt lat="47.428379" lon="13.278959">
 <ele>669.91</ele>
 <time>2010-04-30T07:41:56Z</time>
 </trkpt>
 <trkpt lat="47.428120" lon="13.279465">
 <ele>670.87</ele>
 <time>2010-04-30T07:42:06Z</time>
 </trkpt>
 <trkpt lat="47.427910" lon="13.279946">
 <ele>672.12</ele>
 <time>2010-04-30T07:42:15Z</time>
 </trkpt>
 <trkpt lat="47.427753" lon="13.280301">
 <ele>673.49</ele>
 <time>2010-04-30T07:42:22Z</time>
 </trkpt>
 <trkpt lat="47.427612" lon="13.280529">
 <ele>674.17</ele>
 <time>2010-04-30T07:42:27Z</time>
 </trkpt>
 <trkpt lat="47.427334" lon="13.280814">
 <ele>675.10</ele>
 <time>2010-04-30T07:42:35Z</time>
 </trkpt>
 <trkpt lat="47.427052" lon="13.280992">
 <ele>676.19</ele>
 <time>2010-04-30T07:42:42Z</time>
 </trkpt>
 <trkpt lat="47.426613" lon="13.281157">
 <ele>676.66</ele>
 <time>2010-04-30T07:42:52Z</time>
 </trkpt>
 <trkpt lat="47.426395" lon="13.281248">
 <ele>676.98</ele>
 <time>2010-04-30T07:42:57Z</time>
 </trkpt>
 <trkpt lat="47.426205" lon="13.281470">
 <ele>677.95</ele>
 <time>2010-04-30T07:43:03Z</time>
 </trkpt>
 <trkpt lat="47.426128" lon="13.281794">
 <ele>678.58</ele>
 <time>2010-04-30T07:43:08Z</time>
 </trkpt>
 <trkpt lat="47.426125" lon="13.281870">
 <ele>678.53</ele>
 <time>2010-04-30T07:43:09Z</time>
 </trkpt>
 <trkpt lat="47.426136" lon="13.282228">
 <ele>678.01</ele>
 <time>2010-04-30T07:43:14Z</time>
 </trkpt>
 <trkpt lat="47.426140" lon="13.282512">
 <ele>678.33</ele>
 <time>2010-04-30T07:43:18Z</time>
 </trkpt>
 <trkpt lat="47.426064" lon="13.282912">
 <ele>679.53</ele>
 <time>2010-04-30T07:43:25Z</time>
 </trkpt>
 <trkpt lat="47.425884" lon="13.283494">
 <ele>681.69</ele>
 <time>2010-04-30T07:43:36Z</time>
 </trkpt>
 <trkpt lat="47.425644" lon="13.284205">
 <ele>682.34</ele>
 <time>2010-04-30T07:43:48Z</time>
 </trkpt>
 <trkpt lat="47.425369" lon="13.284981">
 <ele>682.88</ele>
 <time>2010-04-30T07:44:01Z</time>
 </trkpt>
 <trkpt lat="47.425190" lon="13.285621">
 <ele>684.81</ele>
 <time>2010-04-30T07:44:12Z</time>
 </trkpt>
 <trkpt lat="47.424969" lon="13.286258">
 <ele>685.68</ele>
 <time>2010-04-30T07:44:23Z</time>
 </trkpt>
 <trkpt lat="47.424786" lon="13.286791">
 <ele>686.93</ele>
 <time>2010-04-30T07:44:33Z</time>
 </trkpt>
 <trkpt lat="47.424747" lon="13.287219">
 <ele>687.25</ele>
 <time>2010-04-30T07:44:40Z</time>
 </trkpt>
 <trkpt lat="47.424797" lon="13.287645">
 <ele>688.52</ele>
 <time>2010-04-30T07:44:47Z</time>
 </trkpt>
 <trkpt lat="47.424934" lon="13.288380">
 <ele>688.80</ele>
 <time>2010-04-30T07:44:58Z</time>
 </trkpt>
 <trkpt lat="47.424969" lon="13.288657">
 <ele>688.87</ele>
 <time>2010-04-30T07:45:02Z</time>
 </trkpt>
 <trkpt lat="47.424965" lon="13.289307">
 <ele>689.49</ele>
 <time>2010-04-30T07:45:12Z</time>
 </trkpt>
 <trkpt lat="47.424885" lon="13.289792">
 <ele>689.64</ele>
 <time>2010-04-30T07:45:20Z</time>
 </trkpt>
 <trkpt lat="47.424751" lon="13.290385">
 <ele>690.72</ele>
 <time>2010-04-30T07:45:30Z</time>
 </trkpt>
 <trkpt lat="47.424587" lon="13.290925">
 <ele>691.70</ele>
 <time>2010-04-30T07:45:40Z</time>
 </trkpt>
 <trkpt lat="47.424370" lon="13.291439">
 <ele>692.90</ele>
 <time>2010-04-30T07:45:50Z</time>
 </trkpt>
 <trkpt lat="47.424091" lon="13.291931">
 <ele>694.32</ele>
 <time>2010-04-30T07:46:01Z</time>
 </trkpt>
 <trkpt lat="47.423923" lon="13.292315">
 <ele>695.08</ele>
 <time>2010-04-30T07:46:09Z</time>
 </trkpt>
 <trkpt lat="47.423756" lon="13.292710">
 <ele>696.69</ele>
 <time>2010-04-30T07:46:17Z</time>
 </trkpt>
 <trkpt lat="47.423672" lon="13.293194">
 <ele>696.99</ele>
 <time>2010-04-30T07:46:25Z</time>
 </trkpt>
 <trkpt lat="47.423599" lon="13.293427">
 <ele>697.03</ele>
 <time>2010-04-30T07:46:29Z</time>
 </trkpt>
 <trkpt lat="47.423378" lon="13.293723">
 <ele>698.44</ele>
 <time>2010-04-30T07:46:37Z</time>
 </trkpt>
 <trkpt lat="47.423222" lon="13.293959">
 <ele>699.22</ele>
 <time>2010-04-30T07:46:43Z</time>
 </trkpt>
 <trkpt lat="47.423187" lon="13.294254">
 <ele>700.14</ele>
 <time>2010-04-30T07:46:48Z</time>
 </trkpt>
 <trkpt lat="47.423199" lon="13.294700">
 <ele>700.52</ele>
 <time>2010-04-30T07:46:55Z</time>
 </trkpt>
 <trkpt lat="47.423180" lon="13.294833">
 <ele>700.42</ele>
 <time>2010-04-30T07:46:57Z</time>
 </trkpt>
 <trkpt lat="47.423080" lon="13.295097">
 <ele>700.52</ele>
 <time>2010-04-30T07:47:02Z</time>
 </trkpt>
 <trkpt lat="47.422897" lon="13.295207">
 <ele>701.26</ele>
 <time>2010-04-30T07:47:07Z</time>
 </trkpt>
 <trkpt lat="47.422493" lon="13.295194">
 <ele>702.28</ele>
 <time>2010-04-30T07:47:17Z</time>
 </trkpt>
 <trkpt lat="47.422165" lon="13.295086">
 <ele>702.57</ele>
 <time>2010-04-30T07:47:25Z</time>
 </trkpt>
 <trkpt lat="47.422123" lon="13.295069">
 <ele>702.68</ele>
 <time>2010-04-30T07:47:26Z</time>
 </trkpt>
 <trkpt lat="47.421841" lon="13.295140">
 <ele>703.10</ele>
 <time>2010-04-30T07:47:33Z</time>
 </trkpt>
 <trkpt lat="47.421692" lon="13.295332">
 <ele>704.05</ele>
 <time>2010-04-30T07:47:38Z</time>
 </trkpt>
 <trkpt lat="47.421627" lon="13.295561">
 <ele>704.55</ele>
 <time>2010-04-30T07:47:42Z</time>
 </trkpt>
 <trkpt lat="47.421513" lon="13.296453">
 <ele>705.03</ele>
 <time>2010-04-30T07:47:56Z</time>
 </trkpt>
 <trkpt lat="47.421444" lon="13.297024">
 <ele>705.80</ele>
 <time>2010-04-30T07:48:05Z</time>
 </trkpt>
 <trkpt lat="47.421318" lon="13.297627">
 <ele>706.77</ele>
 <time>2010-04-30T07:48:15Z</time>
 </trkpt>
 <trkpt lat="47.421150" lon="13.298144">
 <ele>707.49</ele>
 <time>2010-04-30T07:48:24Z</time>
 </trkpt>
 <trkpt lat="47.420883" lon="13.298677">
 <ele>708.16</ele>
 <time>2010-04-30T07:48:34Z</time>
 </trkpt>
 <trkpt lat="47.420616" lon="13.299027">
 <ele>708.76</ele>
 <time>2010-04-30T07:48:42Z</time>
 </trkpt>
 <trkpt lat="47.420238" lon="13.299453">
 <ele>709.53</ele>
 <time>2010-04-30T07:48:53Z</time>
 </trkpt>
 <trkpt lat="47.420036" lon="13.299771">
 <ele>710.15</ele>
 <time>2010-04-30T07:49:00Z</time>
 </trkpt>
 <trkpt lat="47.419983" lon="13.299948">
 <ele>710.53</ele>
 <time>2010-04-30T07:49:03Z</time>
 </trkpt>
 <trkpt lat="47.419933" lon="13.300269">
 <ele>711.32</ele>
 <time>2010-04-30T07:49:09Z</time>
 </trkpt>
 <trkpt lat="47.419868" lon="13.300653">
 <ele>711.77</ele>
 <time>2010-04-30T07:49:15Z</time>
 </trkpt>
 <trkpt lat="47.419704" lon="13.301112">
 <ele>712.65</ele>
 <time>2010-04-30T07:49:23Z</time>
 </trkpt>
 <trkpt lat="47.419476" lon="13.301465">
 <ele>713.34</ele>
 <time>2010-04-30T07:49:31Z</time>
 </trkpt>
 <trkpt lat="47.419170" lon="13.301861">
 <ele>714.69</ele>
 <time>2010-04-30T07:49:41Z</time>
 </trkpt>
 <trkpt lat="47.418907" lon="13.302148">
 <ele>716.00</ele>
 <time>2010-04-30T07:49:49Z</time>
 </trkpt>
 <trkpt lat="47.418728" lon="13.302466">
 <ele>716.54</ele>
 <time>2010-04-30T07:49:56Z</time>
 </trkpt>
 <trkpt lat="47.418652" lon="13.302880">
 <ele>717.73</ele>
 <time>2010-04-30T07:50:03Z</time>
 </trkpt>
 <trkpt lat="47.418621" lon="13.303309">
 <ele>718.32</ele>
 <time>2010-04-30T07:50:10Z</time>
 </trkpt>
 <trkpt lat="47.418552" lon="13.303526">
 <ele>718.70</ele>
 <time>2010-04-30T07:50:14Z</time>
 </trkpt>
 <trkpt lat="47.418304" lon="13.303848">
 <ele>719.06</ele>
 <time>2010-04-30T07:50:22Z</time>
 </trkpt>
 <trkpt lat="47.417950" lon="13.304288">
 <ele>719.84</ele>
 <time>2010-04-30T07:50:33Z</time>
 </trkpt>
 <trkpt lat="47.417702" lon="13.304639">
 <ele>721.98</ele>
 <time>2010-04-30T07:50:42Z</time>
 </trkpt>
 <trkpt lat="47.417343" lon="13.305060">
 <ele>722.67</ele>
 <time>2010-04-30T07:50:53Z</time>
 </trkpt>
 <trkpt lat="47.416950" lon="13.305371">
 <ele>723.47</ele>
 <time>2010-04-30T07:51:04Z</time>
 </trkpt>
 <trkpt lat="47.416512" lon="13.305679">
 <ele>724.46</ele>
 <time>2010-04-30T07:51:16Z</time>
 </trkpt>
 <trkpt lat="47.416313" lon="13.305937">
 <ele>725.10</ele>
 <time>2010-04-30T07:51:22Z</time>
 </trkpt>
 <trkpt lat="47.416290" lon="13.305990">
 <ele>725.13</ele>
 <time>2010-04-30T07:51:23Z</time>
 </trkpt>
 <trkpt lat="47.416103" lon="13.306574">
 <ele>725.73</ele>
 <time>2010-04-30T07:51:33Z</time>
 </trkpt>
 <trkpt lat="47.415939" lon="13.307045">
 <ele>726.58</ele>
 <time>2010-04-30T07:51:41Z</time>
 </trkpt>
 <trkpt lat="47.415703" lon="13.307793">
 <ele>727.21</ele>
 <time>2010-04-30T07:51:53Z</time>
 </trkpt>
 <trkpt lat="47.415524" lon="13.308314">
 <ele>727.81</ele>
 <time>2010-04-30T07:52:02Z</time>
 </trkpt>
 <trkpt lat="47.415298" lon="13.308664">
 <ele>728.57</ele>
 <time>2010-04-30T07:52:10Z</time>
 </trkpt>
 <trkpt lat="47.415016" lon="13.308997">
 <ele>730.22</ele>
 <time>2010-04-30T07:52:19Z</time>
 </trkpt>
 <trkpt lat="47.414749" lon="13.309313">
 <ele>731.55</ele>
 <time>2010-04-30T07:52:28Z</time>
 </trkpt>
 <trkpt lat="47.414478" lon="13.309634">
 <ele>733.00</ele>
 <time>2010-04-30T07:52:38Z</time>
 </trkpt>
 <trkpt lat="47.414326" lon="13.309922">
 <ele>733.93</ele>
 <time>2010-04-30T07:52:45Z</time>
 </trkpt>
 <trkpt lat="47.414246" lon="13.310354">
 <ele>734.42</ele>
 <time>2010-04-30T07:52:53Z</time>
 </trkpt>
 <trkpt lat="47.414177" lon="13.310873">
 <ele>735.03</ele>
 <time>2010-04-30T07:53:02Z</time>
 </trkpt>
 <trkpt lat="47.414135" lon="13.311374">
 <ele>736.40</ele>
 <time>2010-04-30T07:53:11Z</time>
 </trkpt>
 <trkpt lat="47.414185" lon="13.311736">
 <ele>737.36</ele>
 <time>2010-04-30T07:53:18Z</time>
 </trkpt>
 <trkpt lat="47.414371" lon="13.312150">
 <ele>738.28</ele>
 <time>2010-04-30T07:53:27Z</time>
 </trkpt>
 <trkpt lat="47.414665" lon="13.312702">
 <ele>738.56</ele>
 <time>2010-04-30T07:53:38Z</time>
 </trkpt>
 <trkpt lat="47.414753" lon="13.312859">
 <ele>738.48</ele>
 <time>2010-04-30T07:53:41Z</time>
 </trkpt>
 <trkpt lat="47.414829" lon="13.313220">
 <ele>738.38</ele>
 <time>2010-04-30T07:53:47Z</time>
 </trkpt>
 <trkpt lat="47.414768" lon="13.313523">
 <ele>738.88</ele>
 <time>2010-04-30T07:53:52Z</time>
 </trkpt>
 <trkpt lat="47.414745" lon="13.313573">
 <ele>738.86</ele>
 <time>2010-04-30T07:53:53Z</time>
 </trkpt>
 <trkpt lat="47.414471" lon="13.314021">
 <ele>739.86</ele>
 <time>2010-04-30T07:54:03Z</time>
 </trkpt>
 <trkpt lat="47.414379" lon="13.314228">
 <ele>739.96</ele>
 <time>2010-04-30T07:54:07Z</time>
 </trkpt>
 <trkpt lat="47.414333" lon="13.314410">
 <ele>740.24</ele>
 <time>2010-04-30T07:54:10Z</time>
 </trkpt>
 <trkpt lat="47.414314" lon="13.314673">
 <ele>740.97</ele>
 <time>2010-04-30T07:54:14Z</time>
 </trkpt>
 <trkpt lat="47.414333" lon="13.314857">
 <ele>741.35</ele>
 <time>2010-04-30T07:54:17Z</time>
 </trkpt>
 <trkpt lat="47.414482" lon="13.315314">
 <ele>741.96</ele>
 <time>2010-04-30T07:54:25Z</time>
 </trkpt>
 <trkpt lat="47.414715" lon="13.316051">
 <ele>742.54</ele>
 <time>2010-04-30T07:54:37Z</time>
 </trkpt>
 <trkpt lat="47.414837" lon="13.316742">
 <ele>742.93</ele>
 <time>2010-04-30T07:54:47Z</time>
 </trkpt>
 <trkpt lat="47.414886" lon="13.317297">
 <ele>743.70</ele>
 <time>2010-04-30T07:54:56Z</time>
 </trkpt>
 <trkpt lat="47.414921" lon="13.317477">
 <ele>744.04</ele>
 <time>2010-04-30T07:54:59Z</time>
 </trkpt>
 <trkpt lat="47.415131" lon="13.317878">
 <ele>745.20</ele>
 <time>2010-04-30T07:55:07Z</time>
 </trkpt>
 <trkpt lat="47.415390" lon="13.318156">
 <ele>746.36</ele>
 <time>2010-04-30T07:55:15Z</time>
 </trkpt>
 <trkpt lat="47.415672" lon="13.318466">
 <ele>747.14</ele>
 <time>2010-04-30T07:55:23Z</time>
 </trkpt>
 <trkpt lat="47.415905" lon="13.318890">
 <ele>747.25</ele>
 <time>2010-04-30T07:55:31Z</time>
 </trkpt>
 <trkpt lat="47.416092" lon="13.319404">
 <ele>747.40</ele>
 <time>2010-04-30T07:55:39Z</time>
 </trkpt>
 <trkpt lat="47.416340" lon="13.320281">
 <ele>747.63</ele>
 <time>2010-04-30T07:55:52Z</time>
 </trkpt>
 <trkpt lat="47.416607" lon="13.321161">
 <ele>748.10</ele>
 <time>2010-04-30T07:56:05Z</time>
 </trkpt>
 <trkpt lat="47.416794" lon="13.321783">
 <ele>748.73</ele>
 <time>2010-04-30T07:56:15Z</time>
 </trkpt>
 <trkpt lat="47.417030" lon="13.322568">
 <ele>750.00</ele>
 <time>2010-04-30T07:56:28Z</time>
 </trkpt>
 <trkpt lat="47.417274" lon="13.323339">
 <ele>751.35</ele>
 <time>2010-04-30T07:56:41Z</time>
 </trkpt>
 <trkpt lat="47.417526" lon="13.323964">
 <ele>752.40</ele>
 <time>2010-04-30T07:56:52Z</time>
 </trkpt>
 <trkpt lat="47.417831" lon="13.324612">
 <ele>753.20</ele>
 <time>2010-04-30T07:57:04Z</time>
 </trkpt>
 <trkpt lat="47.418221" lon="13.325438">
 <ele>754.49</ele>
 <time>2010-04-30T07:57:19Z</time>
 </trkpt>
 <trkpt lat="47.418575" lon="13.326183">
 <ele>755.01</ele>
 <time>2010-04-30T07:57:32Z</time>
 </trkpt>
 <trkpt lat="47.418934" lon="13.326913">
 <ele>756.19</ele>
 <time>2010-04-30T07:57:45Z</time>
 </trkpt>
 <trkpt lat="47.419338" lon="13.327558">
 <ele>757.25</ele>
 <time>2010-04-30T07:57:58Z</time>
 </trkpt>
 <trkpt lat="47.419849" lon="13.328276">
 <ele>759.47</ele>
 <time>2010-04-30T07:58:14Z</time>
 </trkpt>
 <trkpt lat="47.420200" lon="13.328757">
 <ele>760.90</ele>
 <time>2010-04-30T07:58:25Z</time>
 </trkpt>
 <trkpt lat="47.420551" lon="13.329245">
 <ele>762.10</ele>
 <time>2010-04-30T07:58:36Z</time>
 </trkpt>
 <trkpt lat="47.420921" lon="13.329753">
 <ele>763.14</ele>
 <time>2010-04-30T07:58:47Z</time>
 </trkpt>
 <trkpt lat="47.421253" lon="13.330294">
 <ele>764.39</ele>
 <time>2010-04-30T07:58:58Z</time>
 </trkpt>
 <trkpt lat="47.421520" lon="13.330900">
 <ele>765.49</ele>
 <time>2010-04-30T07:59:09Z</time>
 </trkpt>
 <trkpt lat="47.421673" lon="13.331451">
 <ele>766.32</ele>
 <time>2010-04-30T07:59:18Z</time>
 </trkpt>
 <trkpt lat="47.421757" lon="13.332095">
 <ele>767.39</ele>
 <time>2010-04-30T07:59:28Z</time>
 </trkpt>
 <trkpt lat="47.421764" lon="13.332820">
 <ele>768.39</ele>
 <time>2010-04-30T07:59:39Z</time>
 </trkpt>
 <trkpt lat="47.421780" lon="13.333657">
 <ele>769.72</ele>
 <time>2010-04-30T07:59:52Z</time>
 </trkpt>
 <trkpt lat="47.421864" lon="13.334288">
 <ele>770.71</ele>
 <time>2010-04-30T08:00:02Z</time>
 </trkpt>
 <trkpt lat="47.422031" lon="13.334869">
 <ele>771.47</ele>
 <time>2010-04-30T08:00:12Z</time>
 </trkpt>
 <trkpt lat="47.422249" lon="13.335420">
 <ele>772.49</ele>
 <time>2010-04-30T08:00:22Z</time>
 </trkpt>
 <trkpt lat="47.422527" lon="13.336139">
 <ele>773.55</ele>
 <time>2010-04-30T08:00:35Z</time>
 </trkpt>
 <trkpt lat="47.422680" lon="13.336748">
 <ele>774.63</ele>
 <time>2010-04-30T08:00:45Z</time>
 </trkpt>
 <trkpt lat="47.422741" lon="13.337400">
 <ele>775.72</ele>
 <time>2010-04-30T08:00:55Z</time>
 </trkpt>
 <trkpt lat="47.422714" lon="13.338051">
 <ele>776.40</ele>
 <time>2010-04-30T08:01:05Z</time>
 </trkpt>
 <trkpt lat="47.422600" lon="13.338671">
 <ele>777.56</ele>
 <time>2010-04-30T08:01:15Z</time>
 </trkpt>
 <trkpt lat="47.422417" lon="13.339232">
 <ele>778.35</ele>
 <time>2010-04-30T08:01:25Z</time>
 </trkpt>
 <trkpt lat="47.422176" lon="13.339738">
 <ele>779.46</ele>
 <time>2010-04-30T08:01:35Z</time>
 </trkpt>
 <trkpt lat="47.421875" lon="13.340361">
 <ele>780.65</ele>
 <time>2010-04-30T08:01:47Z</time>
 </trkpt>
 <trkpt lat="47.421665" lon="13.340974">
 <ele>781.13</ele>
 <time>2010-04-30T08:01:57Z</time>
 </trkpt>
 <trkpt lat="47.421570" lon="13.341502">
 <ele>780.98</ele>
 <time>2010-04-30T08:02:04Z</time>
 </trkpt>
 <trkpt lat="47.421539" lon="13.342069">
 <ele>780.35</ele>
 <time>2010-04-30T08:02:11Z</time>
 </trkpt>
 <trkpt lat="47.421543" lon="13.342325">
 <ele>779.87</ele>
 <time>2010-04-30T08:02:14Z</time>
 </trkpt>
 <trkpt lat="47.421654" lon="13.343035">
 <ele>778.75</ele>
 <time>2010-04-30T08:02:22Z</time>
 </trkpt>
 <trkpt lat="47.421741" lon="13.343467">
 <ele>777.92</ele>
 <time>2010-04-30T08:02:27Z</time>
 </trkpt>
 <trkpt lat="47.421837" lon="13.344099">
 <ele>778.31</ele>
 <time>2010-04-30T08:02:35Z</time>
 </trkpt>
 <trkpt lat="47.421852" lon="13.344600">
 <ele>779.80</ele>
 <time>2010-04-30T08:02:42Z</time>
 </trkpt>
 <trkpt lat="47.421837" lon="13.344792">
 <ele>780.31</ele>
 <time>2010-04-30T08:02:45Z</time>
 </trkpt>
 <trkpt lat="47.421875" lon="13.345014">
 <ele>781.05</ele>
 <time>2010-04-30T08:02:49Z</time>
 </trkpt>
 <trkpt lat="47.421932" lon="13.345084">
 <ele>781.17</ele>
 <time>2010-04-30T08:02:51Z</time>
 </trkpt>
 <trkpt lat="47.422241" lon="13.345395">
 <ele>781.71</ele>
 <time>2010-04-30T08:03:00Z</time>
 </trkpt>
 <trkpt lat="47.422516" lon="13.345635">
 <ele>783.55</ele>
 <time>2010-04-30T08:03:09Z</time>
 </trkpt>
 <trkpt lat="47.422802" lon="13.345791">
 <ele>784.40</ele>
 <time>2010-04-30T08:03:18Z</time>
 </trkpt>
 <trkpt lat="47.423107" lon="13.345902">
 <ele>785.74</ele>
 <time>2010-04-30T08:03:28Z</time>
 </trkpt>
 <trkpt lat="47.423431" lon="13.346048">
 <ele>787.26</ele>
 <time>2010-04-30T08:03:39Z</time>
 </trkpt>
 <trkpt lat="47.423664" lon="13.346239">
 <ele>788.16</ele>
 <time>2010-04-30T08:03:48Z</time>
 </trkpt>
 <trkpt lat="47.423935" lon="13.346483">
 <ele>789.89</ele>
 <time>2010-04-30T08:03:59Z</time>
 </trkpt>
 <trkpt lat="47.424183" lon="13.346712">
 <ele>791.06</ele>
 <time>2010-04-30T08:04:09Z</time>
 </trkpt>
 <trkpt lat="47.424442" lon="13.346895">
 <ele>792.24</ele>
 <time>2010-04-30T08:04:19Z</time>
 </trkpt>
 <trkpt lat="47.424706" lon="13.347040">
 <ele>793.47</ele>
 <time>2010-04-30T08:04:29Z</time>
 </trkpt>
 <trkpt lat="47.424995" lon="13.347103">
 <ele>794.57</ele>
 <time>2010-04-30T08:04:40Z</time>
 </trkpt>
 <trkpt lat="47.425293" lon="13.347227">
 <ele>796.24</ele>
 <time>2010-04-30T08:04:50Z</time>
 </trkpt>
 <trkpt lat="47.425575" lon="13.347371">
 <ele>797.59</ele>
 <time>2010-04-30T08:05:00Z</time>
 </trkpt>
 <trkpt lat="47.425854" lon="13.347519">
 <ele>798.94</ele>
 <time>2010-04-30T08:05:10Z</time>
 </trkpt>
 <trkpt lat="47.426094" lon="13.347659">
 <ele>799.80</ele>
 <time>2010-04-30T08:05:19Z</time>
 </trkpt>
 <trkpt lat="47.426334" lon="13.347875">
 <ele>800.86</ele>
 <time>2010-04-30T08:05:28Z</time>
 </trkpt>
 <trkpt lat="47.426517" lon="13.348038">
 <ele>801.63</ele>
 <time>2010-04-30T08:05:35Z</time>
 </trkpt>
 <trkpt lat="47.426704" lon="13.348231">
 <ele>802.50</ele>
 <time>2010-04-30T08:05:43Z</time>
 </trkpt>
 <trkpt lat="47.426769" lon="13.348361">
 <ele>802.72</ele>
 <time>2010-04-30T08:05:48Z</time>
 </trkpt>
 <trkpt lat="47.426968" lon="13.348539">
 <ele>803.43</ele>
 <time>2010-04-30T08:05:55Z</time>
 </trkpt>
 <trkpt lat="47.427265" lon="13.348834">
 <ele>803.95</ele>
 <time>2010-04-30T08:06:05Z</time>
 </trkpt>
 <trkpt lat="47.427540" lon="13.349195">
 <ele>804.99</ele>
 <time>2010-04-30T08:06:16Z</time>
 </trkpt>
 <trkpt lat="47.427822" lon="13.349706">
 <ele>805.94</ele>
 <time>2010-04-30T08:06:30Z</time>
 </trkpt>
 <trkpt lat="47.428139" lon="13.350296">
 <ele>807.36</ele>
 <time>2010-04-30T08:06:46Z</time>
 </trkpt>
 <trkpt lat="47.428387" lon="13.350767">
 <ele>808.81</ele>
 <time>2010-04-30T08:06:59Z</time>
 </trkpt>
 <trkpt lat="47.428635" lon="13.351233">
 <ele>810.00</ele>
 <time>2010-04-30T08:07:12Z</time>
 </trkpt>
 <trkpt lat="47.428837" lon="13.351620">
 <ele>811.45</ele>
 <time>2010-04-30T08:07:23Z</time>
 </trkpt>
 <trkpt lat="47.429070" lon="13.352070">
 <ele>812.90</ele>
 <time>2010-04-30T08:07:36Z</time>
 </trkpt>
 <trkpt lat="47.429329" lon="13.352556">
 <ele>814.79</ele>
 <time>2010-04-30T08:07:50Z</time>
 </trkpt>
 <trkpt lat="47.429531" lon="13.352878">
 <ele>816.17</ele>
 <time>2010-04-30T08:08:00Z</time>
 </trkpt>
 <trkpt lat="47.429832" lon="13.353234">
 <ele>817.56</ele>
 <time>2010-04-30T08:08:13Z</time>
 </trkpt>
 <trkpt lat="47.430119" lon="13.353483">
 <ele>818.87</ele>
 <time>2010-04-30T08:08:24Z</time>
 </trkpt>
 <trkpt lat="47.430389" lon="13.353671">
 <ele>820.23</ele>
 <time>2010-04-30T08:08:34Z</time>
 </trkpt>
 <trkpt lat="47.430752" lon="13.353914">
 <ele>821.37</ele>
 <time>2010-04-30T08:08:47Z</time>
 </trkpt>
 <trkpt lat="47.431149" lon="13.354190">
 <ele>822.83</ele>
 <time>2010-04-30T08:09:01Z</time>
 </trkpt>
 <trkpt lat="47.431393" lon="13.354374">
 <ele>823.41</ele>
 <time>2010-04-30T08:09:10Z</time>
 </trkpt>
 <trkpt lat="47.431641" lon="13.354539">
 <ele>824.18</ele>
 <time>2010-04-30T08:09:19Z</time>
 </trkpt>
 <trkpt lat="47.431988" lon="13.354855">
 <ele>825.17</ele>
 <time>2010-04-30T08:09:32Z</time>
 </trkpt>
 <trkpt lat="47.432293" lon="13.355169">
 <ele>826.44</ele>
 <time>2010-04-30T08:09:44Z</time>
 </trkpt>
 <trkpt lat="47.432571" lon="13.355539">
 <ele>827.88</ele>
 <time>2010-04-30T08:09:56Z</time>
 </trkpt>
 <trkpt lat="47.432747" lon="13.355878">
 <ele>828.49</ele>
 <time>2010-04-30T08:10:05Z</time>
 </trkpt>
 <trkpt lat="47.432926" lon="13.356258">
 <ele>829.81</ele>
 <time>2010-04-30T08:10:15Z</time>
 </trkpt>
 <trkpt lat="47.433163" lon="13.356630">
 <ele>831.22</ele>
 <time>2010-04-30T08:10:26Z</time>
 </trkpt>
 <trkpt lat="47.433407" lon="13.356840">
 <ele>832.72</ele>
 <time>2010-04-30T08:10:35Z</time>
 </trkpt>
 <trkpt lat="47.433647" lon="13.356916">
 <ele>833.62</ele>
 <time>2010-04-30T08:10:43Z</time>
 </trkpt>
 <trkpt lat="47.433918" lon="13.356865">
 <ele>834.50</ele>
 <time>2010-04-30T08:10:51Z</time>
 </trkpt>
 <trkpt lat="47.434273" lon="13.356726">
 <ele>836.10</ele>
 <time>2010-04-30T08:11:02Z</time>
 </trkpt>
 <trkpt lat="47.434612" lon="13.356642">
 <ele>837.19</ele>
 <time>2010-04-30T08:11:13Z</time>
 </trkpt>
 <trkpt lat="47.434956" lon="13.356680">
 <ele>839.08</ele>
 <time>2010-04-30T08:11:24Z</time>
 </trkpt>
 <trkpt lat="47.435223" lon="13.356806">
 <ele>840.56</ele>
 <time>2010-04-30T08:11:33Z</time>
 </trkpt>
 <trkpt lat="47.435562" lon="13.357014">
 <ele>842.38</ele>
 <time>2010-04-30T08:11:45Z</time>
 </trkpt>
 <trkpt lat="47.435810" lon="13.357190">
 <ele>844.28</ele>
 <time>2010-04-30T08:11:54Z</time>
 </trkpt>
 <trkpt lat="47.436157" lon="13.357463">
 <ele>845.83</ele>
 <time>2010-04-30T08:12:07Z</time>
 </trkpt>
 <trkpt lat="47.436443" lon="13.357723">
 <ele>847.38</ele>
 <time>2010-04-30T08:12:18Z</time>
 </trkpt>
 <trkpt lat="47.436741" lon="13.358044">
 <ele>848.93</ele>
 <time>2010-04-30T08:12:30Z</time>
 </trkpt>
 <trkpt lat="47.437023" lon="13.358357">
 <ele>850.23</ele>
 <time>2010-04-30T08:12:41Z</time>
 </trkpt>
 <trkpt lat="47.437267" lon="13.358663">
 <ele>851.22</ele>
 <time>2010-04-30T08:12:51Z</time>
 </trkpt>
 <trkpt lat="47.437538" lon="13.359030">
 <ele>851.92</ele>
 <time>2010-04-30T08:13:02Z</time>
 </trkpt>
 <trkpt lat="47.437778" lon="13.359367">
 <ele>852.25</ele>
 <time>2010-04-30T08:13:12Z</time>
 </trkpt>
 <trkpt lat="47.438080" lon="13.359770">
 <ele>853.08</ele>
 <time>2010-04-30T08:13:24Z</time>
 </trkpt>
 <trkpt lat="47.438442" lon="13.360275">
 <ele>854.13</ele>
 <time>2010-04-30T08:13:39Z</time>
 </trkpt>
 <trkpt lat="47.438686" lon="13.360617">
 <ele>855.08</ele>
 <time>2010-04-30T08:13:49Z</time>
 </trkpt>
 <trkpt lat="47.438992" lon="13.360991">
 <ele>856.25</ele>
 <time>2010-04-30T08:14:01Z</time>
 </trkpt>
 <trkpt lat="47.439358" lon="13.361401">
 <ele>857.61</ele>
 <time>2010-04-30T08:14:15Z</time>
 </trkpt>
 <trkpt lat="47.439682" lon="13.361708">
 <ele>859.16</ele>
 <time>2010-04-30T08:14:27Z</time>
 </trkpt>
 <trkpt lat="47.440022" lon="13.361978">
 <ele>860.39</ele>
 <time>2010-04-30T08:14:39Z</time>
 </trkpt>
 <trkpt lat="47.440407" lon="13.362228">
 <ele>862.43</ele>
 <time>2010-04-30T08:14:52Z</time>
 </trkpt>
 <trkpt lat="47.440769" lon="13.362419">
 <ele>863.69</ele>
 <time>2010-04-30T08:15:04Z</time>
 </trkpt>
 <trkpt lat="47.441078" lon="13.362545">
 <ele>864.94</ele>
 <time>2010-04-30T08:15:14Z</time>
 </trkpt>
 <trkpt lat="47.441395" lon="13.362647">
 <ele>866.41</ele>
 <time>2010-04-30T08:15:24Z</time>
 </trkpt>
 <trkpt lat="47.441772" lon="13.362722">
 <ele>867.73</ele>
 <time>2010-04-30T08:15:36Z</time>
 </trkpt>
 <trkpt lat="47.442192" lon="13.362761">
 <ele>869.13</ele>
 <time>2010-04-30T08:15:49Z</time>
 </trkpt>
 <trkpt lat="47.442513" lon="13.362766">
 <ele>870.61</ele>
 <time>2010-04-30T08:15:59Z</time>
 </trkpt>
 <trkpt lat="47.442814" lon="13.362780">
 <ele>871.86</ele>
 <time>2010-04-30T08:16:08Z</time>
 </trkpt>
 <trkpt lat="47.443165" lon="13.362783">
 <ele>872.94</ele>
 <time>2010-04-30T08:16:18Z</time>
 </trkpt>
 <trkpt lat="47.443615" lon="13.362834">
 <ele>874.64</ele>
 <time>2010-04-30T08:16:32Z</time>
 </trkpt>
 <trkpt lat="47.443859" lon="13.362917">
 <ele>875.31</ele>
 <time>2010-04-30T08:16:40Z</time>
 </trkpt>
 <trkpt lat="47.444153" lon="13.362990">
 <ele>876.52</ele>
 <time>2010-04-30T08:16:49Z</time>
 </trkpt>
 <trkpt lat="47.444401" lon="13.363084">
 <ele>877.49</ele>
 <time>2010-04-30T08:16:57Z</time>
 </trkpt>
 <trkpt lat="47.444756" lon="13.363281">
 <ele>878.54</ele>
 <time>2010-04-30T08:17:09Z</time>
 </trkpt>
 <trkpt lat="47.445156" lon="13.363561">
 <ele>880.19</ele>
 <time>2010-04-30T08:17:23Z</time>
 </trkpt>
 <trkpt lat="47.445568" lon="13.363858">
 <ele>881.60</ele>
 <time>2010-04-30T08:17:37Z</time>
 </trkpt>
 <trkpt lat="47.445972" lon="13.364046">
 <ele>883.06</ele>
 <time>2010-04-30T08:17:50Z</time>
 </trkpt>
 <trkpt lat="47.446392" lon="13.364179">
 <ele>884.18</ele>
 <time>2010-04-30T08:18:03Z</time>
 </trkpt>
 <trkpt lat="47.446541" lon="13.364182">
 <ele>884.50</ele>
 <time>2010-04-30T08:18:07Z</time>
 </trkpt>
 <trkpt lat="47.446804" lon="13.364207">
 <ele>885.86</ele>
 <time>2010-04-30T08:18:14Z</time>
 </trkpt>
 <trkpt lat="47.447060" lon="13.364271">
 <ele>886.77</ele>
 <time>2010-04-30T08:18:22Z</time>
 </trkpt>
 <trkpt lat="47.447334" lon="13.364335">
 <ele>888.04</ele>
 <time>2010-04-30T08:18:31Z</time>
 </trkpt>
 <trkpt lat="47.447563" lon="13.364412">
 <ele>888.70</ele>
 <time>2010-04-30T08:18:39Z</time>
 </trkpt>
 <trkpt lat="47.447803" lon="13.364486">
 <ele>889.73</ele>
 <time>2010-04-30T08:18:47Z</time>
 </trkpt>
 <trkpt lat="47.448036" lon="13.364619">
 <ele>890.50</ele>
 <time>2010-04-30T08:18:55Z</time>
 </trkpt>
 <trkpt lat="47.448318" lon="13.364753">
 <ele>892.11</ele>
 <time>2010-04-30T08:19:05Z</time>
 </trkpt>
 <trkpt lat="47.448608" lon="13.364907">
 <ele>893.32</ele>
 <time>2010-04-30T08:19:15Z</time>
 </trkpt>
 <trkpt lat="47.448830" lon="13.365048">
 <ele>894.24</ele>
 <time>2010-04-30T08:19:23Z</time>
 </trkpt>
 <trkpt lat="47.449078" lon="13.365232">
 <ele>895.18</ele>
 <time>2010-04-30T08:19:32Z</time>
 </trkpt>
 <trkpt lat="47.449314" lon="13.365432">
 <ele>896.16</ele>
 <time>2010-04-30T08:19:41Z</time>
 </trkpt>
 <trkpt lat="47.449520" lon="13.365616">
 <ele>897.35</ele>
 <time>2010-04-30T08:19:49Z</time>
 </trkpt>
 <trkpt lat="47.449768" lon="13.365870">
 <ele>897.95</ele>
 <time>2010-04-30T08:19:59Z</time>
 </trkpt>
 <trkpt lat="47.450027" lon="13.366170">
 <ele>899.47</ele>
 <time>2010-04-30T08:20:10Z</time>
 </trkpt>
 <trkpt lat="47.450249" lon="13.366406">
 <ele>900.69</ele>
 <time>2010-04-30T08:20:19Z</time>
 </trkpt>
 <trkpt lat="47.450504" lon="13.366661">
 <ele>901.75</ele>
 <time>2010-04-30T08:20:29Z</time>
 </trkpt>
 <trkpt lat="47.450790" lon="13.366905">
 <ele>903.08</ele>
 <time>2010-04-30T08:20:40Z</time>
 </trkpt>
 <trkpt lat="47.451023" lon="13.367088">
 <ele>904.07</ele>
 <time>2010-04-30T08:20:49Z</time>
 </trkpt>
 <trkpt lat="47.451256" lon="13.367239">
 <ele>905.35</ele>
 <time>2010-04-30T08:20:58Z</time>
 </trkpt>
 <trkpt lat="47.451485" lon="13.367393">
 <ele>906.98</ele>
 <time>2010-04-30T08:21:07Z</time>
 </trkpt>
 <trkpt lat="47.451694" lon="13.367522">
 <ele>908.15</ele>
 <time>2010-04-30T08:21:15Z</time>
 </trkpt>
 <trkpt lat="47.451805" lon="13.367520">
 <ele>908.72</ele>
 <time>2010-04-30T08:21:19Z</time>
 </trkpt>
 <trkpt lat="47.451958" lon="13.367522">
 <ele>909.64</ele>
 <time>2010-04-30T08:21:25Z</time>
 </trkpt>
 <trkpt lat="47.452141" lon="13.367619">
 <ele>911.15</ele>
 <time>2010-04-30T08:21:33Z</time>
 </trkpt>
 <trkpt lat="47.452320" lon="13.367728">
 <ele>912.21</ele>
 <time>2010-04-30T08:21:41Z</time>
 </trkpt>
 <trkpt lat="47.452530" lon="13.367895">
 <ele>914.16</ele>
 <time>2010-04-30T08:21:51Z</time>
 </trkpt>
 <trkpt lat="47.452694" lon="13.368063">
 <ele>916.42</ele>
 <time>2010-04-30T08:21:59Z</time>
 </trkpt>
 <trkpt lat="47.452904" lon="13.368180">
 <ele>918.33</ele>
 <time>2010-04-30T08:22:08Z</time>
 </trkpt>
 <trkpt lat="47.453094" lon="13.368180">
 <ele>918.29</ele>
 <time>2010-04-30T08:22:14Z</time>
 </trkpt>
 <trkpt lat="47.453251" lon="13.368252">
 <ele>918.46</ele>
 <time>2010-04-30T08:22:20Z</time>
 </trkpt>
 <trkpt lat="47.453415" lon="13.368439">
 <ele>919.85</ele>
 <time>2010-04-30T08:22:28Z</time>
 </trkpt>
 <trkpt lat="47.453629" lon="13.368554">
 <ele>921.12</ele>
 <time>2010-04-30T08:22:37Z</time>
 </trkpt>
 <trkpt lat="47.453857" lon="13.368577">
 <ele>922.34</ele>
 <time>2010-04-30T08:22:46Z</time>
 </trkpt>
 <trkpt lat="47.454082" lon="13.368650">
 <ele>923.29</ele>
 <time>2010-04-30T08:22:55Z</time>
 </trkpt>
 <trkpt lat="47.454227" lon="13.368803">
 <ele>924.22</ele>
 <time>2010-04-30T08:23:02Z</time>
 </trkpt>
 <trkpt lat="47.454380" lon="13.368996">
 <ele>926.03</ele>
 <time>2010-04-30T08:23:10Z</time>
 </trkpt>
 <trkpt lat="47.454609" lon="13.369153">
 <ele>927.29</ele>
 <time>2010-04-30T08:23:20Z</time>
 </trkpt>
 <trkpt lat="47.454838" lon="13.369316">
 <ele>928.48</ele>
 <time>2010-04-30T08:23:30Z</time>
 </trkpt>
 <trkpt lat="47.455067" lon="13.369501">
 <ele>930.19</ele>
 <time>2010-04-30T08:23:40Z</time>
 </trkpt>
 <trkpt lat="47.455276" lon="13.369649">
 <ele>931.43</ele>
 <time>2010-04-30T08:23:49Z</time>
 </trkpt>
 <trkpt lat="47.455555" lon="13.369829">
 <ele>932.93</ele>
 <time>2010-04-30T08:24:01Z</time>
 </trkpt>
 <trkpt lat="47.455750" lon="13.369959">
 <ele>934.20</ele>
 <time>2010-04-30T08:24:09Z</time>
 </trkpt>
 <trkpt lat="47.455975" lon="13.370142">
 <ele>935.51</ele>
 <time>2010-04-30T08:24:19Z</time>
 </trkpt>
 <trkpt lat="47.456169" lon="13.370323">
 <ele>936.45</ele>
 <time>2010-04-30T08:24:28Z</time>
 </trkpt>
 <trkpt lat="47.456402" lon="13.370575">
 <ele>937.50</ele>
 <time>2010-04-30T08:24:39Z</time>
 </trkpt>
 <trkpt lat="47.456558" lon="13.370831">
 <ele>938.46</ele>
 <time>2010-04-30T08:24:48Z</time>
 </trkpt>
 <trkpt lat="47.456688" lon="13.371079">
 <ele>939.35</ele>
 <time>2010-04-30T08:24:56Z</time>
 </trkpt>
 <trkpt lat="47.456814" lon="13.371417">
 <ele>940.89</ele>
 <time>2010-04-30T08:25:06Z</time>
 </trkpt>
 <trkpt lat="47.456886" lon="13.371727">
 <ele>941.68</ele>
 <time>2010-04-30T08:25:14Z</time>
 </trkpt>
 <trkpt lat="47.456928" lon="13.372039">
 <ele>943.06</ele>
 <time>2010-04-30T08:25:22Z</time>
 </trkpt>
 <trkpt lat="47.456985" lon="13.372508">
 <ele>944.69</ele>
 <time>2010-04-30T08:25:34Z</time>
 </trkpt>
 <trkpt lat="47.457031" lon="13.372928">
 <ele>945.99</ele>
 <time>2010-04-30T08:25:45Z</time>
 </trkpt>
 <trkpt lat="47.457088" lon="13.373341">
 <ele>947.59</ele>
 <time>2010-04-30T08:25:56Z</time>
 </trkpt>
 <trkpt lat="47.457226" lon="13.373664">
 <ele>948.79</ele>
 <time>2010-04-30T08:26:06Z</time>
 </trkpt>
 <trkpt lat="47.457382" lon="13.373926">
 <ele>949.98</ele>
 <time>2010-04-30T08:26:15Z</time>
 </trkpt>
 <trkpt lat="47.457619" lon="13.374161">
 <ele>951.36</ele>
 <time>2010-04-30T08:26:26Z</time>
 </trkpt>
 <trkpt lat="47.457870" lon="13.374320">
 <ele>952.95</ele>
 <time>2010-04-30T08:26:36Z</time>
 </trkpt>
 <trkpt lat="47.458122" lon="13.374443">
 <ele>954.42</ele>
 <time>2010-04-30T08:26:46Z</time>
 </trkpt>
 <trkpt lat="47.458401" lon="13.374583">
 <ele>955.93</ele>
 <time>2010-04-30T08:26:57Z</time>
 </trkpt>
 <trkpt lat="47.458672" lon="13.374739">
 <ele>957.46</ele>
 <time>2010-04-30T08:27:08Z</time>
 </trkpt>
 <trkpt lat="47.458878" lon="13.374829">
 <ele>958.36</ele>
 <time>2010-04-30T08:27:16Z</time>
 </trkpt>
 <trkpt lat="47.459003" lon="13.374898">
 <ele>958.98</ele>
 <time>2010-04-30T08:27:21Z</time>
 </trkpt>
 <trkpt lat="47.459133" lon="13.375029">
 <ele>960.10</ele>
 <time>2010-04-30T08:27:27Z</time>
 </trkpt>
 <trkpt lat="47.459156" lon="13.375161">
 <ele>960.56</ele>
 <time>2010-04-30T08:27:31Z</time>
 </trkpt>
 <trkpt lat="47.459278" lon="13.375333">
 <ele>960.83</ele>
 <time>2010-04-30T08:27:37Z</time>
 </trkpt>
 <trkpt lat="47.459408" lon="13.375534">
 <ele>961.65</ele>
 <time>2010-04-30T08:27:44Z</time>
 </trkpt>
 <trkpt lat="47.459602" lon="13.375860">
 <ele>962.81</ele>
 <time>2010-04-30T08:27:55Z</time>
 </trkpt>
 <trkpt lat="47.459759" lon="13.376129">
 <ele>963.66</ele>
 <time>2010-04-30T08:28:04Z</time>
 </trkpt>
 <trkpt lat="47.459934" lon="13.376431">
 <ele>964.72</ele>
 <time>2010-04-30T08:28:14Z</time>
 </trkpt>
 <trkpt lat="47.460091" lon="13.376705">
 <ele>965.57</ele>
 <time>2010-04-30T08:28:23Z</time>
 </trkpt>
 <trkpt lat="47.460258" lon="13.377003">
 <ele>967.04</ele>
 <time>2010-04-30T08:28:33Z</time>
 </trkpt>
 <trkpt lat="47.460381" lon="13.377216">
 <ele>967.77</ele>
 <time>2010-04-30T08:28:40Z</time>
 </trkpt>
 <trkpt lat="47.460537" lon="13.377478">
 <ele>968.87</ele>
 <time>2010-04-30T08:28:49Z</time>
 </trkpt>
 <trkpt lat="47.460743" lon="13.377805">
 <ele>970.19</ele>
 <time>2010-04-30T08:29:00Z</time>
 </trkpt>
 <trkpt lat="47.460922" lon="13.378035">
 <ele>970.36</ele>
 <time>2010-04-30T08:29:08Z</time>
 </trkpt>
 <trkpt lat="47.461037" lon="13.378298">
 <ele>970.82</ele>
 <time>2010-04-30T08:29:15Z</time>
 </trkpt>
 <trkpt lat="47.461216" lon="13.378570">
 <ele>971.30</ele>
 <time>2010-04-30T08:29:23Z</time>
 </trkpt>
 <trkpt lat="47.461334" lon="13.378602">
 <ele>971.63</ele>
 <time>2010-04-30T08:29:27Z</time>
 </trkpt>
 <trkpt lat="47.461361" lon="13.378613">
 <ele>971.65</ele>
 <time>2010-04-30T08:29:28Z</time>
 </trkpt>
 <trkpt lat="47.461472" lon="13.378813">
 <ele>971.46</ele>
 <time>2010-04-30T08:29:33Z</time>
 </trkpt>
 <trkpt lat="47.461723" lon="13.379185">
 <ele>971.89</ele>
 <time>2010-04-30T08:29:43Z</time>
 </trkpt>
 <trkpt lat="47.461983" lon="13.379496">
 <ele>972.12</ele>
 <time>2010-04-30T08:29:53Z</time>
 </trkpt>
 <trkpt lat="47.462284" lon="13.379793">
 <ele>973.05</ele>
 <time>2010-04-30T08:30:04Z</time>
 </trkpt>
 <trkpt lat="47.462551" lon="13.380029">
 <ele>974.38</ele>
 <time>2010-04-30T08:30:14Z</time>
 </trkpt>
 <trkpt lat="47.462673" lon="13.380195">
 <ele>974.89</ele>
 <time>2010-04-30T08:30:20Z</time>
 </trkpt>
 <trkpt lat="47.462765" lon="13.380337">
 <ele>975.45</ele>
 <time>2010-04-30T08:30:25Z</time>
 </trkpt>
 <trkpt lat="47.462997" lon="13.380475">
 <ele>975.84</ele>
 <time>2010-04-30T08:30:33Z</time>
 </trkpt>
 <trkpt lat="47.463223" lon="13.380602">
 <ele>976.43</ele>
 <time>2010-04-30T08:30:41Z</time>
 </trkpt>
 <trkpt lat="47.463459" lon="13.380710">
 <ele>977.12</ele>
 <time>2010-04-30T08:30:50Z</time>
 </trkpt>
 <trkpt lat="47.463665" lon="13.380783">
 <ele>977.38</ele>
 <time>2010-04-30T08:30:57Z</time>
 </trkpt>
 <trkpt lat="47.463795" lon="13.380817">
 <ele>977.83</ele>
 <time>2010-04-30T08:31:02Z</time>
 </trkpt>
 <trkpt lat="47.464001" lon="13.380864">
 <ele>978.39</ele>
 <time>2010-04-30T08:31:09Z</time>
 </trkpt>
 <trkpt lat="47.464294" lon="13.380925">
 <ele>978.37</ele>
 <time>2010-04-30T08:31:18Z</time>
 </trkpt>
 <trkpt lat="47.464561" lon="13.380952">
 <ele>979.04</ele>
 <time>2010-04-30T08:31:26Z</time>
 </trkpt>
 <trkpt lat="47.464912" lon="13.380984">
 <ele>979.92</ele>
 <time>2010-04-30T08:31:37Z</time>
 </trkpt>
 <trkpt lat="47.465202" lon="13.381003">
 <ele>980.45</ele>
 <time>2010-04-30T08:31:46Z</time>
 </trkpt>
 <trkpt lat="47.465405" lon="13.380995">
 <ele>981.30</ele>
 <time>2010-04-30T08:31:53Z</time>
 </trkpt>
 <trkpt lat="47.465576" lon="13.381031">
 <ele>981.51</ele>
 <time>2010-04-30T08:31:59Z</time>
 </trkpt>
 <trkpt lat="47.465767" lon="13.381070">
 <ele>981.86</ele>
 <time>2010-04-30T08:32:05Z</time>
 </trkpt>
 <trkpt lat="47.466061" lon="13.381165">
 <ele>982.49</ele>
 <time>2010-04-30T08:32:14Z</time>
 </trkpt>
 <trkpt lat="47.466335" lon="13.381307">
 <ele>984.14</ele>
 <time>2010-04-30T08:32:23Z</time>
 </trkpt>
 <trkpt lat="47.466629" lon="13.381496">
 <ele>985.28</ele>
 <time>2010-04-30T08:32:33Z</time>
 </trkpt>
 <trkpt lat="47.466839" lon="13.381700">
 <ele>986.24</ele>
 <time>2010-04-30T08:32:41Z</time>
 </trkpt>
 <trkpt lat="47.467094" lon="13.381968">
 <ele>986.52</ele>
 <time>2010-04-30T08:32:51Z</time>
 </trkpt>
 <trkpt lat="47.467323" lon="13.382220">
 <ele>988.79</ele>
 <time>2010-04-30T08:33:00Z</time>
 </trkpt>
 <trkpt lat="47.467499" lon="13.382421">
 <ele>989.55</ele>
 <time>2010-04-30T08:33:07Z</time>
 </trkpt>
 <trkpt lat="47.467751" lon="13.382641">
 <ele>990.76</ele>
 <time>2010-04-30T08:33:16Z</time>
 </trkpt>
 <trkpt lat="47.467999" lon="13.382821">
 <ele>991.89</ele>
 <time>2010-04-30T08:33:25Z</time>
 </trkpt>
 <trkpt lat="47.468315" lon="13.383028">
 <ele>993.53</ele>
 <time>2010-04-30T08:33:36Z</time>
 </trkpt>
 <trkpt lat="47.468552" lon="13.383170">
 <ele>994.59</ele>
 <time>2010-04-30T08:33:44Z</time>
 </trkpt>
 <trkpt lat="47.468849" lon="13.383346">
 <ele>996.10</ele>
 <time>2010-04-30T08:33:54Z</time>
 </trkpt>
 <trkpt lat="47.469173" lon="13.383540">
 <ele>997.80</ele>
 <time>2010-04-30T08:34:05Z</time>
 </trkpt>
 <trkpt lat="47.469395" lon="13.383662">
 <ele>998.29</ele>
 <time>2010-04-30T08:34:12Z</time>
 </trkpt>
 <trkpt lat="47.469650" lon="13.383780">
 <ele>998.14</ele>
 <time>2010-04-30T08:34:20Z</time>
 </trkpt>
 <trkpt lat="47.469788" lon="13.383896">
 <ele>998.15</ele>
 <time>2010-04-30T08:34:26Z</time>
 </trkpt>
 <trkpt lat="47.469872" lon="13.383968">
 <ele>997.99</ele>
 <time>2010-04-30T08:34:31Z</time>
 </trkpt>
 <trkpt lat="47.469872" lon="13.383969">
 <ele>997.92</ele>
 <time>2010-04-30T08:34:32Z</time>
 </trkpt>
 <trkpt lat="47.469929" lon="13.384028">
 <ele>997.94</ele>
 <time>2010-04-30T08:34:46Z</time>
 </trkpt>
 <trkpt lat="47.470043" lon="13.384136">
 <ele>997.74</ele>
 <time>2010-04-30T08:34:51Z</time>
 </trkpt>
 <trkpt lat="47.470100" lon="13.384180">
 <ele>997.65</ele>
 <time>2010-04-30T08:34:53Z</time>
 </trkpt>
 <trkpt lat="47.470127" lon="13.384208">
 <ele>997.53</ele>
 <time>2010-04-30T08:34:54Z</time>
 </trkpt>
 <trkpt lat="47.470341" lon="13.384427">
 <ele>997.08</ele>
 <time>2010-04-30T08:35:01Z</time>
 </trkpt>
 <trkpt lat="47.470592" lon="13.384727">
 <ele>996.76</ele>
 <time>2010-04-30T08:35:09Z</time>
 </trkpt>
 <trkpt lat="47.470879" lon="13.385050">
 <ele>995.33</ele>
 <time>2010-04-30T08:35:16Z</time>
 </trkpt>
 <trkpt lat="47.471283" lon="13.385506">
 <ele>993.61</ele>
 <time>2010-04-30T08:35:24Z</time>
 </trkpt>
 <trkpt lat="47.471783" lon="13.386073">
 <ele>991.78</ele>
 <time>2010-04-30T08:35:33Z</time>
 </trkpt>
 <trkpt lat="47.472179" lon="13.386535">
 <ele>989.65</ele>
 <time>2010-04-30T08:35:41Z</time>
 </trkpt>
 <trkpt lat="47.472393" lon="13.386777">
 <ele>988.38</ele>
 <time>2010-04-30T08:35:46Z</time>
 </trkpt>
 <trkpt lat="47.472630" lon="13.387027">
 <ele>986.63</ele>
 <time>2010-04-30T08:35:51Z</time>
 </trkpt>
 <trkpt lat="47.472980" lon="13.387421">
 <ele>984.73</ele>
 <time>2010-04-30T08:35:57Z</time>
 </trkpt>
 <trkpt lat="47.473244" lon="13.387725">
 <ele>982.87</ele>
 <time>2010-04-30T08:36:01Z</time>
 </trkpt>
 <trkpt lat="47.473679" lon="13.388213">
 <ele>980.05</ele>
 <time>2010-04-30T08:36:08Z</time>
 </trkpt>
 <trkpt lat="47.473785" lon="13.388317">
 <ele>979.66</ele>
 <time>2010-04-30T08:36:10Z</time>
 </trkpt>
 <trkpt lat="47.473984" lon="13.388465">
 <ele>978.70</ele>
 <time>2010-04-30T08:36:14Z</time>
 </trkpt>
 <trkpt lat="47.474178" lon="13.388710">
 <ele>977.83</ele>
 <time>2010-04-30T08:36:21Z</time>
 </trkpt>
 <trkpt lat="47.474232" lon="13.388761">
 <ele>977.14</ele>
 <time>2010-04-30T08:36:26Z</time>
 </trkpt>
 <trkpt lat="47.474205" lon="13.388850">
 <ele>977.09</ele>
 <time>2010-04-30T08:37:12Z</time>
 </trkpt>
 <trkpt lat="47.474293" lon="13.388996">
 <ele>976.79</ele>
 <time>2010-04-30T08:37:17Z</time>
 </trkpt>
 <trkpt lat="47.474522" lon="13.389261">
 <ele>975.72</ele>
 <time>2010-04-30T08:37:23Z</time>
 </trkpt>
 <trkpt lat="47.474754" lon="13.389583">
 <ele>973.98</ele>
 <time>2010-04-30T08:37:28Z</time>
 </trkpt>
 <trkpt lat="47.475056" lon="13.390086">
 <ele>971.93</ele>
 <time>2010-04-30T08:37:34Z</time>
 </trkpt>
 <trkpt lat="47.475422" lon="13.390622">
 <ele>969.95</ele>
 <time>2010-04-30T08:37:40Z</time>
 </trkpt>
 <trkpt lat="47.475918" lon="13.391129">
 <ele>966.91</ele>
 <time>2010-04-30T08:37:47Z</time>
 </trkpt>
 <trkpt lat="47.476131" lon="13.391295">
 <ele>965.51</ele>
 <time>2010-04-30T08:37:50Z</time>
 </trkpt>
 <trkpt lat="47.476509" lon="13.391470">
 <ele>965.31</ele>
 <time>2010-04-30T08:37:55Z</time>
 </trkpt>
 <trkpt lat="47.477051" lon="13.391567">
 <ele>963.20</ele>
 <time>2010-04-30T08:38:01Z</time>
 </trkpt>
 <trkpt lat="47.477467" lon="13.391786">
 <ele>961.61</ele>
 <time>2010-04-30T08:38:06Z</time>
 </trkpt>
 <trkpt lat="47.478130" lon="13.392264">
 <ele>959.10</ele>
 <time>2010-04-30T08:38:14Z</time>
 </trkpt>
 <trkpt lat="47.478786" lon="13.392767">
 <ele>956.59</ele>
 <time>2010-04-30T08:38:22Z</time>
 </trkpt>
 <trkpt lat="47.478985" lon="13.392824">
 <ele>955.78</ele>
 <time>2010-04-30T08:38:24Z</time>
 </trkpt>
 <trkpt lat="47.479473" lon="13.392806">
 <ele>954.18</ele>
 <time>2010-04-30T08:38:29Z</time>
 </trkpt>
 <trkpt lat="47.479660" lon="13.392734">
 <ele>953.47</ele>
 <time>2010-04-30T08:38:31Z</time>
 </trkpt>
 <trkpt lat="47.480381" lon="13.392304">
 <ele>949.61</ele>
 <time>2010-04-30T08:38:39Z</time>
 </trkpt>
 <trkpt lat="47.480885" lon="13.392093">
 <ele>946.13</ele>
 <time>2010-04-30T08:38:44Z</time>
 </trkpt>
 <trkpt lat="47.481213" lon="13.392018">
 <ele>943.78</ele>
 <time>2010-04-30T08:38:47Z</time>
 </trkpt>
 <trkpt lat="47.481667" lon="13.392012">
 <ele>941.60</ele>
 <time>2010-04-30T08:38:51Z</time>
 </trkpt>
 <trkpt lat="47.482204" lon="13.392105">
 <ele>939.13</ele>
 <time>2010-04-30T08:38:56Z</time>
 </trkpt>
 <trkpt lat="47.482590" lon="13.392322">
 <ele>937.39</ele>
 <time>2010-04-30T08:39:00Z</time>
 </trkpt>
 <trkpt lat="47.482761" lon="13.392477">
 <ele>936.27</ele>
 <time>2010-04-30T08:39:02Z</time>
 </trkpt>
 <trkpt lat="47.483208" lon="13.393144">
 <ele>931.74</ele>
 <time>2010-04-30T08:39:08Z</time>
 </trkpt>
 <trkpt lat="47.483551" lon="13.393779">
 <ele>928.44</ele>
 <time>2010-04-30T08:39:13Z</time>
 </trkpt>
 <trkpt lat="47.483826" lon="13.394098">
 <ele>926.59</ele>
 <time>2010-04-30T08:39:16Z</time>
 </trkpt>
 <trkpt lat="47.484459" lon="13.394667">
 <ele>919.93</ele>
 <time>2010-04-30T08:39:22Z</time>
 </trkpt>
 <trkpt lat="47.484959" lon="13.395234">
 <ele>914.90</ele>
 <time>2010-04-30T08:39:27Z</time>
 </trkpt>
 <trkpt lat="47.485310" lon="13.395679">
 <ele>911.28</ele>
 <time>2010-04-30T08:39:31Z</time>
 </trkpt>
 <trkpt lat="47.485714" lon="13.395917">
 <ele>908.68</ele>
 <time>2010-04-30T08:39:35Z</time>
 </trkpt>
 <trkpt lat="47.485821" lon="13.395916">
 <ele>908.01</ele>
 <time>2010-04-30T08:39:36Z</time>
 </trkpt>
 <trkpt lat="47.486454" lon="13.395904">
 <ele>905.80</ele>
 <time>2010-04-30T08:39:42Z</time>
 </trkpt>
 <trkpt lat="47.487011" lon="13.396062">
 <ele>902.27</ele>
 <time>2010-04-30T08:39:47Z</time>
 </trkpt>
 <trkpt lat="47.487122" lon="13.396101">
 <ele>901.86</ele>
 <time>2010-04-30T08:39:48Z</time>
 </trkpt>
 <trkpt lat="47.487675" lon="13.396522">
 <ele>899.96</ele>
 <time>2010-04-30T08:39:54Z</time>
 </trkpt>
 <trkpt lat="47.488159" lon="13.396766">
 <ele>898.58</ele>
 <time>2010-04-30T08:39:59Z</time>
 </trkpt>
 <trkpt lat="47.488663" lon="13.396861">
 <ele>896.22</ele>
 <time>2010-04-30T08:40:04Z</time>
 </trkpt>
 <trkpt lat="47.489159" lon="13.396829">
 <ele>894.64</ele>
 <time>2010-04-30T08:40:09Z</time>
 </trkpt>
 <trkpt lat="47.489658" lon="13.396652">
 <ele>892.67</ele>
 <time>2010-04-30T08:40:14Z</time>
 </trkpt>
 <trkpt lat="47.490051" lon="13.396506">
 <ele>890.91</ele>
 <time>2010-04-30T08:40:18Z</time>
 </trkpt>
 <trkpt lat="47.490234" lon="13.396500">
 <ele>889.79</ele>
 <time>2010-04-30T08:40:20Z</time>
 </trkpt>
 <trkpt lat="47.490616" lon="13.396708">
 <ele>887.72</ele>
 <time>2010-04-30T08:40:24Z</time>
 </trkpt>
 <trkpt lat="47.491184" lon="13.397164">
 <ele>885.05</ele>
 <time>2010-04-30T08:40:30Z</time>
 </trkpt>
 <trkpt lat="47.491573" lon="13.397416">
 <ele>883.47</ele>
 <time>2010-04-30T08:40:34Z</time>
 </trkpt>
 <trkpt lat="47.491791" lon="13.397512">
 <ele>882.57</ele>
 <time>2010-04-30T08:40:36Z</time>
 </trkpt>
 <trkpt lat="47.492435" lon="13.398090">
 <ele>878.97</ele>
 <time>2010-04-30T08:40:43Z</time>
 </trkpt>
 <trkpt lat="47.492950" lon="13.398606">
 <ele>875.70</ele>
 <time>2010-04-30T08:40:49Z</time>
 </trkpt>
 <trkpt lat="47.493401" lon="13.398870">
 <ele>873.35</ele>
 <time>2010-04-30T08:40:54Z</time>
 </trkpt>
 <trkpt lat="47.493843" lon="13.399044">
 <ele>872.23</ele>
 <time>2010-04-30T08:40:59Z</time>
 </trkpt>
 <trkpt lat="47.494171" lon="13.399378">
 <ele>870.91</ele>
 <time>2010-04-30T08:41:04Z</time>
 </trkpt>
 <trkpt lat="47.494286" lon="13.399664">
 <ele>870.65</ele>
 <time>2010-04-30T08:41:07Z</time>
 </trkpt>
 <trkpt lat="47.494308" lon="13.399766">
 <ele>870.38</ele>
 <time>2010-04-30T08:41:08Z</time>
 </trkpt>
 <trkpt lat="47.494427" lon="13.400451">
 <ele>869.82</ele>
 <time>2010-04-30T08:41:15Z</time>
 </trkpt>
 <trkpt lat="47.494602" lon="13.401141">
 <ele>870.00</ele>
 <time>2010-04-30T08:41:23Z</time>
 </trkpt>
 <trkpt lat="47.494743" lon="13.401519">
 <ele>869.21</ele>
 <time>2010-04-30T08:41:28Z</time>
 </trkpt>
 <trkpt lat="47.494865" lon="13.401828">
 <ele>868.78</ele>
 <time>2010-04-30T08:41:33Z</time>
 </trkpt>
 <trkpt lat="47.494968" lon="13.402037">
 <ele>868.32</ele>
 <time>2010-04-30T08:41:38Z</time>
 </trkpt>
 <trkpt lat="47.495064" lon="13.402207">
 <ele>868.02</ele>
 <time>2010-04-30T08:41:46Z</time>
 </trkpt>
 <trkpt lat="47.495106" lon="13.402288">
 <ele>867.73</ele>
 <time>2010-04-30T08:41:48Z</time>
 </trkpt>
 <trkpt lat="47.495159" lon="13.402482">
 <ele>866.44</ele>
 <time>2010-04-30T08:41:51Z</time>
 </trkpt>
 <trkpt lat="47.495262" lon="13.402797">
 <ele>865.76</ele>
 <time>2010-04-30T08:41:55Z</time>
 </trkpt>
 <trkpt lat="47.495499" lon="13.403354">
 <ele>863.50</ele>
 <time>2010-04-30T08:42:02Z</time>
 </trkpt>
 <trkpt lat="47.495777" lon="13.403773">
 <ele>862.23</ele>
 <time>2010-04-30T08:42:08Z</time>
 </trkpt>
 <trkpt lat="47.496136" lon="13.404060">
 <ele>860.28</ele>
 <time>2010-04-30T08:42:14Z</time>
 </trkpt>
 <trkpt lat="47.496593" lon="13.404365">
 <ele>858.75</ele>
 <time>2010-04-30T08:42:21Z</time>
 </trkpt>
 <trkpt lat="47.496716" lon="13.404486">
 <ele>858.61</ele>
 <time>2010-04-30T08:42:23Z</time>
 </trkpt>
 <trkpt lat="47.496929" lon="13.404898">
 <ele>858.09</ele>
 <time>2010-04-30T08:42:28Z</time>
 </trkpt>
 <trkpt lat="47.496952" lon="13.404993">
 <ele>858.10</ele>
 <time>2010-04-30T08:42:29Z</time>
 </trkpt>
 <trkpt lat="47.497166" lon="13.405654">
 <ele>857.32</ele>
 <time>2010-04-30T08:42:37Z</time>
 </trkpt>
 <trkpt lat="47.497437" lon="13.406253">
 <ele>857.45</ele>
 <time>2010-04-30T08:42:45Z</time>
 </trkpt>
 <trkpt lat="47.497719" lon="13.406911">
 <ele>856.11</ele>
 <time>2010-04-30T08:42:54Z</time>
 </trkpt>
 <trkpt lat="47.497772" lon="13.407056">
 <ele>856.23</ele>
 <time>2010-04-30T08:42:56Z</time>
 </trkpt>
 <trkpt lat="47.497883" lon="13.407723">
 <ele>855.59</ele>
 <time>2010-04-30T08:43:04Z</time>
 </trkpt>
 <trkpt lat="47.497871" lon="13.408351">
 <ele>854.63</ele>
 <time>2010-04-30T08:43:11Z</time>
 </trkpt>
 <trkpt lat="47.497757" lon="13.408990">
 <ele>853.54</ele>
 <time>2010-04-30T08:43:18Z</time>
 </trkpt>
 <trkpt lat="47.497581" lon="13.409475">
 <ele>852.52</ele>
 <time>2010-04-30T08:43:24Z</time>
 </trkpt>
 <trkpt lat="47.497375" lon="13.410051">
 <ele>852.24</ele>
 <time>2010-04-30T08:43:31Z</time>
 </trkpt>
 <trkpt lat="47.497360" lon="13.410548">
 <ele>851.66</ele>
 <time>2010-04-30T08:43:36Z</time>
 </trkpt>
 <trkpt lat="47.497643" lon="13.411541">
 <ele>848.64</ele>
 <time>2010-04-30T08:43:47Z</time>
 </trkpt>
 <trkpt lat="47.497974" lon="13.412198">
 <ele>848.21</ele>
 <time>2010-04-30T08:43:55Z</time>
 </trkpt>
 <trkpt lat="47.498428" lon="13.413046">
 <ele>847.42</ele>
 <time>2010-04-30T08:44:06Z</time>
 </trkpt>
 <trkpt lat="47.498524" lon="13.413175">
 <ele>846.96</ele>
 <time>2010-04-30T08:44:08Z</time>
 </trkpt>
 <trkpt lat="47.498814" lon="13.413379">
 <ele>846.70</ele>
 <time>2010-04-30T08:44:13Z</time>
 </trkpt>
 <trkpt lat="47.499363" lon="13.413623">
 <ele>846.08</ele>
 <time>2010-04-30T08:44:22Z</time>
 </trkpt>
 <trkpt lat="47.499611" lon="13.413776">
 <ele>845.23</ele>
 <time>2010-04-30T08:44:26Z</time>
 </trkpt>
 <trkpt lat="47.499878" lon="13.414096">
 <ele>844.44</ele>
 <time>2010-04-30T08:44:31Z</time>
 </trkpt>
 <trkpt lat="47.500023" lon="13.414424">
 <ele>844.13</ele>
 <time>2010-04-30T08:44:35Z</time>
 </trkpt>
 <trkpt lat="47.500092" lon="13.415012">
 <ele>843.20</ele>
 <time>2010-04-30T08:44:41Z</time>
 </trkpt>
 <trkpt lat="47.500137" lon="13.415383">
 <ele>842.74</ele>
 <time>2010-04-30T08:44:45Z</time>
 </trkpt>
 <trkpt lat="47.500183" lon="13.415643">
 <ele>842.45</ele>
 <time>2010-04-30T08:44:48Z</time>
 </trkpt>
 <trkpt lat="47.500290" lon="13.416236">
 <ele>840.81</ele>
 <time>2010-04-30T08:44:55Z</time>
 </trkpt>
 <trkpt lat="47.500397" lon="13.416745">
 <ele>839.72</ele>
 <time>2010-04-30T08:45:01Z</time>
 </trkpt>
 <trkpt lat="47.500599" lon="13.417505">
 <ele>837.96</ele>
 <time>2010-04-30T08:45:10Z</time>
 </trkpt>
 <trkpt lat="47.500771" lon="13.418286">
 <ele>837.53</ele>
 <time>2010-04-30T08:45:19Z</time>
 </trkpt>
 <trkpt lat="47.500847" lon="13.419111">
 <ele>836.58</ele>
 <time>2010-04-30T08:45:28Z</time>
 </trkpt>
 <trkpt lat="47.500851" lon="13.419580">
 <ele>836.01</ele>
 <time>2010-04-30T08:45:33Z</time>
 </trkpt>
 <trkpt lat="47.500889" lon="13.419852">
 <ele>835.85</ele>
 <time>2010-04-30T08:45:36Z</time>
 </trkpt>
 <trkpt lat="47.501076" lon="13.420323">
 <ele>835.20</ele>
 <time>2010-04-30T08:45:42Z</time>
 </trkpt>
 <trkpt lat="47.501118" lon="13.420391">
 <ele>835.35</ele>
 <time>2010-04-30T08:45:43Z</time>
 </trkpt>
 <trkpt lat="47.501381" lon="13.420645">
 <ele>835.24</ele>
 <time>2010-04-30T08:45:48Z</time>
 </trkpt>
 <trkpt lat="47.501572" lon="13.420709">
 <ele>834.89</ele>
 <time>2010-04-30T08:45:51Z</time>
 </trkpt>
 <trkpt lat="47.502167" lon="13.420814">
 <ele>833.51</ele>
 <time>2010-04-30T08:46:00Z</time>
 </trkpt>
 <trkpt lat="47.502449" lon="13.421073">
 <ele>833.21</ele>
 <time>2010-04-30T08:46:05Z</time>
 </trkpt>
 <trkpt lat="47.502594" lon="13.421431">
 <ele>832.71</ele>
 <time>2010-04-30T08:46:09Z</time>
 </trkpt>
 <trkpt lat="47.502640" lon="13.421736">
 <ele>831.98</ele>
 <time>2010-04-30T08:46:12Z</time>
 </trkpt>
 <trkpt lat="47.502674" lon="13.422748">
 <ele>831.00</ele>
 <time>2010-04-30T08:46:22Z</time>
 </trkpt>
 <trkpt lat="47.502838" lon="13.423410">
 <ele>830.53</ele>
 <time>2010-04-30T08:46:29Z</time>
 </trkpt>
 <trkpt lat="47.503078" lon="13.423924">
 <ele>829.61</ele>
 <time>2010-04-30T08:46:35Z</time>
 </trkpt>
 <trkpt lat="47.503391" lon="13.424340">
 <ele>829.08</ele>
 <time>2010-04-30T08:46:41Z</time>
 </trkpt>
 <trkpt lat="47.503719" lon="13.424715">
 <ele>828.08</ele>
 <time>2010-04-30T08:46:47Z</time>
 </trkpt>
 <trkpt lat="47.503777" lon="13.424773">
 <ele>828.08</ele>
 <time>2010-04-30T08:46:48Z</time>
 </trkpt>
 <trkpt lat="47.504166" lon="13.425098">
 <ele>827.31</ele>
 <time>2010-04-30T08:46:54Z</time>
 </trkpt>
 <trkpt lat="47.504665" lon="13.425648">
 <ele>824.11</ele>
 <time>2010-04-30T08:47:03Z</time>
 </trkpt>
 <trkpt lat="47.504986" lon="13.426209">
 <ele>823.48</ele>
 <time>2010-04-30T08:47:10Z</time>
 </trkpt>
 <trkpt lat="47.505123" lon="13.426565">
 <ele>822.86</ele>
 <time>2010-04-30T08:47:14Z</time>
 </trkpt>
 <trkpt lat="47.505199" lon="13.426932">
 <ele>822.39</ele>
 <time>2010-04-30T08:47:18Z</time>
 </trkpt>
 <trkpt lat="47.505344" lon="13.427746">
 <ele>821.42</ele>
 <time>2010-04-30T08:47:27Z</time>
 </trkpt>
 <trkpt lat="47.505440" lon="13.428329">
 <ele>821.58</ele>
 <time>2010-04-30T08:47:34Z</time>
 </trkpt>
 <trkpt lat="47.505463" lon="13.428489">
 <ele>821.52</ele>
 <time>2010-04-30T08:47:36Z</time>
 </trkpt>
 <trkpt lat="47.505646" lon="13.429093">
 <ele>821.68</ele>
 <time>2010-04-30T08:47:44Z</time>
 </trkpt>
 <trkpt lat="47.505882" lon="13.429632">
 <ele>821.29</ele>
 <time>2010-04-30T08:47:52Z</time>
 </trkpt>
 <trkpt lat="47.506119" lon="13.430186">
 <ele>820.25</ele>
 <time>2010-04-30T08:48:00Z</time>
 </trkpt>
 <trkpt lat="47.506325" lon="13.430914">
 <ele>819.24</ele>
 <time>2010-04-30T08:48:09Z</time>
 </trkpt>
 <trkpt lat="47.506538" lon="13.431663">
 <ele>817.95</ele>
 <time>2010-04-30T08:48:18Z</time>
 </trkpt>
 <trkpt lat="47.506809" lon="13.432499">
 <ele>816.55</ele>
 <time>2010-04-30T08:48:28Z</time>
 </trkpt>
 <trkpt lat="47.507084" lon="13.432974">
 <ele>816.13</ele>
 <time>2010-04-30T08:48:35Z</time>
 </trkpt>
 <trkpt lat="47.507385" lon="13.433217">
 <ele>816.25</ele>
 <time>2010-04-30T08:48:41Z</time>
 </trkpt>
 <trkpt lat="47.507717" lon="13.433339">
 <ele>816.42</ele>
 <time>2010-04-30T08:48:47Z</time>
 </trkpt>
 <trkpt lat="47.508217" lon="13.433434">
 <ele>816.20</ele>
 <time>2010-04-30T08:48:56Z</time>
 </trkpt>
 <trkpt lat="47.508781" lon="13.433315">
 <ele>815.33</ele>
 <time>2010-04-30T08:49:06Z</time>
 </trkpt>
 <trkpt lat="47.509174" lon="13.433069">
 <ele>815.06</ele>
 <time>2010-04-30T08:49:13Z</time>
 </trkpt>
 <trkpt lat="47.509544" lon="13.432686">
 <ele>813.18</ele>
 <time>2010-04-30T08:49:20Z</time>
 </trkpt>
 <trkpt lat="47.509876" lon="13.432269">
 <ele>812.21</ele>
 <time>2010-04-30T08:49:27Z</time>
 </trkpt>
 <trkpt lat="47.510128" lon="13.431905">
 <ele>810.83</ele>
 <time>2010-04-30T08:49:33Z</time>
 </trkpt>
 <trkpt lat="47.510471" lon="13.431501">
 <ele>810.12</ele>
 <time>2010-04-30T08:49:41Z</time>
 </trkpt>
 <trkpt lat="47.510757" lon="13.431305">
 <ele>809.60</ele>
 <time>2010-04-30T08:49:47Z</time>
 </trkpt>
 <trkpt lat="47.511200" lon="13.431121">
 <ele>808.40</ele>
 <time>2010-04-30T08:49:55Z</time>
 </trkpt>
 <trkpt lat="47.511562" lon="13.431057">
 <ele>807.44</ele>
 <time>2010-04-30T08:50:01Z</time>
 </trkpt>
 <trkpt lat="47.512054" lon="13.431097">
 <ele>806.21</ele>
 <time>2010-04-30T08:50:09Z</time>
 </trkpt>
 <trkpt lat="47.512489" lon="13.431223">
 <ele>805.97</ele>
 <time>2010-04-30T08:50:17Z</time>
 </trkpt>
 <trkpt lat="47.512890" lon="13.431366">
 <ele>805.07</ele>
 <time>2010-04-30T08:50:25Z</time>
 </trkpt>
 <trkpt lat="47.513229" lon="13.431373">
 <ele>804.84</ele>
 <time>2010-04-30T08:50:31Z</time>
 </trkpt>
 <trkpt lat="47.513744" lon="13.431255">
 <ele>802.10</ele>
 <time>2010-04-30T08:50:39Z</time>
 </trkpt>
 <trkpt lat="47.514202" lon="13.431182">
 <ele>800.78</ele>
 <time>2010-04-30T08:50:46Z</time>
 </trkpt>
 <trkpt lat="47.514709" lon="13.431204">
 <ele>800.32</ele>
 <time>2010-04-30T08:50:54Z</time>
 </trkpt>
 <trkpt lat="47.515182" lon="13.431263">
 <ele>799.60</ele>
 <time>2010-04-30T08:51:02Z</time>
 </trkpt>
 <trkpt lat="47.515766" lon="13.431288">
 <ele>799.37</ele>
 <time>2010-04-30T08:51:12Z</time>
 </trkpt>
 <trkpt lat="47.516258" lon="13.431304">
 <ele>797.93</ele>
 <time>2010-04-30T08:51:20Z</time>
 </trkpt>
 <trkpt lat="47.516918" lon="13.431336">
 <ele>797.42</ele>
 <time>2010-04-30T08:51:31Z</time>
 </trkpt>
 <trkpt lat="47.517632" lon="13.431364">
 <ele>796.02</ele>
 <time>2010-04-30T08:51:43Z</time>
 </trkpt>
 <trkpt lat="47.518108" lon="13.431348">
 <ele>795.43</ele>
 <time>2010-04-30T08:51:51Z</time>
 </trkpt>
 <trkpt lat="47.518223" lon="13.431307">
 <ele>795.20</ele>
 <time>2010-04-30T08:51:53Z</time>
 </trkpt>
 <trkpt lat="47.518703" lon="13.430958">
 <ele>794.94</ele>
 <time>2010-04-30T08:52:02Z</time>
 </trkpt>
 <trkpt lat="47.519238" lon="13.430576">
 <ele>793.74</ele>
 <time>2010-04-30T08:52:12Z</time>
 </trkpt>
 <trkpt lat="47.519573" lon="13.430446">
 <ele>792.58</ele>
 <time>2010-04-30T08:52:18Z</time>
 </trkpt>
 <trkpt lat="47.519970" lon="13.430468">
 <ele>791.69</ele>
 <time>2010-04-30T08:52:25Z</time>
 </trkpt>
 <trkpt lat="47.520435" lon="13.430603">
 <ele>791.34</ele>
 <time>2010-04-30T08:52:33Z</time>
 </trkpt>
 <trkpt lat="47.521004" lon="13.430926">
 <ele>790.49</ele>
 <time>2010-04-30T08:52:43Z</time>
 </trkpt>
 <trkpt lat="47.521587" lon="13.431172">
 <ele>789.73</ele>
 <time>2010-04-30T08:52:53Z</time>
 </trkpt>
 <trkpt lat="47.522186" lon="13.431301">
 <ele>788.88</ele>
 <time>2010-04-30T08:53:03Z</time>
 </trkpt>
 <trkpt lat="47.522724" lon="13.431295">
 <ele>788.63</ele>
 <time>2010-04-30T08:53:12Z</time>
 </trkpt>
 <trkpt lat="47.523209" lon="13.431237">
 <ele>788.30</ele>
 <time>2010-04-30T08:53:20Z</time>
 </trkpt>
 <trkpt lat="47.523705" lon="13.431187">
 <ele>787.53</ele>
 <time>2010-04-30T08:53:28Z</time>
 </trkpt>
 <trkpt lat="47.524292" lon="13.431064">
 <ele>786.68</ele>
 <time>2010-04-30T08:53:37Z</time>
 </trkpt>
 <trkpt lat="47.524597" lon="13.430855">
 <ele>786.27</ele>
 <time>2010-04-30T08:53:42Z</time>
 </trkpt>
 <trkpt lat="47.524883" lon="13.430485">
 <ele>786.10</ele>
 <time>2010-04-30T08:53:48Z</time>
 </trkpt>
 <trkpt lat="47.525200" lon="13.429937">
 <ele>785.98</ele>
 <time>2010-04-30T08:53:56Z</time>
 </trkpt>
 <trkpt lat="47.525482" lon="13.429228">
 <ele>785.41</ele>
 <time>2010-04-30T08:54:05Z</time>
 </trkpt>
 <trkpt lat="47.525883" lon="13.428357">
 <ele>784.00</ele>
 <time>2010-04-30T08:54:16Z</time>
 </trkpt>
 <trkpt lat="47.526306" lon="13.427591">
 <ele>781.96</ele>
 <time>2010-04-30T08:54:25Z</time>
 </trkpt>
 <trkpt lat="47.526699" lon="13.426738">
 <ele>780.47</ele>
 <time>2010-04-30T08:54:34Z</time>
 </trkpt>
 <trkpt lat="47.526932" lon="13.426172">
 <ele>778.95</ele>
 <time>2010-04-30T08:54:40Z</time>
 </trkpt>
 <trkpt lat="47.527126" lon="13.426053">
 <ele>778.46</ele>
 <time>2010-04-30T08:54:44Z</time>
 </trkpt>
 <trkpt lat="47.527191" lon="13.426074">
 <ele>778.41</ele>
 <time>2010-04-30T08:54:45Z</time>
 </trkpt>
 <trkpt lat="47.527420" lon="13.426116">
 <ele>778.25</ele>
 <time>2010-04-30T08:54:48Z</time>
 </trkpt>
 <trkpt lat="47.527821" lon="13.426060">
 <ele>777.95</ele>
 <time>2010-04-30T08:54:54Z</time>
 </trkpt>
 <trkpt lat="47.528301" lon="13.425871">
 <ele>777.23</ele>
 <time>2010-04-30T08:55:02Z</time>
 </trkpt>
 <trkpt lat="47.528820" lon="13.425593">
 <ele>777.03</ele>
 <time>2010-04-30T08:55:11Z</time>
 </trkpt>
 <trkpt lat="47.529411" lon="13.425269">
 <ele>776.02</ele>
 <time>2010-04-30T08:55:21Z</time>
 </trkpt>
 <trkpt lat="47.529861" lon="13.425101">
 <ele>774.93</ele>
 <time>2010-04-30T08:55:28Z</time>
 </trkpt>
 <trkpt lat="47.530270" lon="13.425148">
 <ele>773.88</ele>
 <time>2010-04-30T08:55:34Z</time>
 </trkpt>
 <trkpt lat="47.530659" lon="13.425360">
 <ele>772.30</ele>
 <time>2010-04-30T08:55:40Z</time>
 </trkpt>
 <trkpt lat="47.531242" lon="13.425651">
 <ele>772.25</ele>
 <time>2010-04-30T08:55:49Z</time>
 </trkpt>
 <trkpt lat="47.531544" lon="13.425669">
 <ele>770.62</ele>
 <time>2010-04-30T08:55:53Z</time>
 </trkpt>
 <trkpt lat="47.531952" lon="13.425541">
 <ele>769.09</ele>
 <time>2010-04-30T08:55:58Z</time>
 </trkpt>
 <trkpt lat="47.532341" lon="13.425226">
 <ele>766.80</ele>
 <time>2010-04-30T08:56:03Z</time>
 </trkpt>
 <trkpt lat="47.532410" lon="13.425147">
 <ele>766.52</ele>
 <time>2010-04-30T08:56:04Z</time>
 </trkpt>
 <trkpt lat="47.532753" lon="13.424732">
 <ele>764.75</ele>
 <time>2010-04-30T08:56:09Z</time>
 </trkpt>
 <trkpt lat="47.533241" lon="13.424207">
 <ele>763.81</ele>
 <time>2010-04-30T08:56:16Z</time>
 </trkpt>
 <trkpt lat="47.533627" lon="13.423988">
 <ele>763.00</ele>
 <time>2010-04-30T08:56:21Z</time>
 </trkpt>
 <trkpt lat="47.534012" lon="13.423906">
 <ele>762.27</ele>
 <time>2010-04-30T08:56:26Z</time>
 </trkpt>
 <trkpt lat="47.534489" lon="13.423920">
 <ele>762.21</ele>
 <time>2010-04-30T08:56:33Z</time>
 </trkpt>
 <trkpt lat="47.535049" lon="13.423924">
 <ele>762.48</ele>
 <time>2010-04-30T08:56:42Z</time>
 </trkpt>
 <trkpt lat="47.535534" lon="13.423811">
 <ele>762.66</ele>
 <time>2010-04-30T08:56:50Z</time>
 </trkpt>
 <trkpt lat="47.536064" lon="13.423497">
 <ele>761.84</ele>
 <time>2010-04-30T08:56:59Z</time>
 </trkpt>
 <trkpt lat="47.536423" lon="13.423166">
 <ele>760.95</ele>
 <time>2010-04-30T08:57:06Z</time>
 </trkpt>
 <trkpt lat="47.537014" lon="13.422700">
 <ele>761.02</ele>
 <time>2010-04-30T08:57:17Z</time>
 </trkpt>
 <trkpt lat="47.537521" lon="13.422429">
 <ele>759.94</ele>
 <time>2010-04-30T08:57:26Z</time>
 </trkpt>
 <trkpt lat="47.537937" lon="13.422083">
 <ele>759.62</ele>
 <time>2010-04-30T08:57:34Z</time>
 </trkpt>
 <trkpt lat="47.538292" lon="13.421774">
 <ele>758.05</ele>
 <time>2010-04-30T08:57:40Z</time>
 </trkpt>
 <trkpt lat="47.538574" lon="13.421708">
 <ele>756.39</ele>
 <time>2010-04-30T08:57:44Z</time>
 </trkpt>
 <trkpt lat="47.538780" lon="13.421817">
 <ele>755.34</ele>
 <time>2010-04-30T08:57:47Z</time>
 </trkpt>
 <trkpt lat="47.538841" lon="13.421878">
 <ele>755.02</ele>
 <time>2010-04-30T08:57:48Z</time>
 </trkpt>
 <trkpt lat="47.538956" lon="13.422013">
 <ele>754.67</ele>
 <time>2010-04-30T08:57:50Z</time>
 </trkpt>
 <trkpt lat="47.539310" lon="13.422236">
 <ele>753.91</ele>
 <time>2010-04-30T08:57:55Z</time>
 </trkpt>
 <trkpt lat="47.539921" lon="13.422396">
 <ele>751.69</ele>
 <time>2010-04-30T08:58:03Z</time>
 </trkpt>
 <trkpt lat="47.540131" lon="13.422452">
 <ele>751.72</ele>
 <time>2010-04-30T08:58:06Z</time>
 </trkpt>
 <trkpt lat="47.540386" lon="13.422384">
 <ele>751.83</ele>
 <time>2010-04-30T08:58:10Z</time>
 </trkpt>
 <trkpt lat="47.540482" lon="13.422164">
 <ele>751.70</ele>
 <time>2010-04-30T08:58:13Z</time>
 </trkpt>
 <trkpt lat="47.540627" lon="13.421796">
 <ele>751.15</ele>
 <time>2010-04-30T08:58:18Z</time>
 </trkpt>
 <trkpt lat="47.540813" lon="13.421789">
 <ele>750.93</ele>
 <time>2010-04-30T08:58:21Z</time>
 </trkpt>
 <trkpt lat="47.540936" lon="13.421863">
 <ele>750.76</ele>
 <time>2010-04-30T08:58:23Z</time>
 </trkpt>
 <trkpt lat="47.541061" lon="13.421941">
 <ele>750.54</ele>
 <time>2010-04-30T08:58:25Z</time>
 </trkpt>
 <trkpt lat="47.541348" lon="13.422002">
 <ele>749.74</ele>
 <time>2010-04-30T08:58:29Z</time>
 </trkpt>
 <trkpt lat="47.541492" lon="13.421995">
 <ele>749.53</ele>
 <time>2010-04-30T08:58:31Z</time>
 </trkpt>
 <trkpt lat="47.541744" lon="13.421815">
 <ele>749.36</ele>
 <time>2010-04-30T08:58:35Z</time>
 </trkpt>
 <trkpt lat="47.541832" lon="13.421524">
 <ele>748.71</ele>
 <time>2010-04-30T08:58:38Z</time>
 </trkpt>
 <trkpt lat="47.541920" lon="13.420970">
 <ele>746.87</ele>
 <time>2010-04-30T08:58:43Z</time>
 </trkpt>
 <trkpt lat="47.542095" lon="13.420667">
 <ele>745.66</ele>
 <time>2010-04-30T08:58:47Z</time>
 </trkpt>
 <trkpt lat="47.542305" lon="13.420706">
 <ele>745.24</ele>
 <time>2010-04-30T08:58:50Z</time>
 </trkpt>
 <trkpt lat="47.542450" lon="13.420755">
 <ele>744.78</ele>
 <time>2010-04-30T08:58:52Z</time>
 </trkpt>
 <trkpt lat="47.542759" lon="13.420686">
 <ele>744.05</ele>
 <time>2010-04-30T08:58:56Z</time>
 </trkpt>
 <trkpt lat="47.542831" lon="13.420641">
 <ele>744.11</ele>
 <time>2010-04-30T08:58:57Z</time>
 </trkpt>
 <trkpt lat="47.543240" lon="13.420341">
 <ele>742.89</ele>
 <time>2010-04-30T08:59:03Z</time>
 </trkpt>
 <trkpt lat="47.543514" lon="13.420176">
 <ele>742.09</ele>
 <time>2010-04-30T08:59:07Z</time>
 </trkpt>
 <trkpt lat="47.543823" lon="13.419834">
 <ele>741.24</ele>
 <time>2010-04-30T08:59:12Z</time>
 </trkpt>
 <trkpt lat="47.544239" lon="13.419250">
 <ele>739.43</ele>
 <time>2010-04-30T08:59:19Z</time>
 </trkpt>
 <trkpt lat="47.544662" lon="13.418720">
 <ele>738.11</ele>
 <time>2010-04-30T08:59:26Z</time>
 </trkpt>
 <trkpt lat="47.544884" lon="13.418268">
 <ele>737.11</ele>
 <time>2010-04-30T08:59:31Z</time>
 </trkpt>
 <trkpt lat="47.545017" lon="13.417505">
 <ele>735.77</ele>
 <time>2010-04-30T08:59:38Z</time>
 </trkpt>
 <trkpt lat="47.545139" lon="13.416397">
 <ele>734.58</ele>
 <time>2010-04-30T08:59:48Z</time>
 </trkpt>
 <trkpt lat="47.545280" lon="13.415581">
 <ele>733.62</ele>
 <time>2010-04-30T08:59:56Z</time>
 </trkpt>
 <trkpt lat="47.545502" lon="13.414420">
 <ele>731.80</ele>
 <time>2010-04-30T09:00:08Z</time>
 </trkpt>
 <trkpt lat="47.545708" lon="13.413508">
 <ele>730.66</ele>
 <time>2010-04-30T09:00:18Z</time>
 </trkpt>
 <trkpt lat="47.545921" lon="13.413007">
 <ele>730.91</ele>
 <time>2010-04-30T09:00:24Z</time>
 </trkpt>
 <trkpt lat="47.546192" lon="13.412647">
 <ele>729.80</ele>
 <time>2010-04-30T09:00:29Z</time>
 </trkpt>
 <trkpt lat="47.546528" lon="13.412403">
 <ele>728.63</ele>
 <time>2010-04-30T09:00:34Z</time>
 </trkpt>
 <trkpt lat="47.546974" lon="13.412297">
 <ele>727.78</ele>
 <time>2010-04-30T09:00:40Z</time>
 </trkpt>
 <trkpt lat="47.547497" lon="13.412360">
 <ele>726.73</ele>
 <time>2010-04-30T09:00:47Z</time>
 </trkpt>
 <trkpt lat="47.547981" lon="13.412561">
 <ele>725.70</ele>
 <time>2010-04-30T09:00:54Z</time>
 </trkpt>
 <trkpt lat="47.548168" lon="13.412668">
 <ele>725.38</ele>
 <time>2010-04-30T09:00:57Z</time>
 </trkpt>
 <trkpt lat="47.548283" lon="13.412874">
 <ele>725.21</ele>
 <time>2010-04-30T09:01:01Z</time>
 </trkpt>
 <trkpt lat="47.548363" lon="13.413104">
 <ele>725.31</ele>
 <time>2010-04-30T09:01:05Z</time>
 </trkpt>
 <trkpt lat="47.548447" lon="13.413159">
 <ele>725.48</ele>
 <time>2010-04-30T09:01:07Z</time>
 </trkpt>
 <trkpt lat="47.548637" lon="13.413257">
 <ele>725.15</ele>
 <time>2010-04-30T09:01:11Z</time>
 </trkpt>
 <trkpt lat="47.548840" lon="13.413485">
 <ele>724.57</ele>
 <time>2010-04-30T09:01:16Z</time>
 </trkpt>
 <trkpt lat="47.548992" lon="13.413801">
 <ele>724.20</ele>
 <time>2010-04-30T09:01:21Z</time>
 </trkpt>
 <trkpt lat="47.549198" lon="13.414013">
 <ele>724.46</ele>
 <time>2010-04-30T09:01:26Z</time>
 </trkpt>
 <trkpt lat="47.549412" lon="13.413962">
 <ele>724.33</ele>
 <time>2010-04-30T09:01:30Z</time>
 </trkpt>
 <trkpt lat="47.549461" lon="13.413925">
 <ele>724.18</ele>
 <time>2010-04-30T09:01:31Z</time>
 </trkpt>
 <trkpt lat="47.549816" lon="13.413548">
 <ele>722.93</ele>
 <time>2010-04-30T09:01:39Z</time>
 </trkpt>
 <trkpt lat="47.550053" lon="13.413180">
 <ele>721.78</ele>
 <time>2010-04-30T09:01:45Z</time>
 </trkpt>
 <trkpt lat="47.550339" lon="13.412683">
 <ele>721.91</ele>
 <time>2010-04-30T09:01:52Z</time>
 </trkpt>
 <trkpt lat="47.550747" lon="13.412241">
 <ele>720.43</ele>
 <time>2010-04-30T09:02:00Z</time>
 </trkpt>
 <trkpt lat="47.551289" lon="13.411556">
 <ele>720.04</ele>
 <time>2010-04-30T09:02:11Z</time>
 </trkpt>
 <trkpt lat="47.551670" lon="13.411174">
 <ele>718.92</ele>
 <time>2010-04-30T09:02:18Z</time>
 </trkpt>
 <trkpt lat="47.551937" lon="13.411026">
 <ele>718.74</ele>
 <time>2010-04-30T09:02:23Z</time>
 </trkpt>
 <trkpt lat="47.552174" lon="13.410998">
 <ele>718.86</ele>
 <time>2010-04-30T09:02:29Z</time>
 </trkpt>
 <trkpt lat="47.552422" lon="13.410877">
 <ele>719.04</ele>
 <time>2010-04-30T09:02:34Z</time>
 </trkpt>
 <trkpt lat="47.552788" lon="13.410733">
 <ele>720.15</ele>
 <time>2010-04-30T09:02:40Z</time>
 </trkpt>
 <trkpt lat="47.552990" lon="13.410744">
 <ele>720.65</ele>
 <time>2010-04-30T09:02:44Z</time>
 </trkpt>
 <trkpt lat="47.553288" lon="13.410764">
 <ele>721.75</ele>
 <time>2010-04-30T09:02:50Z</time>
 </trkpt>
 <trkpt lat="47.553474" lon="13.410683">
 <ele>721.45</ele>
 <time>2010-04-30T09:02:54Z</time>
 </trkpt>
 <trkpt lat="47.553768" lon="13.410411">
 <ele>720.22</ele>
 <time>2010-04-30T09:03:00Z</time>
 </trkpt>
 <trkpt lat="47.553925" lon="13.410253">
 <ele>718.84</ele>
 <time>2010-04-30T09:03:03Z</time>
 </trkpt>
 <trkpt lat="47.554119" lon="13.409983">
 <ele>717.26</ele>
 <time>2010-04-30T09:03:07Z</time>
 </trkpt>
 <trkpt lat="47.554344" lon="13.409803">
 <ele>716.07</ele>
 <time>2010-04-30T09:03:11Z</time>
 </trkpt>
 <trkpt lat="47.554523" lon="13.409850">
 <ele>715.58</ele>
 <time>2010-04-30T09:03:14Z</time>
 </trkpt>
 <trkpt lat="47.554691" lon="13.410043">
 <ele>716.20</ele>
 <time>2010-04-30T09:03:18Z</time>
 </trkpt>
 <trkpt lat="47.554722" lon="13.410099">
 <ele>716.22</ele>
 <time>2010-04-30T09:03:19Z</time>
 </trkpt>
 <trkpt lat="47.554771" lon="13.410209">
 <ele>716.19</ele>
 <time>2010-04-30T09:03:21Z</time>
 </trkpt>
 <trkpt lat="47.554989" lon="13.410324">
 <ele>715.90</ele>
 <time>2010-04-30T09:03:26Z</time>
 </trkpt>
 <trkpt lat="47.555183" lon="13.410231">
 <ele>715.33</ele>
 <time>2010-04-30T09:03:29Z</time>
 </trkpt>
 <trkpt lat="47.555374" lon="13.410134">
 <ele>714.57</ele>
 <time>2010-04-30T09:03:32Z</time>
 </trkpt>
 <trkpt lat="47.555645" lon="13.409892">
 <ele>713.61</ele>
 <time>2010-04-30T09:03:37Z</time>
 </trkpt>
 <trkpt lat="47.556061" lon="13.409544">
 <ele>713.74</ele>
 <time>2010-04-30T09:03:45Z</time>
 </trkpt>
 <trkpt lat="47.556450" lon="13.409298">
 <ele>712.55</ele>
 <time>2010-04-30T09:03:52Z</time>
 </trkpt>
 <trkpt lat="47.556835" lon="13.409008">
 <ele>712.61</ele>
 <time>2010-04-30T09:03:59Z</time>
 </trkpt>
 <trkpt lat="47.557152" lon="13.408781">
 <ele>712.65</ele>
 <time>2010-04-30T09:04:05Z</time>
 </trkpt>
 <trkpt lat="47.557362" lon="13.408603">
 <ele>711.97</ele>
 <time>2010-04-30T09:04:09Z</time>
 </trkpt>
 <trkpt lat="47.557640" lon="13.408126">
 <ele>710.49</ele>
 <time>2010-04-30T09:04:15Z</time>
 </trkpt>
 <trkpt lat="47.557678" lon="13.408031">
 <ele>710.10</ele>
 <time>2010-04-30T09:04:16Z</time>
 </trkpt>
 <trkpt lat="47.557777" lon="13.407400">
 <ele>708.92</ele>
 <time>2010-04-30T09:04:22Z</time>
 </trkpt>
 <trkpt lat="47.557762" lon="13.407198">
 <ele>708.67</ele>
 <time>2010-04-30T09:04:24Z</time>
 </trkpt>
 <trkpt lat="47.557724" lon="13.406930">
 <ele>708.73</ele>
 <time>2010-04-30T09:04:27Z</time>
 </trkpt>
 <trkpt lat="47.557751" lon="13.406475">
 <ele>708.88</ele>
 <time>2010-04-30T09:04:32Z</time>
 </trkpt>
 <trkpt lat="47.557758" lon="13.406384">
 <ele>708.87</ele>
 <time>2010-04-30T09:04:33Z</time>
 </trkpt>
 <trkpt lat="47.557896" lon="13.405576">
 <ele>708.59</ele>
 <time>2010-04-30T09:04:42Z</time>
 </trkpt>
 <trkpt lat="47.558056" lon="13.405257">
 <ele>708.34</ele>
 <time>2010-04-30T09:04:47Z</time>
 </trkpt>
 <trkpt lat="47.558277" lon="13.405148">
 <ele>707.30</ele>
 <time>2010-04-30T09:04:51Z</time>
 </trkpt>
 <trkpt lat="47.558788" lon="13.405103">
 <ele>705.63</ele>
 <time>2010-04-30T09:04:58Z</time>
 </trkpt>
 <trkpt lat="47.558922" lon="13.405069">
 <ele>705.33</ele>
 <time>2010-04-30T09:05:00Z</time>
 </trkpt>
 <trkpt lat="47.559284" lon="13.404798">
 <ele>704.45</ele>
 <time>2010-04-30T09:05:06Z</time>
 </trkpt>
 <trkpt lat="47.559464" lon="13.404502">
 <ele>703.93</ele>
 <time>2010-04-30T09:05:10Z</time>
 </trkpt>
 <trkpt lat="47.559502" lon="13.404225">
 <ele>704.16</ele>
 <time>2010-04-30T09:05:13Z</time>
 </trkpt>
 <trkpt lat="47.559517" lon="13.403944">
 <ele>704.10</ele>
 <time>2010-04-30T09:05:16Z</time>
 </trkpt>
 <trkpt lat="47.559536" lon="13.403754">
 <ele>703.88</ele>
 <time>2010-04-30T09:05:18Z</time>
 </trkpt>
 <trkpt lat="47.559704" lon="13.403334">
 <ele>702.76</ele>
 <time>2010-04-30T09:05:23Z</time>
 </trkpt>
 <trkpt lat="47.559872" lon="13.403219">
 <ele>702.44</ele>
 <time>2010-04-30T09:05:26Z</time>
 </trkpt>
 <trkpt lat="47.559933" lon="13.403201">
 <ele>702.14</ele>
 <time>2010-04-30T09:05:27Z</time>
 </trkpt>
 <trkpt lat="47.560249" lon="13.403128">
 <ele>701.52</ele>
 <time>2010-04-30T09:05:32Z</time>
 </trkpt>
 <trkpt lat="47.560379" lon="13.403084">
 <ele>701.52</ele>
 <time>2010-04-30T09:05:34Z</time>
 </trkpt>
 <trkpt lat="47.560677" lon="13.402865">
 <ele>700.80</ele>
 <time>2010-04-30T09:05:39Z</time>
 </trkpt>
 <trkpt lat="47.560780" lon="13.402611">
 <ele>700.52</ele>
 <time>2010-04-30T09:05:42Z</time>
 </trkpt>
 <trkpt lat="47.560818" lon="13.402432">
 <ele>700.46</ele>
 <time>2010-04-30T09:05:44Z</time>
 </trkpt>
 <trkpt lat="47.560917" lon="13.401828">
 <ele>699.33</ele>
 <time>2010-04-30T09:05:50Z</time>
 </trkpt>
 <trkpt lat="47.561001" lon="13.401347">
 <ele>699.09</ele>
 <time>2010-04-30T09:05:55Z</time>
 </trkpt>
 <trkpt lat="47.561161" lon="13.400868">
 <ele>699.52</ele>
 <time>2010-04-30T09:06:01Z</time>
 </trkpt>
 <trkpt lat="47.561234" lon="13.400587">
 <ele>700.00</ele>
 <time>2010-04-30T09:06:05Z</time>
 </trkpt>
 <trkpt lat="47.561317" lon="13.400252">
 <ele>700.35</ele>
 <time>2010-04-30T09:06:09Z</time>
 </trkpt>
 <trkpt lat="47.561428" lon="13.399999">
 <ele>700.51</ele>
 <time>2010-04-30T09:06:12Z</time>
 </trkpt>
 <trkpt lat="47.561794" lon="13.399384">
 <ele>700.20</ele>
 <time>2010-04-30T09:06:21Z</time>
 </trkpt>
 <trkpt lat="47.561958" lon="13.399184">
 <ele>700.47</ele>
 <time>2010-04-30T09:06:25Z</time>
 </trkpt>
 <trkpt lat="47.562279" lon="13.398851">
 <ele>700.97</ele>
 <time>2010-04-30T09:06:32Z</time>
 </trkpt>
 <trkpt lat="47.562672" lon="13.398482">
 <ele>699.68</ele>
 <time>2010-04-30T09:06:40Z</time>
 </trkpt>
 <trkpt lat="47.562950" lon="13.398130">
 <ele>698.82</ele>
 <time>2010-04-30T09:06:46Z</time>
 </trkpt>
 <trkpt lat="47.563046" lon="13.398000">
 <ele>698.55</ele>
 <time>2010-04-30T09:06:48Z</time>
 </trkpt>
 <trkpt lat="47.563328" lon="13.397811">
 <ele>698.37</ele>
 <time>2010-04-30T09:06:53Z</time>
 </trkpt>
 <trkpt lat="47.563454" lon="13.397798">
 <ele>698.20</ele>
 <time>2010-04-30T09:06:55Z</time>
 </trkpt>
 <trkpt lat="47.563828" lon="13.397850">
 <ele>697.99</ele>
 <time>2010-04-30T09:07:01Z</time>
 </trkpt>
 <trkpt lat="47.564064" lon="13.397813">
 <ele>698.23</ele>
 <time>2010-04-30T09:07:05Z</time>
 </trkpt>
 <trkpt lat="47.564259" lon="13.397581">
 <ele>697.66</ele>
 <time>2010-04-30T09:07:09Z</time>
 </trkpt>
 <trkpt lat="47.564335" lon="13.397297">
 <ele>696.67</ele>
 <time>2010-04-30T09:07:12Z</time>
 </trkpt>
 <trkpt lat="47.564499" lon="13.396693">
 <ele>693.63</ele>
 <time>2010-04-30T09:07:18Z</time>
 </trkpt>
 <trkpt lat="47.564686" lon="13.396519">
 <ele>692.24</ele>
 <time>2010-04-30T09:07:21Z</time>
 </trkpt>
 <trkpt lat="47.564819" lon="13.396434">
 <ele>691.51</ele>
 <time>2010-04-30T09:07:23Z</time>
 </trkpt>
 <trkpt lat="47.565022" lon="13.396320">
 <ele>691.07</ele>
 <time>2010-04-30T09:07:26Z</time>
 </trkpt>
 <trkpt lat="47.565346" lon="13.396281">
 <ele>690.31</ele>
 <time>2010-04-30T09:07:31Z</time>
 </trkpt>
 <trkpt lat="47.565582" lon="13.396219">
 <ele>690.14</ele>
 <time>2010-04-30T09:07:35Z</time>
 </trkpt>
 <trkpt lat="47.566120" lon="13.395922">
 <ele>688.83</ele>
 <time>2010-04-30T09:07:44Z</time>
 </trkpt>
 <trkpt lat="47.566711" lon="13.395521">
 <ele>688.25</ele>
 <time>2010-04-30T09:07:54Z</time>
 </trkpt>
 <trkpt lat="47.567127" lon="13.395236">
 <ele>688.52</ele>
 <time>2010-04-30T09:08:02Z</time>
 </trkpt>
 <trkpt lat="47.567406" lon="13.395038">
 <ele>689.98</ele>
 <time>2010-04-30T09:08:09Z</time>
 </trkpt>
 <trkpt lat="47.567665" lon="13.394807">
 <ele>691.91</ele>
 <time>2010-04-30T09:08:17Z</time>
 </trkpt>
 <trkpt lat="47.567795" lon="13.394695">
 <ele>692.53</ele>
 <time>2010-04-30T09:08:21Z</time>
 </trkpt>
 <trkpt lat="47.568031" lon="13.394448">
 <ele>692.50</ele>
 <time>2010-04-30T09:08:28Z</time>
 </trkpt>
 <trkpt lat="47.568256" lon="13.394093">
 <ele>690.47</ele>
 <time>2010-04-30T09:08:34Z</time>
 </trkpt>
 <trkpt lat="47.568615" lon="13.393609">
 <ele>688.71</ele>
 <time>2010-04-30T09:08:42Z</time>
 </trkpt>
 <trkpt lat="47.568893" lon="13.393243">
 <ele>687.28</ele>
 <time>2010-04-30T09:08:48Z</time>
 </trkpt>
 <trkpt lat="47.569290" lon="13.392941">
 <ele>685.77</ele>
 <time>2010-04-30T09:08:55Z</time>
 </trkpt>
 <trkpt lat="47.569870" lon="13.392600">
 <ele>683.48</ele>
 <time>2010-04-30T09:09:04Z</time>
 </trkpt>
 <trkpt lat="47.570477" lon="13.392237">
 <ele>682.45</ele>
 <time>2010-04-30T09:09:14Z</time>
 </trkpt>
 <trkpt lat="47.570835" lon="13.391945">
 <ele>682.31</ele>
 <time>2010-04-30T09:09:21Z</time>
 </trkpt>
 <trkpt lat="47.571056" lon="13.391580">
 <ele>682.96</ele>
 <time>2010-04-30T09:09:27Z</time>
 </trkpt>
 <trkpt lat="47.571384" lon="13.390939">
 <ele>683.39</ele>
 <time>2010-04-30T09:09:37Z</time>
 </trkpt>
 <trkpt lat="47.571674" lon="13.390357">
 <ele>683.11</ele>
 <time>2010-04-30T09:09:46Z</time>
 </trkpt>
 <trkpt lat="47.572109" lon="13.389486">
 <ele>682.64</ele>
 <time>2010-04-30T09:09:59Z</time>
 </trkpt>
 <trkpt lat="47.572346" lon="13.389120">
 <ele>682.45</ele>
 <time>2010-04-30T09:10:05Z</time>
 </trkpt>
 <trkpt lat="47.572609" lon="13.388886">
 <ele>682.58</ele>
 <time>2010-04-30T09:10:11Z</time>
 </trkpt>
 <trkpt lat="47.572971" lon="13.388598">
 <ele>683.83</ele>
 <time>2010-04-30T09:10:20Z</time>
 </trkpt>
 <trkpt lat="47.573238" lon="13.388423">
 <ele>684.83</ele>
 <time>2010-04-30T09:10:28Z</time>
 </trkpt>
 <trkpt lat="47.573486" lon="13.388274">
 <ele>686.75</ele>
 <time>2010-04-30T09:10:37Z</time>
 </trkpt>
 <trkpt lat="47.573563" lon="13.388234">
 <ele>687.80</ele>
 <time>2010-04-30T09:10:41Z</time>
 </trkpt>
 <trkpt lat="47.573620" lon="13.388356">
 <ele>688.10</ele>
 <time>2010-04-30T09:10:45Z</time>
 </trkpt>
 <trkpt lat="47.573624" lon="13.388403">
 <ele>688.20</ele>
 <time>2010-04-30T09:10:46Z</time>
 </trkpt>
 <trkpt lat="47.573738" lon="13.388960">
 <ele>688.69</ele>
 <time>2010-04-30T09:10:57Z</time>
 </trkpt>
 <trkpt lat="47.573864" lon="13.389459">
 <ele>688.93</ele>
 <time>2010-04-30T09:11:06Z</time>
 </trkpt>
 <trkpt lat="47.574039" lon="13.390069">
 <ele>689.60</ele>
 <time>2010-04-30T09:11:16Z</time>
 </trkpt>
 <trkpt lat="47.574226" lon="13.390662">
 <ele>689.64</ele>
 <time>2010-04-30T09:11:25Z</time>
 </trkpt>
 <trkpt lat="47.574478" lon="13.391452">
 <ele>689.70</ele>
 <time>2010-04-30T09:11:37Z</time>
 </trkpt>
 <trkpt lat="47.574669" lon="13.392082">
 <ele>690.36</ele>
 <time>2010-04-30T09:11:47Z</time>
 </trkpt>
 <trkpt lat="47.574821" lon="13.392619">
 <ele>691.60</ele>
 <time>2010-04-30T09:11:56Z</time>
 </trkpt>
 <trkpt lat="47.574955" lon="13.393151">
 <ele>692.86</ele>
 <time>2010-04-30T09:12:06Z</time>
 </trkpt>
 <trkpt lat="47.575066" lon="13.393611">
 <ele>693.84</ele>
 <time>2010-04-30T09:12:15Z</time>
 </trkpt>
 <trkpt lat="47.575207" lon="13.394176">
 <ele>695.21</ele>
 <time>2010-04-30T09:12:26Z</time>
 </trkpt>
 <trkpt lat="47.575401" lon="13.394881">
 <ele>696.92</ele>
 <time>2010-04-30T09:12:40Z</time>
 </trkpt>
 <trkpt lat="47.575615" lon="13.395486">
 <ele>698.01</ele>
 <time>2010-04-30T09:12:52Z</time>
 </trkpt>
 <trkpt lat="47.575825" lon="13.395997">
 <ele>698.78</ele>
 <time>2010-04-30T09:13:02Z</time>
 </trkpt>
 <trkpt lat="47.576092" lon="13.396688">
 <ele>699.43</ele>
 <time>2010-04-30T09:13:16Z</time>
 </trkpt>
 <trkpt lat="47.576260" lon="13.397141">
 <ele>700.09</ele>
 <time>2010-04-30T09:13:25Z</time>
 </trkpt>
 <trkpt lat="47.576508" lon="13.397847">
 <ele>701.15</ele>
 <time>2010-04-30T09:13:39Z</time>
 </trkpt>
 <trkpt lat="47.576683" lon="13.398361">
 <ele>701.75</ele>
 <time>2010-04-30T09:13:49Z</time>
 </trkpt>
 <trkpt lat="47.576897" lon="13.398993">
 <ele>702.54</ele>
 <time>2010-04-30T09:14:01Z</time>
 </trkpt>
 <trkpt lat="47.577129" lon="13.399611">
 <ele>703.71</ele>
 <time>2010-04-30T09:14:13Z</time>
 </trkpt>
 <trkpt lat="47.577377" lon="13.400152">
 <ele>704.65</ele>
 <time>2010-04-30T09:14:24Z</time>
 </trkpt>
 <trkpt lat="47.577736" lon="13.400790">
 <ele>706.42</ele>
 <time>2010-04-30T09:14:39Z</time>
 </trkpt>
 <trkpt lat="47.578003" lon="13.401218">
 <ele>707.54</ele>
 <time>2010-04-30T09:14:50Z</time>
 </trkpt>
 <trkpt lat="47.578167" lon="13.401483">
 <ele>709.77</ele>
 <time>2010-04-30T09:14:57Z</time>
 </trkpt>
 <trkpt lat="47.578423" lon="13.401905">
 <ele>710.72</ele>
 <time>2010-04-30T09:15:08Z</time>
 </trkpt>
 <trkpt lat="47.578636" lon="13.402318">
 <ele>711.48</ele>
 <time>2010-04-30T09:15:18Z</time>
 </trkpt>
 <trkpt lat="47.578819" lon="13.402836">
 <ele>712.38</ele>
 <time>2010-04-30T09:15:29Z</time>
 </trkpt>
 <trkpt lat="47.578903" lon="13.403346">
 <ele>713.65</ele>
 <time>2010-04-30T09:15:39Z</time>
 </trkpt>
 <trkpt lat="47.578945" lon="13.403886">
 <ele>714.65</ele>
 <time>2010-04-30T09:15:49Z</time>
 </trkpt>
 <trkpt lat="47.578991" lon="13.404439">
 <ele>715.92</ele>
 <time>2010-04-30T09:15:59Z</time>
 </trkpt>
 <trkpt lat="47.579086" lon="13.404964">
 <ele>716.70</ele>
 <time>2010-04-30T09:16:09Z</time>
 </trkpt>
 <trkpt lat="47.579205" lon="13.405362">
 <ele>717.25</ele>
 <time>2010-04-30T09:16:17Z</time>
 </trkpt>
 <trkpt lat="47.579411" lon="13.405883">
 <ele>717.71</ele>
 <time>2010-04-30T09:16:28Z</time>
 </trkpt>
 <trkpt lat="47.579552" lon="13.406350">
 <ele>718.85</ele>
 <time>2010-04-30T09:16:37Z</time>
 </trkpt>
 <trkpt lat="47.579609" lon="13.406900">
 <ele>719.50</ele>
 <time>2010-04-30T09:16:47Z</time>
 </trkpt>
 <trkpt lat="47.579609" lon="13.407221">
 <ele>720.70</ele>
 <time>2010-04-30T09:16:53Z</time>
 </trkpt>
 <trkpt lat="47.579536" lon="13.407550">
 <ele>720.82</ele>
 <time>2010-04-30T09:16:59Z</time>
 </trkpt>
 <trkpt lat="47.579407" lon="13.407955">
 <ele>722.02</ele>
 <time>2010-04-30T09:17:07Z</time>
 </trkpt>
 <trkpt lat="47.579224" lon="13.408491">
 <ele>723.17</ele>
 <time>2010-04-30T09:17:18Z</time>
 </trkpt>
 <trkpt lat="47.579025" lon="13.409138">
 <ele>724.29</ele>
 <time>2010-04-30T09:17:31Z</time>
 </trkpt>
 <trkpt lat="47.578899" lon="13.409651">
 <ele>725.80</ele>
 <time>2010-04-30T09:17:41Z</time>
 </trkpt>
 <trkpt lat="47.578838" lon="13.410150">
 <ele>727.17</ele>
 <time>2010-04-30T09:17:50Z</time>
 </trkpt>
 <trkpt lat="47.578842" lon="13.410597">
 <ele>728.16</ele>
 <time>2010-04-30T09:17:58Z</time>
 </trkpt>
 <trkpt lat="47.578903" lon="13.411209">
 <ele>729.46</ele>
 <time>2010-04-30T09:18:09Z</time>
 </trkpt>
 <trkpt lat="47.578957" lon="13.411611">
 <ele>730.44</ele>
 <time>2010-04-30T09:18:17Z</time>
 </trkpt>
 <trkpt lat="47.579086" lon="13.412089">
 <ele>731.69</ele>
 <time>2010-04-30T09:18:27Z</time>
 </trkpt>
 <trkpt lat="47.579193" lon="13.412383">
 <ele>732.01</ele>
 <time>2010-04-30T09:18:33Z</time>
 </trkpt>
 <trkpt lat="47.579277" lon="13.412725">
 <ele>733.16</ele>
 <time>2010-04-30T09:18:40Z</time>
 </trkpt>
 <trkpt lat="47.579311" lon="13.413023">
 <ele>733.65</ele>
 <time>2010-04-30T09:18:46Z</time>
 </trkpt>
 <trkpt lat="47.579330" lon="13.413370">
 <ele>734.58</ele>
 <time>2010-04-30T09:18:53Z</time>
 </trkpt>
 <trkpt lat="47.579319" lon="13.413904">
 <ele>736.58</ele>
 <time>2010-04-30T09:19:04Z</time>
 </trkpt>
 <trkpt lat="47.579315" lon="13.414383">
 <ele>737.86</ele>
 <time>2010-04-30T09:19:14Z</time>
 </trkpt>
 <trkpt lat="47.579357" lon="13.414902">
 <ele>739.48</ele>
 <time>2010-04-30T09:19:25Z</time>
 </trkpt>
 <trkpt lat="47.579433" lon="13.415319">
 <ele>741.41</ele>
 <time>2010-04-30T09:19:34Z</time>
 </trkpt>
 <trkpt lat="47.579536" lon="13.415757">
 <ele>742.36</ele>
 <time>2010-04-30T09:19:44Z</time>
 </trkpt>
 <trkpt lat="47.579655" lon="13.416193">
 <ele>744.10</ele>
 <time>2010-04-30T09:19:54Z</time>
 </trkpt>
 <trkpt lat="47.579758" lon="13.416586">
 <ele>745.56</ele>
 <time>2010-04-30T09:20:03Z</time>
 </trkpt>
 <trkpt lat="47.579868" lon="13.417030">
 <ele>746.81</ele>
 <time>2010-04-30T09:20:13Z</time>
 </trkpt>
 <trkpt lat="47.579956" lon="13.417473">
 <ele>748.15</ele>
 <time>2010-04-30T09:20:23Z</time>
 </trkpt>
 <trkpt lat="47.580063" lon="13.417965">
 <ele>749.65</ele>
 <time>2010-04-30T09:20:34Z</time>
 </trkpt>
 <trkpt lat="47.580235" lon="13.418595">
 <ele>751.07</ele>
 <time>2010-04-30T09:20:48Z</time>
 </trkpt>
 <trkpt lat="47.580345" lon="13.419109">
 <ele>751.66</ele>
 <time>2010-04-30T09:20:59Z</time>
 </trkpt>
 <trkpt lat="47.580379" lon="13.419646">
 <ele>753.03</ele>
 <time>2010-04-30T09:21:10Z</time>
 </trkpt>
 <trkpt lat="47.580357" lon="13.420081">
 <ele>754.22</ele>
 <time>2010-04-30T09:21:19Z</time>
 </trkpt>
 <trkpt lat="47.580296" lon="13.420573">
 <ele>755.15</ele>
 <time>2010-04-30T09:21:29Z</time>
 </trkpt>
 <trkpt lat="47.580341" lon="13.421108">
 <ele>755.97</ele>
 <time>2010-04-30T09:21:39Z</time>
 </trkpt>
 <trkpt lat="47.580448" lon="13.421563">
 <ele>756.10</ele>
 <time>2010-04-30T09:21:47Z</time>
 </trkpt>
 <trkpt lat="47.580620" lon="13.422011">
 <ele>756.03</ele>
 <time>2010-04-30T09:21:55Z</time>
 </trkpt>
 <trkpt lat="47.580799" lon="13.422571">
 <ele>756.22</ele>
 <time>2010-04-30T09:22:04Z</time>
 </trkpt>
 <trkpt lat="47.580849" lon="13.422774">
 <ele>756.18</ele>
 <time>2010-04-30T09:22:07Z</time>
 </trkpt>
 <trkpt lat="47.580925" lon="13.423370">
 <ele>756.08</ele>
 <time>2010-04-30T09:22:15Z</time>
 </trkpt>
 <trkpt lat="47.580948" lon="13.423685">
 <ele>755.32</ele>
 <time>2010-04-30T09:22:19Z</time>
 </trkpt>
 <trkpt lat="47.580929" lon="13.423952">
 <ele>755.30</ele>
 <time>2010-04-30T09:22:22Z</time>
 </trkpt>
 <trkpt lat="47.580776" lon="13.424571">
 <ele>753.94</ele>
 <time>2010-04-30T09:22:29Z</time>
 </trkpt>
 <trkpt lat="47.580654" lon="13.425144">
 <ele>753.69</ele>
 <time>2010-04-30T09:22:36Z</time>
 </trkpt>
 <trkpt lat="47.580624" lon="13.425587">
 <ele>754.80</ele>
 <time>2010-04-30T09:22:43Z</time>
 </trkpt>
 <trkpt lat="47.580624" lon="13.426094">
 <ele>756.27</ele>
 <time>2010-04-30T09:22:52Z</time>
 </trkpt>
 <trkpt lat="47.580669" lon="13.426543">
 <ele>757.62</ele>
 <time>2010-04-30T09:23:00Z</time>
 </trkpt>
 <trkpt lat="47.580734" lon="13.427002">
 <ele>758.71</ele>
 <time>2010-04-30T09:23:08Z</time>
 </trkpt>
 <trkpt lat="47.580784" lon="13.427551">
 <ele>759.86</ele>
 <time>2010-04-30T09:23:18Z</time>
 </trkpt>
 <trkpt lat="47.580784" lon="13.428166">
 <ele>760.32</ele>
 <time>2010-04-30T09:23:29Z</time>
 </trkpt>
 <trkpt lat="47.580750" lon="13.428551">
 <ele>760.94</ele>
 <time>2010-04-30T09:23:36Z</time>
 </trkpt>
 <trkpt lat="47.580681" lon="13.429022">
 <ele>762.62</ele>
 <time>2010-04-30T09:23:45Z</time>
 </trkpt>
 <trkpt lat="47.580620" lon="13.429408">
 <ele>764.21</ele>
 <time>2010-04-30T09:23:53Z</time>
 </trkpt>
 <trkpt lat="47.580601" lon="13.429788">
 <ele>765.76</ele>
 <time>2010-04-30T09:24:01Z</time>
 </trkpt>
 <trkpt lat="47.580620" lon="13.430213">
 <ele>766.88</ele>
 <time>2010-04-30T09:24:10Z</time>
 </trkpt>
 <trkpt lat="47.580643" lon="13.430810">
 <ele>768.01</ele>
 <time>2010-04-30T09:24:22Z</time>
 </trkpt>
 <trkpt lat="47.580585" lon="13.431266">
 <ele>769.03</ele>
 <time>2010-04-30T09:24:32Z</time>
 </trkpt>
 <trkpt lat="47.580460" lon="13.431791">
 <ele>769.90</ele>
 <time>2010-04-30T09:24:43Z</time>
 </trkpt>
 <trkpt lat="47.580326" lon="13.432259">
 <ele>770.77</ele>
 <time>2010-04-30T09:24:53Z</time>
 </trkpt>
 <trkpt lat="47.580181" lon="13.432780">
 <ele>771.81</ele>
 <time>2010-04-30T09:25:04Z</time>
 </trkpt>
 <trkpt lat="47.580048" lon="13.433316">
 <ele>772.64</ele>
 <time>2010-04-30T09:25:15Z</time>
 </trkpt>
 <trkpt lat="47.579964" lon="13.433995">
 <ele>773.77</ele>
 <time>2010-04-30T09:25:28Z</time>
 </trkpt>
 <trkpt lat="47.579983" lon="13.434479">
 <ele>774.66</ele>
 <time>2010-04-30T09:25:37Z</time>
 </trkpt>
 <trkpt lat="47.580029" lon="13.434945">
 <ele>775.58</ele>
 <time>2010-04-30T09:25:46Z</time>
 </trkpt>
 <trkpt lat="47.580135" lon="13.435454">
 <ele>777.04</ele>
 <time>2010-04-30T09:25:56Z</time>
 </trkpt>
 <trkpt lat="47.580311" lon="13.436033">
 <ele>777.96</ele>
 <time>2010-04-30T09:26:08Z</time>
 </trkpt>
 <trkpt lat="47.580463" lon="13.436497">
 <ele>779.18</ele>
 <time>2010-04-30T09:26:18Z</time>
 </trkpt>
 <trkpt lat="47.580624" lon="13.437005">
 <ele>780.13</ele>
 <time>2010-04-30T09:26:29Z</time>
 </trkpt>
 <trkpt lat="47.580780" lon="13.437515">
 <ele>781.28</ele>
 <time>2010-04-30T09:26:40Z</time>
 </trkpt>
 <trkpt lat="47.580879" lon="13.438056">
 <ele>782.31</ele>
 <time>2010-04-30T09:26:51Z</time>
 </trkpt>
 <trkpt lat="47.580894" lon="13.438573">
 <ele>783.57</ele>
 <time>2010-04-30T09:27:01Z</time>
 </trkpt>
 <trkpt lat="47.580830" lon="13.439032">
 <ele>784.43</ele>
 <time>2010-04-30T09:27:10Z</time>
 </trkpt>
 <trkpt lat="47.580688" lon="13.439549">
 <ele>785.32</ele>
 <time>2010-04-30T09:27:21Z</time>
 </trkpt>
 <trkpt lat="47.580574" lon="13.439843">
 <ele>786.46</ele>
 <time>2010-04-30T09:27:28Z</time>
 </trkpt>
 <trkpt lat="47.580418" lon="13.440237">
 <ele>787.00</ele>
 <time>2010-04-30T09:27:37Z</time>
 </trkpt>
 <trkpt lat="47.580269" lon="13.440618">
 <ele>787.65</ele>
 <time>2010-04-30T09:27:46Z</time>
 </trkpt>
 <trkpt lat="47.580166" lon="13.440927">
 <ele>788.73</ele>
 <time>2010-04-30T09:27:54Z</time>
 </trkpt>
 <trkpt lat="47.580051" lon="13.441287">
 <ele>790.18</ele>
 <time>2010-04-30T09:28:04Z</time>
 </trkpt>
 <trkpt lat="47.579941" lon="13.441714">
 <ele>792.62</ele>
 <time>2010-04-30T09:28:16Z</time>
 </trkpt>
 <trkpt lat="47.579861" lon="13.442060">
 <ele>795.01</ele>
 <time>2010-04-30T09:28:26Z</time>
 </trkpt>
 <trkpt lat="47.579781" lon="13.442447">
 <ele>796.69</ele>
 <time>2010-04-30T09:28:38Z</time>
 </trkpt>
 <trkpt lat="47.579750" lon="13.442712">
 <ele>798.35</ele>
 <time>2010-04-30T09:28:46Z</time>
 </trkpt>
 <trkpt lat="47.579704" lon="13.443109">
 <ele>800.67</ele>
 <time>2010-04-30T09:28:58Z</time>
 </trkpt>
 <trkpt lat="47.579666" lon="13.443445">
 <ele>802.53</ele>
 <time>2010-04-30T09:29:08Z</time>
 </trkpt>
 <trkpt lat="47.579643" lon="13.443771">
 <ele>804.44</ele>
 <time>2010-04-30T09:29:18Z</time>
 </trkpt>
 <trkpt lat="47.579613" lon="13.444131">
 <ele>806.22</ele>
 <time>2010-04-30T09:29:29Z</time>
 </trkpt>
 <trkpt lat="47.579597" lon="13.444467">
 <ele>808.21</ele>
 <time>2010-04-30T09:29:39Z</time>
 </trkpt>
 <trkpt lat="47.579586" lon="13.444896">
 <ele>810.64</ele>
 <time>2010-04-30T09:29:52Z</time>
 </trkpt>
 <trkpt lat="47.579594" lon="13.445326">
 <ele>812.94</ele>
 <time>2010-04-30T09:30:05Z</time>
 </trkpt>
 <trkpt lat="47.579601" lon="13.445628">
 <ele>814.28</ele>
 <time>2010-04-30T09:30:14Z</time>
 </trkpt>
 <trkpt lat="47.579613" lon="13.445930">
 <ele>815.88</ele>
 <time>2010-04-30T09:30:23Z</time>
 </trkpt>
 <trkpt lat="47.579639" lon="13.446226">
 <ele>817.97</ele>
 <time>2010-04-30T09:30:32Z</time>
 </trkpt>
 <trkpt lat="47.579678" lon="13.446544">
 <ele>819.33</ele>
 <time>2010-04-30T09:30:42Z</time>
 </trkpt>
 <trkpt lat="47.579750" lon="13.446927">
 <ele>821.76</ele>
 <time>2010-04-30T09:30:54Z</time>
 </trkpt>
 <trkpt lat="47.579823" lon="13.447215">
 <ele>822.88</ele>
 <time>2010-04-30T09:31:03Z</time>
 </trkpt>
 <trkpt lat="47.579884" lon="13.447475">
 <ele>824.21</ele>
 <time>2010-04-30T09:31:11Z</time>
 </trkpt>
 <trkpt lat="47.579979" lon="13.447769">
 <ele>825.79</ele>
 <time>2010-04-30T09:31:20Z</time>
 </trkpt>
 <trkpt lat="47.580105" lon="13.448078">
 <ele>826.92</ele>
 <time>2010-04-30T09:31:30Z</time>
 </trkpt>
 <trkpt lat="47.580254" lon="13.448417">
 <ele>828.30</ele>
 <time>2010-04-30T09:31:41Z</time>
 </trkpt>
 <trkpt lat="47.580399" lon="13.448711">
 <ele>829.17</ele>
 <time>2010-04-30T09:31:51Z</time>
 </trkpt>
 <trkpt lat="47.580532" lon="13.448953">
 <ele>829.73</ele>
 <time>2010-04-30T09:31:59Z</time>
 </trkpt>
 <trkpt lat="47.580730" lon="13.449271">
 <ele>831.03</ele>
 <time>2010-04-30T09:32:09Z</time>
 </trkpt>
 <trkpt lat="47.580959" lon="13.449578">
 <ele>831.84</ele>
 <time>2010-04-30T09:32:18Z</time>
 </trkpt>
 <trkpt lat="47.581230" lon="13.449915">
 <ele>832.54</ele>
 <time>2010-04-30T09:32:27Z</time>
 </trkpt>
 <trkpt lat="47.581470" lon="13.450198">
 <ele>832.83</ele>
 <time>2010-04-30T09:32:35Z</time>
 </trkpt>
 <trkpt lat="47.581768" lon="13.450521">
 <ele>832.42</ele>
 <time>2010-04-30T09:32:43Z</time>
 </trkpt>
 <trkpt lat="47.582203" lon="13.450983">
 <ele>832.23</ele>
 <time>2010-04-30T09:32:53Z</time>
 </trkpt>
 <trkpt lat="47.582565" lon="13.451380">
 <ele>831.66</ele>
 <time>2010-04-30T09:33:01Z</time>
 </trkpt>
 <trkpt lat="47.582905" lon="13.451757">
 <ele>831.51</ele>
 <time>2010-04-30T09:33:08Z</time>
 </trkpt>
 <trkpt lat="47.583397" lon="13.452316">
 <ele>830.69</ele>
 <time>2010-04-30T09:33:18Z</time>
 </trkpt>
 <trkpt lat="47.583855" lon="13.452840">
 <ele>829.52</ele>
 <time>2010-04-30T09:33:27Z</time>
 </trkpt>
 <trkpt lat="47.584301" lon="13.453399">
 <ele>828.75</ele>
 <time>2010-04-30T09:33:36Z</time>
 </trkpt>
 <trkpt lat="47.584789" lon="13.454064">
 <ele>827.22</ele>
 <time>2010-04-30T09:33:46Z</time>
 </trkpt>
 <trkpt lat="47.585175" lon="13.454678">
 <ele>826.55</ele>
 <time>2010-04-30T09:33:55Z</time>
 </trkpt>
 <trkpt lat="47.585583" lon="13.455350">
 <ele>826.56</ele>
 <time>2010-04-30T09:34:05Z</time>
 </trkpt>
 <trkpt lat="47.585991" lon="13.456094">
 <ele>826.70</ele>
 <time>2010-04-30T09:34:16Z</time>
 </trkpt>
 <trkpt lat="47.586391" lon="13.456762">
 <ele>826.89</ele>
 <time>2010-04-30T09:34:27Z</time>
 </trkpt>
 <trkpt lat="47.586765" lon="13.457257">
 <ele>827.73</ele>
 <time>2010-04-30T09:34:36Z</time>
 </trkpt>
 <trkpt lat="47.587208" lon="13.457808">
 <ele>828.16</ele>
 <time>2010-04-30T09:34:47Z</time>
 </trkpt>
 <trkpt lat="47.587601" lon="13.458227">
 <ele>829.07</ele>
 <time>2010-04-30T09:34:56Z</time>
 </trkpt>
 <trkpt lat="47.587723" lon="13.458366">
 <ele>829.27</ele>
 <time>2010-04-30T09:34:59Z</time>
 </trkpt>
 <trkpt lat="47.588142" lon="13.458905">
 <ele>830.09</ele>
 <time>2010-04-30T09:35:10Z</time>
 </trkpt>
 <trkpt lat="47.588444" lon="13.459350">
 <ele>830.34</ele>
 <time>2010-04-30T09:35:19Z</time>
 </trkpt>
 <trkpt lat="47.588577" lon="13.459557">
 <ele>830.99</ele>
 <time>2010-04-30T09:35:24Z</time>
 </trkpt>
 <trkpt lat="47.588787" lon="13.459957">
 <ele>831.71</ele>
 <time>2010-04-30T09:35:32Z</time>
 </trkpt>
 <trkpt lat="47.589039" lon="13.460556">
 <ele>832.55</ele>
 <time>2010-04-30T09:35:43Z</time>
 </trkpt>
 <trkpt lat="47.589211" lon="13.461073">
 <ele>833.08</ele>
 <time>2010-04-30T09:35:52Z</time>
 </trkpt>
 <trkpt lat="47.589363" lon="13.461643">
 <ele>833.82</ele>
 <time>2010-04-30T09:36:02Z</time>
 </trkpt>
 <trkpt lat="47.589466" lon="13.462144">
 <ele>834.35</ele>
 <time>2010-04-30T09:36:11Z</time>
 </trkpt>
 <trkpt lat="47.589546" lon="13.462633">
 <ele>836.06</ele>
 <time>2010-04-30T09:36:21Z</time>
 </trkpt>
 <trkpt lat="47.589603" lon="13.463029">
 <ele>837.21</ele>
 <time>2010-04-30T09:36:30Z</time>
 </trkpt>
 <trkpt lat="47.589672" lon="13.463468">
 <ele>838.33</ele>
 <time>2010-04-30T09:36:41Z</time>
 </trkpt>
 <trkpt lat="47.589748" lon="13.464018">
 <ele>840.29</ele>
 <time>2010-04-30T09:36:55Z</time>
 </trkpt>
 <trkpt lat="47.589806" lon="13.464397">
 <ele>841.76</ele>
 <time>2010-04-30T09:37:05Z</time>
 </trkpt>
 <trkpt lat="47.589851" lon="13.464667">
 <ele>842.38</ele>
 <time>2010-04-30T09:37:12Z</time>
 </trkpt>
 <trkpt lat="47.589916" lon="13.464973">
 <ele>843.24</ele>
 <time>2010-04-30T09:37:20Z</time>
 </trkpt>
 <trkpt lat="47.590034" lon="13.465409">
 <ele>845.03</ele>
 <time>2010-04-30T09:37:32Z</time>
 </trkpt>
 <trkpt lat="47.590149" lon="13.465780">
 <ele>846.18</ele>
 <time>2010-04-30T09:37:42Z</time>
 </trkpt>
 <trkpt lat="47.590267" lon="13.466151">
 <ele>847.54</ele>
 <time>2010-04-30T09:37:52Z</time>
 </trkpt>
 <trkpt lat="47.590397" lon="13.466514">
 <ele>848.29</ele>
 <time>2010-04-30T09:38:02Z</time>
 </trkpt>
 <trkpt lat="47.590500" lon="13.466801">
 <ele>849.03</ele>
 <time>2010-04-30T09:38:10Z</time>
 </trkpt>
 <trkpt lat="47.590645" lon="13.467179">
 <ele>849.70</ele>
 <time>2010-04-30T09:38:20Z</time>
 </trkpt>
 <trkpt lat="47.590828" lon="13.467586">
 <ele>849.94</ele>
 <time>2010-04-30T09:38:30Z</time>
 </trkpt>
 <trkpt lat="47.591045" lon="13.468043">
 <ele>850.41</ele>
 <time>2010-04-30T09:38:41Z</time>
 </trkpt>
 <trkpt lat="47.591270" lon="13.468489">
 <ele>851.30</ele>
 <time>2010-04-30T09:38:52Z</time>
 </trkpt>
 <trkpt lat="47.591496" lon="13.468947">
 <ele>851.83</ele>
 <time>2010-04-30T09:39:04Z</time>
 </trkpt>
 <trkpt lat="47.591667" lon="13.469304">
 <ele>853.06</ele>
 <time>2010-04-30T09:39:14Z</time>
 </trkpt>
 <trkpt lat="47.591850" lon="13.469641">
 <ele>854.02</ele>
 <time>2010-04-30T09:39:24Z</time>
 </trkpt>
 <trkpt lat="47.591988" lon="13.469933">
 <ele>855.40</ele>
 <time>2010-04-30T09:39:33Z</time>
 </trkpt>
 <trkpt lat="47.592178" lon="13.470314">
 <ele>857.08</ele>
 <time>2010-04-30T09:39:45Z</time>
 </trkpt>
 <trkpt lat="47.592342" lon="13.470720">
 <ele>858.50</ele>
 <time>2010-04-30T09:39:57Z</time>
 </trkpt>
 <trkpt lat="47.592449" lon="13.471070">
 <ele>860.01</ele>
 <time>2010-04-30T09:40:07Z</time>
 </trkpt>
 <trkpt lat="47.592525" lon="13.471401">
 <ele>861.14</ele>
 <time>2010-04-30T09:40:16Z</time>
 </trkpt>
 <trkpt lat="47.592583" lon="13.471770">
 <ele>862.20</ele>
 <time>2010-04-30T09:40:26Z</time>
 </trkpt>
 <trkpt lat="47.592628" lon="13.472136">
 <ele>863.65</ele>
 <time>2010-04-30T09:40:36Z</time>
 </trkpt>
 <trkpt lat="47.592659" lon="13.472510">
 <ele>864.96</ele>
 <time>2010-04-30T09:40:46Z</time>
 </trkpt>
 <trkpt lat="47.592674" lon="13.472882">
 <ele>866.57</ele>
 <time>2010-04-30T09:40:56Z</time>
 </trkpt>
 <trkpt lat="47.592663" lon="13.473257">
 <ele>867.73</ele>
 <time>2010-04-30T09:41:06Z</time>
 </trkpt>
 <trkpt lat="47.592621" lon="13.473708">
 <ele>869.51</ele>
 <time>2010-04-30T09:41:18Z</time>
 </trkpt>
 <trkpt lat="47.592560" lon="13.474162">
 <ele>871.14</ele>
 <time>2010-04-30T09:41:30Z</time>
 </trkpt>
 <trkpt lat="47.592487" lon="13.474647">
 <ele>873.08</ele>
 <time>2010-04-30T09:41:43Z</time>
 </trkpt>
 <trkpt lat="47.592426" lon="13.475106">
 <ele>874.90</ele>
 <time>2010-04-30T09:41:55Z</time>
 </trkpt>
 <trkpt lat="47.592396" lon="13.475492">
 <ele>876.38</ele>
 <time>2010-04-30T09:42:05Z</time>
 </trkpt>
 <trkpt lat="47.592384" lon="13.475956">
 <ele>877.75</ele>
 <time>2010-04-30T09:42:17Z</time>
 </trkpt>
 <trkpt lat="47.592400" lon="13.476340">
 <ele>878.88</ele>
 <time>2010-04-30T09:42:27Z</time>
 </trkpt>
 <trkpt lat="47.592434" lon="13.476703">
 <ele>879.86</ele>
 <time>2010-04-30T09:42:36Z</time>
 </trkpt>
 <trkpt lat="47.592510" lon="13.477162">
 <ele>880.58</ele>
 <time>2010-04-30T09:42:47Z</time>
 </trkpt>
 <trkpt lat="47.592575" lon="13.477572">
 <ele>881.76</ele>
 <time>2010-04-30T09:42:57Z</time>
 </trkpt>
 <trkpt lat="47.592636" lon="13.477979">
 <ele>882.14</ele>
 <time>2010-04-30T09:43:07Z</time>
 </trkpt>
 <trkpt lat="47.592705" lon="13.478465">
 <ele>883.07</ele>
 <time>2010-04-30T09:43:19Z</time>
 </trkpt>
 <trkpt lat="47.592770" lon="13.478990">
 <ele>884.17</ele>
 <time>2010-04-30T09:43:32Z</time>
 </trkpt>
 <trkpt lat="47.592831" lon="13.479523">
 <ele>885.64</ele>
 <time>2010-04-30T09:43:45Z</time>
 </trkpt>
 <trkpt lat="47.592880" lon="13.480076">
 <ele>886.92</ele>
 <time>2010-04-30T09:43:59Z</time>
 </trkpt>
 <trkpt lat="47.592918" lon="13.480669">
 <ele>888.28</ele>
 <time>2010-04-30T09:44:14Z</time>
 </trkpt>
 <trkpt lat="47.592941" lon="13.481095">
 <ele>889.79</ele>
 <time>2010-04-30T09:44:25Z</time>
 </trkpt>
 <trkpt lat="47.592953" lon="13.481592">
 <ele>891.66</ele>
 <time>2010-04-30T09:44:38Z</time>
 </trkpt>
 <trkpt lat="47.592957" lon="13.482084">
 <ele>893.26</ele>
 <time>2010-04-30T09:44:51Z</time>
 </trkpt>
 <trkpt lat="47.592957" lon="13.482571">
 <ele>895.33</ele>
 <time>2010-04-30T09:45:04Z</time>
 </trkpt>
 <trkpt lat="47.592937" lon="13.482937">
 <ele>896.56</ele>
 <time>2010-04-30T09:45:14Z</time>
 </trkpt>
 <trkpt lat="47.592918" lon="13.483367">
 <ele>898.83</ele>
 <time>2010-04-30T09:45:26Z</time>
 </trkpt>
 <trkpt lat="47.592899" lon="13.483717">
 <ele>900.21</ele>
 <time>2010-04-30T09:45:36Z</time>
 </trkpt>
 <trkpt lat="47.592880" lon="13.484097">
 <ele>901.86</ele>
 <time>2010-04-30T09:45:47Z</time>
 </trkpt>
 <trkpt lat="47.592865" lon="13.484372">
 <ele>903.60</ele>
 <time>2010-04-30T09:45:55Z</time>
 </trkpt>
 <trkpt lat="47.592834" lon="13.484676">
 <ele>905.10</ele>
 <time>2010-04-30T09:46:04Z</time>
 </trkpt>
 <trkpt lat="47.592800" lon="13.485015">
 <ele>907.00</ele>
 <time>2010-04-30T09:46:14Z</time>
 </trkpt>
 <trkpt lat="47.592751" lon="13.485344">
 <ele>908.80</ele>
 <time>2010-04-30T09:46:24Z</time>
 </trkpt>
 <trkpt lat="47.592697" lon="13.485775">
 <ele>911.24</ele>
 <time>2010-04-30T09:46:38Z</time>
 </trkpt>
 <trkpt lat="47.592659" lon="13.486111">
 <ele>913.53</ele>
 <time>2010-04-30T09:46:49Z</time>
 </trkpt>
 <trkpt lat="47.592621" lon="13.486478">
 <ele>915.76</ele>
 <time>2010-04-30T09:47:01Z</time>
 </trkpt>
 <trkpt lat="47.592594" lon="13.486833">
 <ele>917.35</ele>
 <time>2010-04-30T09:47:12Z</time>
 </trkpt>
 <trkpt lat="47.592564" lon="13.487111">
 <ele>919.11</ele>
 <time>2010-04-30T09:47:21Z</time>
 </trkpt>
 <trkpt lat="47.592529" lon="13.487470">
 <ele>920.97</ele>
 <time>2010-04-30T09:47:33Z</time>
 </trkpt>
 <trkpt lat="47.592495" lon="13.487829">
 <ele>922.79</ele>
 <time>2010-04-30T09:47:45Z</time>
 </trkpt>
 <trkpt lat="47.592464" lon="13.488189">
 <ele>924.77</ele>
 <time>2010-04-30T09:47:57Z</time>
 </trkpt>
 <trkpt lat="47.592438" lon="13.488489">
 <ele>926.61</ele>
 <time>2010-04-30T09:48:07Z</time>
 </trkpt>
 <trkpt lat="47.592419" lon="13.488829">
 <ele>928.35</ele>
 <time>2010-04-30T09:48:18Z</time>
 </trkpt>
 <trkpt lat="47.592396" lon="13.489202">
 <ele>930.66</ele>
 <time>2010-04-30T09:48:30Z</time>
 </trkpt>
 <trkpt lat="47.592365" lon="13.489631">
 <ele>932.65</ele>
 <time>2010-04-30T09:48:44Z</time>
 </trkpt>
 <trkpt lat="47.592342" lon="13.489935">
 <ele>934.45</ele>
 <time>2010-04-30T09:48:54Z</time>
 </trkpt>
 <trkpt lat="47.592316" lon="13.490214">
 <ele>935.80</ele>
 <time>2010-04-30T09:49:03Z</time>
 </trkpt>
 <trkpt lat="47.592270" lon="13.490524">
 <ele>937.28</ele>
 <time>2010-04-30T09:49:13Z</time>
 </trkpt>
 <trkpt lat="47.592213" lon="13.490899">
 <ele>939.17</ele>
 <time>2010-04-30T09:49:25Z</time>
 </trkpt>
 <trkpt lat="47.592133" lon="13.491292">
 <ele>941.36</ele>
 <time>2010-04-30T09:49:38Z</time>
 </trkpt>
 <trkpt lat="47.592030" lon="13.491699">
 <ele>943.04</ele>
 <time>2010-04-30T09:49:51Z</time>
 </trkpt>
 <trkpt lat="47.591934" lon="13.492040">
 <ele>944.99</ele>
 <time>2010-04-30T09:50:02Z</time>
 </trkpt>
 <trkpt lat="47.591846" lon="13.492308">
 <ele>946.65</ele>
 <time>2010-04-30T09:50:11Z</time>
 </trkpt>
 <trkpt lat="47.591747" lon="13.492606">
 <ele>947.54</ele>
 <time>2010-04-30T09:50:21Z</time>
 </trkpt>
 <trkpt lat="47.591640" lon="13.492879">
 <ele>948.71</ele>
 <time>2010-04-30T09:50:30Z</time>
 </trkpt>
 <trkpt lat="47.591530" lon="13.493143">
 <ele>949.94</ele>
 <time>2010-04-30T09:50:39Z</time>
 </trkpt>
 <trkpt lat="47.591442" lon="13.493346">
 <ele>950.68</ele>
 <time>2010-04-30T09:50:46Z</time>
 </trkpt>
 <trkpt lat="47.591324" lon="13.493621">
 <ele>951.59</ele>
 <time>2010-04-30T09:50:55Z</time>
 </trkpt>
 <trkpt lat="47.591236" lon="13.493843">
 <ele>952.41</ele>
 <time>2010-04-30T09:51:02Z</time>
 </trkpt>
 <trkpt lat="47.591064" lon="13.494204">
 <ele>953.38</ele>
 <time>2010-04-30T09:51:13Z</time>
 </trkpt>
 <trkpt lat="47.590878" lon="13.494552">
 <ele>954.35</ele>
 <time>2010-04-30T09:51:24Z</time>
 </trkpt>
 <trkpt lat="47.590748" lon="13.494824">
 <ele>955.21</ele>
 <time>2010-04-30T09:51:32Z</time>
 </trkpt>
 <trkpt lat="47.590572" lon="13.495206">
 <ele>956.10</ele>
 <time>2010-04-30T09:51:42Z</time>
 </trkpt>
 <trkpt lat="47.590473" lon="13.495488">
 <ele>956.73</ele>
 <time>2010-04-30T09:51:49Z</time>
 </trkpt>
 <trkpt lat="47.590305" lon="13.496031">
 <ele>957.51</ele>
 <time>2010-04-30T09:52:01Z</time>
 </trkpt>
 <trkpt lat="47.590206" lon="13.496476">
 <ele>957.91</ele>
 <time>2010-04-30T09:52:10Z</time>
 </trkpt>
 <trkpt lat="47.590141" lon="13.497041">
 <ele>958.79</ele>
 <time>2010-04-30T09:52:20Z</time>
 </trkpt>
 <trkpt lat="47.590141" lon="13.497504">
 <ele>959.15</ele>
 <time>2010-04-30T09:52:28Z</time>
 </trkpt>
 <trkpt lat="47.590130" lon="13.497892">
 <ele>959.55</ele>
 <time>2010-04-30T09:52:35Z</time>
 </trkpt>
 <trkpt lat="47.590183" lon="13.498363">
 <ele>960.49</ele>
 <time>2010-04-30T09:52:43Z</time>
 </trkpt>
 <trkpt lat="47.590233" lon="13.498734">
 <ele>960.61</ele>
 <time>2010-04-30T09:52:50Z</time>
 </trkpt>
 <trkpt lat="47.590355" lon="13.499281">
 <ele>962.10</ele>
 <time>2010-04-30T09:53:01Z</time>
 </trkpt>
 <trkpt lat="47.590450" lon="13.499629">
 <ele>963.31</ele>
 <time>2010-04-30T09:53:10Z</time>
 </trkpt>
 <trkpt lat="47.590576" lon="13.499928">
 <ele>964.56</ele>
 <time>2010-04-30T09:53:18Z</time>
 </trkpt>
 <trkpt lat="47.590660" lon="13.500200">
 <ele>966.08</ele>
 <time>2010-04-30T09:53:27Z</time>
 </trkpt>
 <trkpt lat="47.590755" lon="13.500461">
 <ele>967.23</ele>
 <time>2010-04-30T09:53:36Z</time>
 </trkpt>
 <trkpt lat="47.590897" lon="13.500739">
 <ele>969.02</ele>
 <time>2010-04-30T09:53:46Z</time>
 </trkpt>
 <trkpt lat="47.590984" lon="13.500980">
 <ele>970.92</ele>
 <time>2010-04-30T09:53:55Z</time>
 </trkpt>
 <trkpt lat="47.591099" lon="13.501247">
 <ele>972.73</ele>
 <time>2010-04-30T09:54:05Z</time>
 </trkpt>
 <trkpt lat="47.591198" lon="13.501514">
 <ele>974.92</ele>
 <time>2010-04-30T09:54:15Z</time>
 </trkpt>
 <trkpt lat="47.591267" lon="13.501759">
 <ele>976.46</ele>
 <time>2010-04-30T09:54:24Z</time>
 </trkpt>
 <trkpt lat="47.591328" lon="13.501984">
 <ele>977.98</ele>
 <time>2010-04-30T09:54:32Z</time>
 </trkpt>
 <trkpt lat="47.591389" lon="13.502246">
 <ele>979.66</ele>
 <time>2010-04-30T09:54:41Z</time>
 </trkpt>
 <trkpt lat="47.591442" lon="13.502569">
 <ele>981.93</ele>
 <time>2010-04-30T09:54:52Z</time>
 </trkpt>
 <trkpt lat="47.591484" lon="13.502817">
 <ele>983.33</ele>
 <time>2010-04-30T09:55:00Z</time>
 </trkpt>
 <trkpt lat="47.591511" lon="13.503135">
 <ele>985.20</ele>
 <time>2010-04-30T09:55:10Z</time>
 </trkpt>
 <trkpt lat="47.591518" lon="13.503549">
 <ele>988.13</ele>
 <time>2010-04-30T09:55:23Z</time>
 </trkpt>
 <trkpt lat="47.591515" lon="13.503868">
 <ele>989.92</ele>
 <time>2010-04-30T09:55:33Z</time>
 </trkpt>
 <trkpt lat="47.591499" lon="13.504227">
 <ele>991.62</ele>
 <time>2010-04-30T09:55:44Z</time>
 </trkpt>
 <trkpt lat="47.591461" lon="13.504591">
 <ele>993.17</ele>
 <time>2010-04-30T09:55:55Z</time>
 </trkpt>
 <trkpt lat="47.591438" lon="13.504882">
 <ele>993.44</ele>
 <time>2010-04-30T09:56:03Z</time>
 </trkpt>
 <trkpt lat="47.591423" lon="13.505168">
 <ele>994.30</ele>
 <time>2010-04-30T09:56:10Z</time>
 </trkpt>
 <trkpt lat="47.591400" lon="13.505444">
 <ele>994.49</ele>
 <time>2010-04-30T09:56:18Z</time>
 </trkpt>
 <trkpt lat="47.591393" lon="13.505738">
 <ele>994.37</ele>
 <time>2010-04-30T09:56:27Z</time>
 </trkpt>
 <trkpt lat="47.591389" lon="13.505794">
 <ele>994.48</ele>
 <time>2010-04-30T09:56:31Z</time>
 </trkpt>
 <trkpt lat="47.591446" lon="13.505680">
 <ele>994.04</ele>
 <time>2010-04-30T09:56:37Z</time>
 </trkpt>
 <trkpt lat="47.591473" lon="13.505401">
 <ele>994.28</ele>
 <time>2010-04-30T09:56:44Z</time>
 </trkpt>
 <trkpt lat="47.591503" lon="13.505071">
 <ele>993.82</ele>
 <time>2010-04-30T09:56:52Z</time>
 </trkpt>
 <trkpt lat="47.591557" lon="13.504872">
 <ele>994.07</ele>
 <time>2010-04-30T09:56:58Z</time>
 </trkpt>
 <trkpt lat="47.591640" lon="13.504616">
 <ele>994.50</ele>
 <time>2010-04-30T09:57:06Z</time>
 </trkpt>
 <trkpt lat="47.591660" lon="13.504310">
 <ele>993.63</ele>
 <time>2010-04-30T09:57:14Z</time>
 </trkpt>
 <trkpt lat="47.591671" lon="13.504028">
 <ele>992.78</ele>
 <time>2010-04-30T09:57:20Z</time>
 </trkpt>
 <trkpt lat="47.591686" lon="13.503915">
 <ele>991.91</ele>
 <time>2010-04-30T09:57:24Z</time>
 </trkpt>
 <trkpt lat="47.591667" lon="13.503868">
 <ele>991.44</ele>
 <time>2010-04-30T09:57:28Z</time>
 </trkpt>
 <trkpt lat="47.591637" lon="13.503866">
 <ele>991.36</ele>
 <time>2010-04-30T09:57:35Z</time>
 </trkpt>
 <trkpt lat="47.591640" lon="13.503865">
 <ele>991.31</ele>
 <time>2010-04-30T09:57:36Z</time>
 </trkpt>
 <trkpt lat="47.591537" lon="13.503838">
 <ele>990.97</ele>
 <time>2010-04-30T10:07:09Z</time>
 </trkpt>
 <trkpt lat="47.591507" lon="13.503576">
 <ele>989.87</ele>
 <time>2010-04-30T10:07:17Z</time>
 </trkpt>
 <trkpt lat="47.591503" lon="13.503243">
 <ele>988.44</ele>
 <time>2010-04-30T10:07:21Z</time>
 </trkpt>
 <trkpt lat="47.591461" lon="13.502673">
 <ele>985.80</ele>
 <time>2010-04-30T10:07:26Z</time>
 </trkpt>
 <trkpt lat="47.591343" lon="13.502005">
 <ele>980.84</ele>
 <time>2010-04-30T10:07:31Z</time>
 </trkpt>
 <trkpt lat="47.591133" lon="13.501298">
 <ele>975.62</ele>
 <time>2010-04-30T10:07:36Z</time>
 </trkpt>
 <trkpt lat="47.590755" lon="13.500420">
 <ele>968.89</ele>
 <time>2010-04-30T10:07:42Z</time>
 </trkpt>
 <trkpt lat="47.590332" lon="13.499306">
 <ele>962.62</ele>
 <time>2010-04-30T10:07:49Z</time>
 </trkpt>
 <trkpt lat="47.590160" lon="13.498478">
 <ele>959.68</ele>
 <time>2010-04-30T10:07:54Z</time>
 </trkpt>
 <trkpt lat="47.590145" lon="13.498318">
 <ele>959.39</ele>
 <time>2010-04-30T10:07:55Z</time>
 </trkpt>
 <trkpt lat="47.590111" lon="13.497564">
 <ele>958.03</ele>
 <time>2010-04-30T10:08:00Z</time>
 </trkpt>
 <trkpt lat="47.590145" lon="13.496891">
 <ele>957.51</ele>
 <time>2010-04-30T10:08:05Z</time>
 </trkpt>
 <trkpt lat="47.590263" lon="13.496179">
 <ele>956.51</ele>
 <time>2010-04-30T10:08:11Z</time>
 </trkpt>
 <trkpt lat="47.590481" lon="13.495443">
 <ele>955.58</ele>
 <time>2010-04-30T10:08:18Z</time>
 </trkpt>
 <trkpt lat="47.590874" lon="13.494503">
 <ele>953.80</ele>
 <time>2010-04-30T10:08:28Z</time>
 </trkpt>
 <trkpt lat="47.591393" lon="13.493387">
 <ele>950.88</ele>
 <time>2010-04-30T10:08:40Z</time>
 </trkpt>
 <trkpt lat="47.591885" lon="13.492221">
 <ele>946.21</ele>
 <time>2010-04-30T10:08:52Z</time>
 </trkpt>
 <trkpt lat="47.592133" lon="13.491413">
 <ele>942.92</ele>
 <time>2010-04-30T10:08:59Z</time>
 </trkpt>
 <trkpt lat="47.592278" lon="13.490720">
 <ele>940.36</ele>
 <time>2010-04-30T10:09:04Z</time>
 </trkpt>
 <trkpt lat="47.592396" lon="13.489805">
 <ele>934.91</ele>
 <time>2010-04-30T10:09:10Z</time>
 </trkpt>
 <trkpt lat="47.592503" lon="13.488330">
 <ele>926.03</ele>
 <time>2010-04-30T10:09:19Z</time>
 </trkpt>
 <trkpt lat="47.592617" lon="13.487002">
 <ele>918.37</ele>
 <time>2010-04-30T10:09:27Z</time>
 </trkpt>
 <trkpt lat="47.592655" lon="13.486668">
 <ele>917.41</ele>
 <time>2010-04-30T10:09:29Z</time>
 </trkpt>
 <trkpt lat="47.592796" lon="13.485559">
 <ele>910.73</ele>
 <time>2010-04-30T10:09:36Z</time>
 </trkpt>
 <trkpt lat="47.592953" lon="13.484142">
 <ele>902.60</ele>
 <time>2010-04-30T10:09:45Z</time>
 </trkpt>
 <trkpt lat="47.593033" lon="13.482858">
 <ele>896.12</ele>
 <time>2010-04-30T10:09:53Z</time>
 </trkpt>
 <trkpt lat="47.593037" lon="13.482701">
 <ele>896.11</ele>
 <time>2010-04-30T10:09:54Z</time>
 </trkpt>
 <trkpt lat="47.593048" lon="13.481336">
 <ele>890.93</ele>
 <time>2010-04-30T10:10:03Z</time>
 </trkpt>
 <trkpt lat="47.593002" lon="13.480194">
 <ele>887.25</ele>
 <time>2010-04-30T10:10:11Z</time>
 </trkpt>
 <trkpt lat="47.592873" lon="13.478858">
 <ele>884.16</ele>
 <time>2010-04-30T10:10:21Z</time>
 </trkpt>
 <trkpt lat="47.592682" lon="13.477643">
 <ele>882.04</ele>
 <time>2010-04-30T10:10:31Z</time>
 </trkpt>
 <trkpt lat="47.592491" lon="13.476459">
 <ele>879.03</ele>
 <time>2010-04-30T10:10:41Z</time>
 </trkpt>
 <trkpt lat="47.592461" lon="13.475599">
 <ele>877.04</ele>
 <time>2010-04-30T10:10:48Z</time>
 </trkpt>
 <trkpt lat="47.592545" lon="13.474817">
 <ele>874.68</ele>
 <time>2010-04-30T10:10:54Z</time>
 </trkpt>
 <trkpt lat="47.592716" lon="13.473592">
 <ele>870.23</ele>
 <time>2010-04-30T10:11:03Z</time>
 </trkpt>
 <trkpt lat="47.592758" lon="13.472750">
 <ele>867.38</ele>
 <time>2010-04-30T10:11:09Z</time>
 </trkpt>
 <trkpt lat="47.592716" lon="13.472058">
 <ele>865.23</ele>
 <time>2010-04-30T10:11:14Z</time>
 </trkpt>
 <trkpt lat="47.592567" lon="13.471231">
 <ele>861.61</ele>
 <time>2010-04-30T10:11:20Z</time>
 </trkpt>
 <trkpt lat="47.592316" lon="13.470457">
 <ele>858.49</ele>
 <time>2010-04-30T10:11:26Z</time>
 </trkpt>
 <trkpt lat="47.591862" lon="13.469485">
 <ele>854.69</ele>
 <time>2010-04-30T10:11:34Z</time>
 </trkpt>
 <trkpt lat="47.591198" lon="13.468175">
 <ele>850.11</ele>
 <time>2010-04-30T10:11:45Z</time>
 </trkpt>
 <trkpt lat="47.590794" lon="13.467320">
 <ele>848.73</ele>
 <time>2010-04-30T10:11:53Z</time>
 </trkpt>
 <trkpt lat="47.590427" lon="13.466404">
 <ele>847.78</ele>
 <time>2010-04-30T10:12:02Z</time>
 </trkpt>
 <trkpt lat="47.590118" lon="13.465419">
 <ele>845.31</ele>
 <time>2010-04-30T10:12:11Z</time>
 </trkpt>
 <trkpt lat="47.589886" lon="13.464311">
 <ele>842.01</ele>
 <time>2010-04-30T10:12:20Z</time>
 </trkpt>
 <trkpt lat="47.589710" lon="13.463103">
 <ele>838.38</ele>
 <time>2010-04-30T10:12:29Z</time>
 </trkpt>
 <trkpt lat="47.589516" lon="13.461896">
 <ele>834.67</ele>
 <time>2010-04-30T10:12:38Z</time>
 </trkpt>
 <trkpt lat="47.589317" lon="13.461030">
 <ele>833.34</ele>
 <time>2010-04-30T10:12:45Z</time>
 </trkpt>
 <trkpt lat="47.589088" lon="13.460371">
 <ele>832.80</ele>
 <time>2010-04-30T10:12:51Z</time>
 </trkpt>
 <trkpt lat="47.588764" lon="13.459711">
 <ele>831.73</ele>
 <time>2010-04-30T10:12:58Z</time>
 </trkpt>
 <trkpt lat="47.588375" lon="13.459054">
 <ele>830.81</ele>
 <time>2010-04-30T10:13:06Z</time>
 </trkpt>
 <trkpt lat="47.587929" lon="13.458444">
 <ele>829.70</ele>
 <time>2010-04-30T10:13:15Z</time>
 </trkpt>
 <trkpt lat="47.587357" lon="13.457764">
 <ele>828.76</ele>
 <time>2010-04-30T10:13:26Z</time>
 </trkpt>
 <trkpt lat="47.586769" lon="13.456992">
 <ele>826.83</ele>
 <time>2010-04-30T10:13:38Z</time>
 </trkpt>
 <trkpt lat="47.586266" lon="13.456253">
 <ele>826.59</ele>
 <time>2010-04-30T10:13:50Z</time>
 </trkpt>
 <trkpt lat="47.585930" lon="13.455728">
 <ele>826.48</ele>
 <time>2010-04-30T10:13:59Z</time>
 </trkpt>
 <trkpt lat="47.585594" lon="13.455169">
 <ele>826.31</ele>
 <time>2010-04-30T10:14:09Z</time>
 </trkpt>
 <trkpt lat="47.585236" lon="13.454598">
 <ele>827.05</ele>
 <time>2010-04-30T10:14:20Z</time>
 </trkpt>
 <trkpt lat="47.584930" lon="13.454148">
 <ele>826.58</ele>
 <time>2010-04-30T10:14:30Z</time>
 </trkpt>
 <trkpt lat="47.584591" lon="13.453671">
 <ele>827.75</ele>
 <time>2010-04-30T10:14:42Z</time>
 </trkpt>
 <trkpt lat="47.584286" lon="13.453274">
 <ele>828.37</ele>
 <time>2010-04-30T10:14:53Z</time>
 </trkpt>
 <trkpt lat="47.583958" lon="13.452875">
 <ele>829.11</ele>
 <time>2010-04-30T10:15:05Z</time>
 </trkpt>
 <trkpt lat="47.583649" lon="13.452505">
 <ele>830.55</ele>
 <time>2010-04-30T10:15:16Z</time>
 </trkpt>
 <trkpt lat="47.583313" lon="13.452124">
 <ele>831.36</ele>
 <time>2010-04-30T10:15:27Z</time>
 </trkpt>
 <trkpt lat="47.582912" lon="13.451665">
 <ele>831.46</ele>
 <time>2010-04-30T10:15:40Z</time>
 </trkpt>
 <trkpt lat="47.582504" lon="13.451204">
 <ele>831.65</ele>
 <time>2010-04-30T10:15:53Z</time>
 </trkpt>
 <trkpt lat="47.582165" lon="13.450814">
 <ele>831.36</ele>
 <time>2010-04-30T10:16:04Z</time>
 </trkpt>
 <trkpt lat="47.581818" lon="13.450425">
 <ele>831.92</ele>
 <time>2010-04-30T10:16:15Z</time>
 </trkpt>
 <trkpt lat="47.581432" lon="13.449992">
 <ele>831.40</ele>
 <time>2010-04-30T10:16:26Z</time>
 </trkpt>
 <trkpt lat="47.581059" lon="13.449550">
 <ele>830.57</ele>
 <time>2010-04-30T10:16:36Z</time>
 </trkpt>
 <trkpt lat="47.580723" lon="13.449100">
 <ele>829.19</ele>
 <time>2010-04-30T10:16:45Z</time>
 </trkpt>
 <trkpt lat="47.580399" lon="13.448529">
 <ele>827.67</ele>
 <time>2010-04-30T10:16:54Z</time>
 </trkpt>
 <trkpt lat="47.580151" lon="13.447959">
 <ele>825.69</ele>
 <time>2010-04-30T10:17:01Z</time>
 </trkpt>
 <trkpt lat="47.579929" lon="13.447249">
 <ele>822.73</ele>
 <time>2010-04-30T10:17:08Z</time>
 </trkpt>
 <trkpt lat="47.579765" lon="13.446394">
 <ele>818.90</ele>
 <time>2010-04-30T10:17:15Z</time>
 </trkpt>
 <trkpt lat="47.579697" lon="13.445535">
 <ele>813.81</ele>
 <time>2010-04-30T10:17:21Z</time>
 </trkpt>
 <trkpt lat="47.579689" lon="13.444921">
 <ele>810.99</ele>
 <time>2010-04-30T10:17:25Z</time>
 </trkpt>
 <trkpt lat="47.579727" lon="13.443936">
 <ele>805.07</ele>
 <time>2010-04-30T10:17:31Z</time>
 </trkpt>
 <trkpt lat="47.579861" lon="13.442788">
 <ele>797.86</ele>
 <time>2010-04-30T10:17:38Z</time>
 </trkpt>
 <trkpt lat="47.580086" lon="13.441655">
 <ele>792.05</ele>
 <time>2010-04-30T10:17:45Z</time>
 </trkpt>
 <trkpt lat="47.580353" lon="13.440711">
 <ele>787.70</ele>
 <time>2010-04-30T10:17:51Z</time>
 </trkpt>
 <trkpt lat="47.580666" lon="13.439871">
 <ele>784.78</ele>
 <time>2010-04-30T10:17:57Z</time>
 </trkpt>
 <trkpt lat="47.580914" lon="13.439123">
 <ele>784.09</ele>
 <time>2010-04-30T10:18:03Z</time>
 </trkpt>
 <trkpt lat="47.581005" lon="13.438510">
 <ele>782.92</ele>
 <time>2010-04-30T10:18:08Z</time>
 </trkpt>
 <trkpt lat="47.580990" lon="13.437930">
 <ele>782.40</ele>
 <time>2010-04-30T10:18:13Z</time>
 </trkpt>
 <trkpt lat="47.580845" lon="13.437278">
 <ele>781.14</ele>
 <time>2010-04-30T10:18:19Z</time>
 </trkpt>
 <trkpt lat="47.580463" lon="13.436148">
 <ele>776.93</ele>
 <time>2010-04-30T10:18:30Z</time>
 </trkpt>
 <trkpt lat="47.580166" lon="13.435117">
 <ele>774.80</ele>
 <time>2010-04-30T10:18:40Z</time>
 </trkpt>
 <trkpt lat="47.580086" lon="13.434481">
 <ele>773.06</ele>
 <time>2010-04-30T10:18:46Z</time>
 </trkpt>
 <trkpt lat="47.580093" lon="13.433867">
 <ele>771.80</ele>
 <time>2010-04-30T10:18:52Z</time>
 </trkpt>
 <trkpt lat="47.580189" lon="13.433201">
 <ele>770.93</ele>
 <time>2010-04-30T10:18:59Z</time>
 </trkpt>
 <trkpt lat="47.580406" lon="13.432314">
 <ele>769.09</ele>
 <time>2010-04-30T10:19:09Z</time>
 </trkpt>
 <trkpt lat="47.580605" lon="13.431367">
 <ele>767.72</ele>
 <time>2010-04-30T10:19:20Z</time>
 </trkpt>
 <trkpt lat="47.580631" lon="13.430741">
 <ele>766.41</ele>
 <time>2010-04-30T10:19:27Z</time>
 </trkpt>
 <trkpt lat="47.580612" lon="13.430073">
 <ele>766.21</ele>
 <time>2010-04-30T10:19:34Z</time>
 </trkpt>
 <trkpt lat="47.580597" lon="13.429410">
 <ele>764.96</ele>
 <time>2010-04-30T10:19:40Z</time>
 </trkpt>
 <trkpt lat="47.580692" lon="13.428708">
 <ele>761.96</ele>
 <time>2010-04-30T10:19:46Z</time>
 </trkpt>
 <trkpt lat="47.580811" lon="13.427922">
 <ele>759.22</ele>
 <time>2010-04-30T10:19:53Z</time>
 </trkpt>
 <trkpt lat="47.580757" lon="13.427287">
 <ele>758.61</ele>
 <time>2010-04-30T10:19:59Z</time>
 </trkpt>
 <trkpt lat="47.580688" lon="13.426518">
 <ele>757.76</ele>
 <time>2010-04-30T10:20:06Z</time>
 </trkpt>
 <trkpt lat="47.580654" lon="13.425822">
 <ele>755.61</ele>
 <time>2010-04-30T10:20:12Z</time>
 </trkpt>
 <trkpt lat="47.580723" lon="13.425097">
 <ele>753.24</ele>
 <time>2010-04-30T10:20:18Z</time>
 </trkpt>
 <trkpt lat="47.580887" lon="13.424482">
 <ele>753.04</ele>
 <time>2010-04-30T10:20:24Z</time>
 </trkpt>
 <trkpt lat="47.580956" lon="13.424033">
 <ele>754.21</ele>
 <time>2010-04-30T10:20:29Z</time>
 </trkpt>
 <trkpt lat="47.580975" lon="13.423541">
 <ele>755.80</ele>
 <time>2010-04-30T10:20:35Z</time>
 </trkpt>
 <trkpt lat="47.580917" lon="13.422872">
 <ele>756.48</ele>
 <time>2010-04-30T10:20:44Z</time>
 </trkpt>
 <trkpt lat="47.580738" lon="13.422221">
 <ele>756.54</ele>
 <time>2010-04-30T10:20:53Z</time>
 </trkpt>
 <trkpt lat="47.580540" lon="13.421740">
 <ele>755.64</ele>
 <time>2010-04-30T10:21:00Z</time>
 </trkpt>
 <trkpt lat="47.580517" lon="13.421667">
 <ele>755.54</ele>
 <time>2010-04-30T10:21:01Z</time>
 </trkpt>
 <trkpt lat="47.580376" lon="13.420999">
 <ele>755.50</ele>
 <time>2010-04-30T10:21:10Z</time>
 </trkpt>
 <trkpt lat="47.580360" lon="13.420448">
 <ele>754.78</ele>
 <time>2010-04-30T10:21:17Z</time>
 </trkpt>
 <trkpt lat="47.580433" lon="13.419756">
 <ele>754.00</ele>
 <time>2010-04-30T10:21:25Z</time>
 </trkpt>
 <trkpt lat="47.580406" lon="13.419059">
 <ele>752.38</ele>
 <time>2010-04-30T10:21:32Z</time>
 </trkpt>
 <trkpt lat="47.580273" lon="13.418452">
 <ele>750.94</ele>
 <time>2010-04-30T10:21:38Z</time>
 </trkpt>
 <trkpt lat="47.580032" lon="13.417516">
 <ele>748.19</ele>
 <time>2010-04-30T10:21:47Z</time>
 </trkpt>
 <trkpt lat="47.579861" lon="13.416799">
 <ele>746.36</ele>
 <time>2010-04-30T10:21:54Z</time>
 </trkpt>
 <trkpt lat="47.579582" lon="13.415779">
 <ele>743.41</ele>
 <time>2010-04-30T10:22:04Z</time>
 </trkpt>
 <trkpt lat="47.579376" lon="13.414855">
 <ele>739.08</ele>
 <time>2010-04-30T10:22:12Z</time>
 </trkpt>
 <trkpt lat="47.579308" lon="13.414100">
 <ele>736.55</ele>
 <time>2010-04-30T10:22:18Z</time>
 </trkpt>
 <trkpt lat="47.579315" lon="13.413097">
 <ele>734.07</ele>
 <time>2010-04-30T10:22:26Z</time>
 </trkpt>
 <trkpt lat="47.579231" lon="13.412505">
 <ele>732.57</ele>
 <time>2010-04-30T10:22:31Z</time>
 </trkpt>
 <trkpt lat="47.579006" lon="13.411765">
 <ele>730.74</ele>
 <time>2010-04-30T10:22:38Z</time>
 </trkpt>
 <trkpt lat="47.578865" lon="13.411111">
 <ele>729.38</ele>
 <time>2010-04-30T10:22:44Z</time>
 </trkpt>
 <trkpt lat="47.578835" lon="13.410418">
 <ele>727.84</ele>
 <time>2010-04-30T10:22:50Z</time>
 </trkpt>
 <trkpt lat="47.578903" lon="13.409729">
 <ele>727.05</ele>
 <time>2010-04-30T10:22:56Z</time>
 </trkpt>
 <trkpt lat="47.579098" lon="13.409083">
 <ele>725.03</ele>
 <time>2010-04-30T10:23:02Z</time>
 </trkpt>
 <trkpt lat="47.579491" lon="13.408013">
 <ele>723.18</ele>
 <time>2010-04-30T10:23:13Z</time>
 </trkpt>
 <trkpt lat="47.579651" lon="13.407384">
 <ele>722.67</ele>
 <time>2010-04-30T10:23:19Z</time>
 </trkpt>
 <trkpt lat="47.579678" lon="13.406862">
 <ele>721.19</ele>
 <time>2010-04-30T10:23:24Z</time>
 </trkpt>
 <trkpt lat="47.579605" lon="13.406233">
 <ele>720.03</ele>
 <time>2010-04-30T10:23:30Z</time>
 </trkpt>
 <trkpt lat="47.579418" lon="13.405668">
 <ele>719.09</ele>
 <time>2010-04-30T10:23:36Z</time>
 </trkpt>
 <trkpt lat="47.579105" lon="13.404914">
 <ele>717.40</ele>
 <time>2010-04-30T10:23:44Z</time>
 </trkpt>
 <trkpt lat="47.578987" lon="13.404277">
 <ele>715.98</ele>
 <time>2010-04-30T10:23:50Z</time>
 </trkpt>
 <trkpt lat="47.578922" lon="13.403409">
 <ele>714.05</ele>
 <time>2010-04-30T10:23:58Z</time>
 </trkpt>
 <trkpt lat="47.578827" lon="13.402795">
 <ele>713.61</ele>
 <time>2010-04-30T10:24:04Z</time>
 </trkpt>
 <trkpt lat="47.578655" lon="13.402238">
 <ele>712.08</ele>
 <time>2010-04-30T10:24:10Z</time>
 </trkpt>
 <trkpt lat="47.578346" lon="13.401677">
 <ele>711.13</ele>
 <time>2010-04-30T10:24:17Z</time>
 </trkpt>
 <trkpt lat="47.577942" lon="13.401021">
 <ele>708.96</ele>
 <time>2010-04-30T10:24:25Z</time>
 </trkpt>
 <trkpt lat="47.577415" lon="13.400116">
 <ele>705.42</ele>
 <time>2010-04-30T10:24:35Z</time>
 </trkpt>
 <trkpt lat="47.577080" lon="13.399349">
 <ele>704.13</ele>
 <time>2010-04-30T10:24:43Z</time>
 </trkpt>
 <trkpt lat="47.576824" lon="13.398614">
 <ele>702.90</ele>
 <time>2010-04-30T10:24:51Z</time>
 </trkpt>
 <trkpt lat="47.576469" lon="13.397539">
 <ele>703.15</ele>
 <time>2010-04-30T10:25:03Z</time>
 </trkpt>
 <trkpt lat="47.575985" lon="13.396220">
 <ele>700.81</ele>
 <time>2010-04-30T10:25:18Z</time>
 </trkpt>
 <trkpt lat="47.575554" lon="13.395117">
 <ele>699.09</ele>
 <time>2010-04-30T10:25:31Z</time>
 </trkpt>
 <trkpt lat="47.575314" lon="13.394313">
 <ele>696.97</ele>
 <time>2010-04-30T10:25:40Z</time>
 </trkpt>
 <trkpt lat="47.575085" lon="13.393355">
 <ele>695.21</ele>
 <time>2010-04-30T10:25:50Z</time>
 </trkpt>
 <trkpt lat="47.574879" lon="13.392459">
 <ele>692.66</ele>
 <time>2010-04-30T10:25:59Z</time>
 </trkpt>
 <trkpt lat="47.574608" lon="13.391537">
 <ele>690.70</ele>
 <time>2010-04-30T10:26:09Z</time>
 </trkpt>
 <trkpt lat="47.574345" lon="13.390728">
 <ele>690.68</ele>
 <time>2010-04-30T10:26:19Z</time>
 </trkpt>
 <trkpt lat="47.574097" lon="13.389974">
 <ele>690.87</ele>
 <time>2010-04-30T10:26:29Z</time>
 </trkpt>
 <trkpt lat="47.573917" lon="13.389370">
 <ele>689.45</ele>
 <time>2010-04-30T10:26:37Z</time>
 </trkpt>
 <trkpt lat="47.573746" lon="13.388629">
 <ele>688.85</ele>
 <time>2010-04-30T10:26:47Z</time>
 </trkpt>
 <trkpt lat="47.573605" lon="13.387779">
 <ele>686.97</ele>
 <time>2010-04-30T10:26:58Z</time>
 </trkpt>
 <trkpt lat="47.573547" lon="13.386961">
 <ele>685.94</ele>
 <time>2010-04-30T10:27:08Z</time>
 </trkpt>
 <trkpt lat="47.573574" lon="13.386362">
 <ele>684.34</ele>
 <time>2010-04-30T10:27:15Z</time>
 </trkpt>
 <trkpt lat="47.573601" lon="13.386190">
 <ele>683.87</ele>
 <time>2010-04-30T10:27:17Z</time>
 </trkpt>
 <trkpt lat="47.573734" lon="13.385992">
 <ele>682.58</ele>
 <time>2010-04-30T10:27:21Z</time>
 </trkpt>
 <trkpt lat="47.573879" lon="13.385840">
 <ele>682.07</ele>
 <time>2010-04-30T10:27:25Z</time>
 </trkpt>
 <trkpt lat="47.573933" lon="13.385702">
 <ele>681.82</ele>
 <time>2010-04-30T10:27:27Z</time>
 </trkpt>
 <trkpt lat="47.574097" lon="13.385220">
 <ele>679.86</ele>
 <time>2010-04-30T10:27:33Z</time>
 </trkpt>
 <trkpt lat="47.574455" lon="13.384697">
 <ele>677.91</ele>
 <time>2010-04-30T10:27:41Z</time>
 </trkpt>
 <trkpt lat="47.574715" lon="13.384168">
 <ele>676.68</ele>
 <time>2010-04-30T10:27:48Z</time>
 </trkpt>
 <trkpt lat="47.574936" lon="13.383601">
 <ele>675.32</ele>
 <time>2010-04-30T10:27:55Z</time>
 </trkpt>
 <trkpt lat="47.575024" lon="13.383142">
 <ele>674.75</ele>
 <time>2010-04-30T10:28:00Z</time>
 </trkpt>
 <trkpt lat="47.575005" lon="13.382713">
 <ele>674.87</ele>
 <time>2010-04-30T10:28:05Z</time>
 </trkpt>
 <trkpt lat="47.575020" lon="13.382159">
 <ele>674.95</ele>
 <time>2010-04-30T10:28:12Z</time>
 </trkpt>
 <trkpt lat="47.575035" lon="13.381498">
 <ele>674.01</ele>
 <time>2010-04-30T10:28:20Z</time>
 </trkpt>
 <trkpt lat="47.574974" lon="13.380860">
 <ele>672.23</ele>
 <time>2010-04-30T10:28:27Z</time>
 </trkpt>
 <trkpt lat="47.574852" lon="13.380236">
 <ele>671.86</ele>
 <time>2010-04-30T10:28:35Z</time>
 </trkpt>
 <trkpt lat="47.574654" lon="13.379725">
 <ele>672.52</ele>
 <time>2010-04-30T10:28:43Z</time>
 </trkpt>
 <trkpt lat="47.574364" lon="13.379126">
 <ele>672.53</ele>
 <time>2010-04-30T10:28:53Z</time>
 </trkpt>
 <trkpt lat="47.574261" lon="13.378911">
 <ele>672.80</ele>
 <time>2010-04-30T10:28:57Z</time>
 </trkpt>
 <trkpt lat="47.574219" lon="13.378608">
 <ele>672.81</ele>
 <time>2010-04-30T10:29:02Z</time>
 </trkpt>
 <trkpt lat="47.574226" lon="13.378541">
 <ele>672.80</ele>
 <time>2010-04-30T10:29:03Z</time>
 </trkpt>
 <trkpt lat="47.574368" lon="13.378091">
 <ele>672.55</ele>
 <time>2010-04-30T10:29:10Z</time>
 </trkpt>
 <trkpt lat="47.574604" lon="13.377587">
 <ele>671.01</ele>
 <time>2010-04-30T10:29:18Z</time>
 </trkpt>
 <trkpt lat="47.574730" lon="13.377101">
 <ele>670.30</ele>
 <time>2010-04-30T10:29:25Z</time>
 </trkpt>
 <trkpt lat="47.574844" lon="13.376415">
 <ele>670.00</ele>
 <time>2010-04-30T10:29:34Z</time>
 </trkpt>
 <trkpt lat="47.574951" lon="13.375751">
 <ele>670.52</ele>
 <time>2010-04-30T10:29:43Z</time>
 </trkpt>
 <trkpt lat="47.575115" lon="13.375451">
 <ele>670.82</ele>
 <time>2010-04-30T10:29:48Z</time>
 </trkpt>
 <trkpt lat="47.575161" lon="13.375409">
 <ele>670.79</ele>
 <time>2010-04-30T10:29:49Z</time>
 </trkpt>
 <trkpt lat="47.575340" lon="13.375245">
 <ele>670.93</ele>
 <time>2010-04-30T10:29:53Z</time>
 </trkpt>
 <trkpt lat="47.575508" lon="13.374951">
 <ele>670.93</ele>
 <time>2010-04-30T10:29:58Z</time>
 </trkpt>
 <trkpt lat="47.575642" lon="13.374441">
 <ele>671.07</ele>
 <time>2010-04-30T10:30:05Z</time>
 </trkpt>
 <trkpt lat="47.575771" lon="13.373780">
 <ele>670.54</ele>
 <time>2010-04-30T10:30:14Z</time>
 </trkpt>
 <trkpt lat="47.575794" lon="13.373711">
 <ele>670.51</ele>
 <time>2010-04-30T10:30:15Z</time>
 </trkpt>
 <trkpt lat="47.576031" lon="13.373317">
 <ele>670.61</ele>
 <time>2010-04-30T10:30:22Z</time>
 </trkpt>
 <trkpt lat="47.576138" lon="13.373159">
 <ele>670.60</ele>
 <time>2010-04-30T10:30:25Z</time>
 </trkpt>
 <trkpt lat="47.576351" lon="13.372999">
 <ele>670.62</ele>
 <time>2010-04-30T10:30:30Z</time>
 </trkpt>
 <trkpt lat="47.576504" lon="13.372990">
 <ele>670.66</ele>
 <time>2010-04-30T10:30:33Z</time>
 </trkpt>
 <trkpt lat="47.576775" lon="13.372973">
 <ele>671.27</ele>
 <time>2010-04-30T10:30:38Z</time>
 </trkpt>
 <trkpt lat="47.577099" lon="13.372751">
 <ele>670.43</ele>
 <time>2010-04-30T10:30:44Z</time>
 </trkpt>
 <trkpt lat="47.577274" lon="13.372441">
 <ele>669.09</ele>
 <time>2010-04-30T10:30:48Z</time>
 </trkpt>
 <trkpt lat="47.577309" lon="13.372347">
 <ele>669.08</ele>
 <time>2010-04-30T10:30:49Z</time>
 </trkpt>
 <trkpt lat="47.577442" lon="13.371926">
 <ele>667.21</ele>
 <time>2010-04-30T10:30:53Z</time>
 </trkpt>
 <trkpt lat="47.577496" lon="13.371343">
 <ele>665.63</ele>
 <time>2010-04-30T10:30:58Z</time>
 </trkpt>
 <trkpt lat="47.577511" lon="13.371115">
 <ele>665.34</ele>
 <time>2010-04-30T10:31:00Z</time>
 </trkpt>
 <trkpt lat="47.577614" lon="13.370510">
 <ele>664.66</ele>
 <time>2010-04-30T10:31:06Z</time>
 </trkpt>
 <trkpt lat="47.577621" lon="13.370312">
 <ele>664.58</ele>
 <time>2010-04-30T10:31:08Z</time>
 </trkpt>
 <trkpt lat="47.577717" lon="13.369886">
 <ele>664.28</ele>
 <time>2010-04-30T10:31:13Z</time>
 </trkpt>
 <trkpt lat="47.577805" lon="13.369769">
 <ele>664.25</ele>
 <time>2010-04-30T10:31:15Z</time>
 </trkpt>
 <trkpt lat="47.578033" lon="13.369505">
 <ele>664.04</ele>
 <time>2010-04-30T10:31:20Z</time>
 </trkpt>
 <trkpt lat="47.578182" lon="13.369402">
 <ele>663.67</ele>
 <time>2010-04-30T10:31:23Z</time>
 </trkpt>
 <trkpt lat="47.578449" lon="13.369367">
 <ele>662.47</ele>
 <time>2010-04-30T10:31:28Z</time>
 </trkpt>
 <trkpt lat="47.578625" lon="13.369282">
 <ele>662.09</ele>
 <time>2010-04-30T10:31:31Z</time>
 </trkpt>
 <trkpt lat="47.579060" lon="13.368871">
 <ele>661.28</ele>
 <time>2010-04-30T10:31:39Z</time>
 </trkpt>
 <trkpt lat="47.579216" lon="13.368570">
 <ele>660.78</ele>
 <time>2010-04-30T10:31:43Z</time>
 </trkpt>
 <trkpt lat="47.579227" lon="13.368190">
 <ele>659.51</ele>
 <time>2010-04-30T10:31:47Z</time>
 </trkpt>
 <trkpt lat="47.579166" lon="13.367280">
 <ele>658.21</ele>
 <time>2010-04-30T10:31:57Z</time>
 </trkpt>
 <trkpt lat="47.579266" lon="13.366893">
 <ele>658.17</ele>
 <time>2010-04-30T10:32:02Z</time>
 </trkpt>
 <trkpt lat="47.579357" lon="13.366797">
 <ele>658.43</ele>
 <time>2010-04-30T10:32:04Z</time>
 </trkpt>
 <trkpt lat="47.579636" lon="13.366621">
 <ele>659.78</ele>
 <time>2010-04-30T10:32:11Z</time>
 </trkpt>
 <trkpt lat="47.579765" lon="13.366411">
 <ele>659.37</ele>
 <time>2010-04-30T10:32:15Z</time>
 </trkpt>
 <trkpt lat="47.579815" lon="13.366185">
 <ele>658.47</ele>
 <time>2010-04-30T10:32:18Z</time>
 </trkpt>
 <trkpt lat="47.579857" lon="13.365770">
 <ele>657.27</ele>
 <time>2010-04-30T10:32:23Z</time>
 </trkpt>
 <trkpt lat="47.579899" lon="13.365628">
 <ele>657.36</ele>
 <time>2010-04-30T10:32:25Z</time>
 </trkpt>
 <trkpt lat="47.580097" lon="13.365253">
 <ele>657.42</ele>
 <time>2010-04-30T10:32:31Z</time>
 </trkpt>
 <trkpt lat="47.580418" lon="13.364919">
 <ele>656.20</ele>
 <time>2010-04-30T10:32:38Z</time>
 </trkpt>
 <trkpt lat="47.580727" lon="13.364705">
 <ele>655.79</ele>
 <time>2010-04-30T10:32:44Z</time>
 </trkpt>
 <trkpt lat="47.580925" lon="13.364589">
 <ele>654.94</ele>
 <time>2010-04-30T10:32:48Z</time>
 </trkpt>
 <trkpt lat="47.581306" lon="13.364210">
 <ele>656.11</ele>
 <time>2010-04-30T10:32:56Z</time>
 </trkpt>
 <trkpt lat="47.581345" lon="13.364149">
 <ele>656.20</ele>
 <time>2010-04-30T10:32:57Z</time>
 </trkpt>
 <trkpt lat="47.581470" lon="13.363887">
 <ele>656.05</ele>
 <time>2010-04-30T10:33:01Z</time>
 </trkpt>
 <trkpt lat="47.581581" lon="13.363342">
 <ele>654.32</ele>
 <time>2010-04-30T10:33:08Z</time>
 </trkpt>
 <trkpt lat="47.581596" lon="13.363260">
 <ele>654.10</ele>
 <time>2010-04-30T10:33:09Z</time>
 </trkpt>
 <trkpt lat="47.581806" lon="13.362814">
 <ele>652.55</ele>
 <time>2010-04-30T10:33:15Z</time>
 </trkpt>
 <trkpt lat="47.582237" lon="13.362014">
 <ele>651.02</ele>
 <time>2010-04-30T10:33:26Z</time>
 </trkpt>
 <trkpt lat="47.582375" lon="13.361720">
 <ele>650.76</ele>
 <time>2010-04-30T10:33:30Z</time>
 </trkpt>
 <trkpt lat="47.582439" lon="13.361309">
 <ele>649.47</ele>
 <time>2010-04-30T10:33:35Z</time>
 </trkpt>
 <trkpt lat="47.582561" lon="13.360513">
 <ele>650.28</ele>
 <time>2010-04-30T10:33:45Z</time>
 </trkpt>
 <trkpt lat="47.582600" lon="13.359952">
 <ele>650.15</ele>
 <time>2010-04-30T10:33:52Z</time>
 </trkpt>
 <trkpt lat="47.582607" lon="13.359639">
 <ele>648.95</ele>
 <time>2010-04-30T10:33:56Z</time>
 </trkpt>
 <trkpt lat="47.582520" lon="13.358995">
 <ele>649.38</ele>
 <time>2010-04-30T10:34:05Z</time>
 </trkpt>
 <trkpt lat="47.582493" lon="13.358778">
 <ele>649.59</ele>
 <time>2010-04-30T10:34:08Z</time>
 </trkpt>
 <trkpt lat="47.582573" lon="13.358311">
 <ele>648.24</ele>
 <time>2010-04-30T10:34:14Z</time>
 </trkpt>
 <trkpt lat="47.582836" lon="13.357761">
 <ele>647.11</ele>
 <time>2010-04-30T10:34:22Z</time>
 </trkpt>
 <trkpt lat="47.583157" lon="13.357175">
 <ele>647.32</ele>
 <time>2010-04-30T10:34:31Z</time>
 </trkpt>
 <trkpt lat="47.583420" lon="13.356562">
 <ele>647.40</ele>
 <time>2010-04-30T10:34:40Z</time>
 </trkpt>
 <trkpt lat="47.583450" lon="13.356217">
 <ele>647.01</ele>
 <time>2010-04-30T10:34:44Z</time>
 </trkpt>
 <trkpt lat="47.583363" lon="13.355636">
 <ele>646.16</ele>
 <time>2010-04-30T10:34:51Z</time>
 </trkpt>
 <trkpt lat="47.583221" lon="13.354874">
 <ele>645.16</ele>
 <time>2010-04-30T10:35:00Z</time>
 </trkpt>
 <trkpt lat="47.583195" lon="13.354695">
 <ele>644.96</ele>
 <time>2010-04-30T10:35:02Z</time>
 </trkpt>
 <trkpt lat="47.583229" lon="13.354156">
 <ele>644.22</ele>
 <time>2010-04-30T10:35:08Z</time>
 </trkpt>
 <trkpt lat="47.583374" lon="13.353680">
 <ele>643.80</ele>
 <time>2010-04-30T10:35:14Z</time>
 </trkpt>
 <trkpt lat="47.583599" lon="13.353201">
 <ele>642.88</ele>
 <time>2010-04-30T10:35:21Z</time>
 </trkpt>
 <trkpt lat="47.583828" lon="13.352760">
 <ele>643.29</ele>
 <time>2010-04-30T10:35:28Z</time>
 </trkpt>
 <trkpt lat="47.584080" lon="13.352432">
 <ele>642.86</ele>
 <time>2010-04-30T10:35:34Z</time>
 </trkpt>
 <trkpt lat="47.584328" lon="13.352081">
 <ele>642.13</ele>
 <time>2010-04-30T10:35:40Z</time>
 </trkpt>
 <trkpt lat="47.584370" lon="13.352019">
 <ele>641.96</ele>
 <time>2010-04-30T10:35:41Z</time>
 </trkpt>
 <trkpt lat="47.584633" lon="13.351540">
 <ele>641.61</ele>
 <time>2010-04-30T10:35:48Z</time>
 </trkpt>
 <trkpt lat="47.584843" lon="13.351276">
 <ele>641.31</ele>
 <time>2010-04-30T10:35:53Z</time>
 </trkpt>
 <trkpt lat="47.584949" lon="13.351208">
 <ele>641.05</ele>
 <time>2010-04-30T10:35:55Z</time>
 </trkpt>
 <trkpt lat="47.585281" lon="13.351158">
 <ele>641.34</ele>
 <time>2010-04-30T10:36:02Z</time>
 </trkpt>
 <trkpt lat="47.585545" lon="13.351123">
 <ele>642.46</ele>
 <time>2010-04-30T10:36:09Z</time>
 </trkpt>
 <trkpt lat="47.585751" lon="13.350919">
 <ele>643.19</ele>
 <time>2010-04-30T10:36:16Z</time>
 </trkpt>
 <trkpt lat="47.585918" lon="13.350563">
 <ele>643.98</ele>
 <time>2010-04-30T10:36:24Z</time>
 </trkpt>
 <trkpt lat="47.586040" lon="13.350250">
 <ele>644.05</ele>
 <time>2010-04-30T10:36:31Z</time>
 </trkpt>
 <trkpt lat="47.586227" lon="13.349840">
 <ele>643.01</ele>
 <time>2010-04-30T10:36:39Z</time>
 </trkpt>
 <trkpt lat="47.586361" lon="13.349535">
 <ele>643.00</ele>
 <time>2010-04-30T10:36:44Z</time>
 </trkpt>
 <trkpt lat="47.586617" lon="13.348908">
 <ele>641.49</ele>
 <time>2010-04-30T10:36:54Z</time>
 </trkpt>
 <trkpt lat="47.586666" lon="13.348784">
 <ele>641.53</ele>
 <time>2010-04-30T10:36:56Z</time>
 </trkpt>
 <trkpt lat="47.586720" lon="13.348517">
 <ele>641.56</ele>
 <time>2010-04-30T10:37:00Z</time>
 </trkpt>
 <trkpt lat="47.586746" lon="13.348164">
 <ele>640.97</ele>
 <time>2010-04-30T10:37:05Z</time>
 </trkpt>
 <trkpt lat="47.586742" lon="13.347767">
 <ele>640.73</ele>
 <time>2010-04-30T10:37:10Z</time>
 </trkpt>
 <trkpt lat="47.586670" lon="13.347485">
 <ele>640.56</ele>
 <time>2010-04-30T10:37:14Z</time>
 </trkpt>
 <trkpt lat="47.586613" lon="13.347358">
 <ele>640.61</ele>
 <time>2010-04-30T10:37:16Z</time>
 </trkpt>
 <trkpt lat="47.586529" lon="13.346982">
 <ele>640.08</ele>
 <time>2010-04-30T10:37:21Z</time>
 </trkpt>
 <trkpt lat="47.586575" lon="13.346611">
 <ele>639.63</ele>
 <time>2010-04-30T10:37:26Z</time>
 </trkpt>
 <trkpt lat="47.586662" lon="13.346433">
 <ele>639.48</ele>
 <time>2010-04-30T10:37:29Z</time>
 </trkpt>
 <trkpt lat="47.587090" lon="13.345759">
 <ele>639.41</ele>
 <time>2010-04-30T10:37:42Z</time>
 </trkpt>
 <trkpt lat="47.587357" lon="13.345350">
 <ele>639.13</ele>
 <time>2010-04-30T10:37:50Z</time>
 </trkpt>
 <trkpt lat="47.587639" lon="13.344991">
 <ele>638.30</ele>
 <time>2010-04-30T10:37:58Z</time>
 </trkpt>
 <trkpt lat="47.587784" lon="13.344635">
 <ele>639.21</ele>
 <time>2010-04-30T10:38:04Z</time>
 </trkpt>
 <trkpt lat="47.587925" lon="13.344223">
 <ele>638.69</ele>
 <time>2010-04-30T10:38:10Z</time>
 </trkpt>
 <trkpt lat="47.588074" lon="13.343481">
 <ele>637.21</ele>
 <time>2010-04-30T10:38:19Z</time>
 </trkpt>
 <trkpt lat="47.588097" lon="13.343394">
 <ele>636.85</ele>
 <time>2010-04-30T10:38:20Z</time>
 </trkpt>
 <trkpt lat="47.588276" lon="13.343156">
 <ele>635.37</ele>
 <time>2010-04-30T10:38:24Z</time>
 </trkpt>
 <trkpt lat="47.588337" lon="13.343125">
 <ele>635.03</ele>
 <time>2010-04-30T10:38:25Z</time>
 </trkpt>
 <trkpt lat="47.588596" lon="13.343014">
 <ele>633.51</ele>
 <time>2010-04-30T10:38:29Z</time>
 </trkpt>
 <trkpt lat="47.588860" lon="13.342704">
 <ele>631.92</ele>
 <time>2010-04-30T10:38:34Z</time>
 </trkpt>
 <trkpt lat="47.588947" lon="13.342360">
 <ele>632.08</ele>
 <time>2010-04-30T10:38:38Z</time>
 </trkpt>
 <trkpt lat="47.588985" lon="13.342058">
 <ele>631.62</ele>
 <time>2010-04-30T10:38:41Z</time>
 </trkpt>
 <trkpt lat="47.589127" lon="13.341710">
 <ele>630.46</ele>
 <time>2010-04-30T10:38:45Z</time>
 </trkpt>
 <trkpt lat="47.589489" lon="13.341165">
 <ele>630.57</ele>
 <time>2010-04-30T10:38:53Z</time>
 </trkpt>
 <trkpt lat="47.589718" lon="13.340567">
 <ele>629.54</ele>
 <time>2010-04-30T10:39:00Z</time>
 </trkpt>
 <trkpt lat="47.589821" lon="13.340031">
 <ele>628.55</ele>
 <time>2010-04-30T10:39:06Z</time>
 </trkpt>
 <trkpt lat="47.589844" lon="13.339403">
 <ele>627.72</ele>
 <time>2010-04-30T10:39:13Z</time>
 </trkpt>
 <trkpt lat="47.589844" lon="13.338798">
 <ele>627.04</ele>
 <time>2010-04-30T10:39:20Z</time>
 </trkpt>
 <trkpt lat="47.589935" lon="13.337974">
 <ele>626.09</ele>
 <time>2010-04-30T10:39:30Z</time>
 </trkpt>
 <trkpt lat="47.590038" lon="13.337330">
 <ele>625.09</ele>
 <time>2010-04-30T10:39:38Z</time>
 </trkpt>
 <trkpt lat="47.590210" lon="13.336761">
 <ele>625.23</ele>
 <time>2010-04-30T10:39:46Z</time>
 </trkpt>
 <trkpt lat="47.590366" lon="13.335931">
 <ele>624.10</ele>
 <time>2010-04-30T10:39:57Z</time>
 </trkpt>
 <trkpt lat="47.590477" lon="13.335199">
 <ele>624.28</ele>
 <time>2010-04-30T10:40:07Z</time>
 </trkpt>
 <trkpt lat="47.590492" lon="13.334648">
 <ele>623.43</ele>
 <time>2010-04-30T10:40:14Z</time>
 </trkpt>
 <trkpt lat="47.590500" lon="13.333919">
 <ele>623.52</ele>
 <time>2010-04-30T10:40:23Z</time>
 </trkpt>
 <trkpt lat="47.590603" lon="13.333285">
 <ele>622.84</ele>
 <time>2010-04-30T10:40:31Z</time>
 </trkpt>
 <trkpt lat="47.590649" lon="13.333133">
 <ele>622.79</ele>
 <time>2010-04-30T10:40:33Z</time>
 </trkpt>
 <trkpt lat="47.590885" lon="13.332787">
 <ele>622.04</ele>
 <time>2010-04-30T10:40:39Z</time>
 </trkpt>
 <trkpt lat="47.591034" lon="13.332700">
 <ele>621.68</ele>
 <time>2010-04-30T10:40:42Z</time>
 </trkpt>
 <trkpt lat="47.591511" lon="13.332571">
 <ele>622.43</ele>
 <time>2010-04-30T10:40:51Z</time>
 </trkpt>
 <trkpt lat="47.591789" lon="13.332437">
 <ele>622.57</ele>
 <time>2010-04-30T10:40:57Z</time>
 </trkpt>
 <trkpt lat="47.591999" lon="13.332229">
 <ele>622.63</ele>
 <time>2010-04-30T10:41:03Z</time>
 </trkpt>
 <trkpt lat="47.592049" lon="13.331993">
 <ele>622.52</ele>
 <time>2010-04-30T10:41:07Z</time>
 </trkpt>
 <trkpt lat="47.592075" lon="13.331336">
 <ele>621.17</ele>
 <time>2010-04-30T10:41:15Z</time>
 </trkpt>
 <trkpt lat="47.592197" lon="13.330767">
 <ele>619.82</ele>
 <time>2010-04-30T10:41:22Z</time>
 </trkpt>
 <trkpt lat="47.592438" lon="13.330027">
 <ele>619.90</ele>
 <time>2010-04-30T10:41:32Z</time>
 </trkpt>
 <trkpt lat="47.592785" lon="13.329260">
 <ele>619.09</ele>
 <time>2010-04-30T10:41:43Z</time>
 </trkpt>
 <trkpt lat="47.593163" lon="13.328452">
 <ele>618.71</ele>
 <time>2010-04-30T10:41:55Z</time>
 </trkpt>
 <trkpt lat="47.593555" lon="13.327609">
 <ele>618.08</ele>
 <time>2010-04-30T10:42:08Z</time>
 </trkpt>
 <trkpt lat="47.593956" lon="13.326708">
 <ele>617.23</ele>
 <time>2010-04-30T10:42:22Z</time>
 </trkpt>
 <trkpt lat="47.594063" lon="13.326391">
 <ele>617.30</ele>
 <time>2010-04-30T10:42:27Z</time>
 </trkpt>
 <trkpt lat="47.594067" lon="13.326022">
 <ele>617.62</ele>
 <time>2010-04-30T10:42:32Z</time>
 </trkpt>
 <trkpt lat="47.594017" lon="13.325813">
 <ele>617.46</ele>
 <time>2010-04-30T10:42:35Z</time>
 </trkpt>
 <trkpt lat="47.593864" lon="13.325347">
 <ele>616.95</ele>
 <time>2010-04-30T10:42:42Z</time>
 </trkpt>
 <trkpt lat="47.593803" lon="13.324758">
 <ele>616.40</ele>
 <time>2010-04-30T10:42:50Z</time>
 </trkpt>
 <trkpt lat="47.593773" lon="13.323951">
 <ele>615.62</ele>
 <time>2010-04-30T10:43:01Z</time>
 </trkpt>
 <trkpt lat="47.593708" lon="13.323315">
 <ele>615.18</ele>
 <time>2010-04-30T10:43:10Z</time>
 </trkpt>
 <trkpt lat="47.593555" lon="13.322736">
 <ele>614.37</ele>
 <time>2010-04-30T10:43:19Z</time>
 </trkpt>
 <trkpt lat="47.593266" lon="13.322058">
 <ele>614.54</ele>
 <time>2010-04-30T10:43:30Z</time>
 </trkpt>
 <trkpt lat="47.592979" lon="13.321262">
 <ele>613.04</ele>
 <time>2010-04-30T10:43:42Z</time>
 </trkpt>
 <trkpt lat="47.592861" lon="13.320698">
 <ele>612.85</ele>
 <time>2010-04-30T10:43:50Z</time>
 </trkpt>
 <trkpt lat="47.592796" lon="13.320015">
 <ele>612.53</ele>
 <time>2010-04-30T10:43:59Z</time>
 </trkpt>
 <trkpt lat="47.592789" lon="13.319630">
 <ele>612.34</ele>
 <time>2010-04-30T10:44:04Z</time>
 </trkpt>
 <trkpt lat="47.592865" lon="13.318921">
 <ele>612.03</ele>
 <time>2010-04-30T10:44:14Z</time>
 </trkpt>
 <trkpt lat="47.592983" lon="13.318315">
 <ele>611.69</ele>
 <time>2010-04-30T10:44:23Z</time>
 </trkpt>
 <trkpt lat="47.592922" lon="13.318222">
 <ele>612.31</ele>
 <time>2010-04-30T10:44:27Z</time>
 </trkpt>
 <trkpt lat="47.592880" lon="13.318230">
 <ele>612.19</ele>
 <time>2010-04-30T10:44:31Z</time>
 </trkpt>
 <trkpt lat="47.592819" lon="13.318123">
 <ele>612.21</ele>
 <time>2010-04-30T10:45:35Z</time>
 </trkpt>
 <trkpt lat="47.592861" lon="13.318045">
 <ele>612.01</ele>
 <time>2010-04-30T10:46:02Z</time>
 </trkpt>
 <trkpt lat="47.592964" lon="13.317964">
 <ele>611.30</ele>
 <time>2010-04-30T10:46:07Z</time>
 </trkpt>
 <trkpt lat="47.593025" lon="13.317816">
 <ele>611.25</ele>
 <time>2010-04-30T10:46:11Z</time>
 </trkpt>
 <trkpt lat="47.593048" lon="13.317724">
 <ele>611.21</ele>
 <time>2010-04-30T10:46:13Z</time>
 </trkpt>
 <trkpt lat="47.593143" lon="13.317315">
 <ele>610.68</ele>
 <time>2010-04-30T10:46:20Z</time>
 </trkpt>
 <trkpt lat="47.593285" lon="13.316795">
 <ele>610.30</ele>
 <time>2010-04-30T10:46:28Z</time>
 </trkpt>
 <trkpt lat="47.593414" lon="13.316251">
 <ele>609.95</ele>
 <time>2010-04-30T10:46:36Z</time>
 </trkpt>
 <trkpt lat="47.593510" lon="13.315676">
 <ele>609.79</ele>
 <time>2010-04-30T10:46:44Z</time>
 </trkpt>
 <trkpt lat="47.593578" lon="13.314992">
 <ele>608.34</ele>
 <time>2010-04-30T10:46:53Z</time>
 </trkpt>
 <trkpt lat="47.593674" lon="13.314246">
 <ele>607.61</ele>
 <time>2010-04-30T10:47:03Z</time>
 </trkpt>
 <trkpt lat="47.593838" lon="13.313710">
 <ele>607.11</ele>
 <time>2010-04-30T10:47:11Z</time>
 </trkpt>
 <trkpt lat="47.594028" lon="13.313295">
 <ele>607.04</ele>
 <time>2010-04-30T10:47:18Z</time>
 </trkpt>
 <trkpt lat="47.594261" lon="13.312872">
 <ele>607.18</ele>
 <time>2010-04-30T10:47:26Z</time>
 </trkpt>
 <trkpt lat="47.594425" lon="13.312595">
 <ele>606.91</ele>
 <time>2010-04-30T10:47:32Z</time>
 </trkpt>
 <trkpt lat="47.594440" lon="13.312539">
 <ele>606.67</ele>
 <time>2010-04-30T10:47:33Z</time>
 </trkpt>
 <trkpt lat="47.594513" lon="13.312186">
 <ele>606.73</ele>
 <time>2010-04-30T10:47:40Z</time>
 </trkpt>
 <trkpt lat="47.594517" lon="13.312159">
 <ele>607.24</ele>
 <time>2010-04-30T10:47:43Z</time>
 </trkpt>
 <trkpt lat="47.594505" lon="13.311992">
 <ele>606.83</ele>
 <time>2010-04-30T10:47:57Z</time>
 </trkpt>
 <trkpt lat="47.594479" lon="13.311929">
 <ele>606.84</ele>
 <time>2010-04-30T10:47:59Z</time>
 </trkpt>
 <trkpt lat="47.594315" lon="13.311661">
 <ele>607.36</ele>
 <time>2010-04-30T10:48:06Z</time>
 </trkpt>
 <trkpt lat="47.594048" lon="13.311350">
 <ele>607.96</ele>
 <time>2010-04-30T10:48:15Z</time>
 </trkpt>
 <trkpt lat="47.593906" lon="13.311159">
 <ele>608.10</ele>
 <time>2010-04-30T10:48:20Z</time>
 </trkpt>
 <trkpt lat="47.593929" lon="13.310936">
 <ele>607.72</ele>
 <time>2010-04-30T10:48:24Z</time>
 </trkpt>
 <trkpt lat="47.594112" lon="13.310207">
 <ele>606.75</ele>
 <time>2010-04-30T10:48:35Z</time>
 </trkpt>
 <trkpt lat="47.594196" lon="13.309417">
 <ele>606.41</ele>
 <time>2010-04-30T10:48:46Z</time>
 </trkpt>
 <trkpt lat="47.594193" lon="13.308658">
 <ele>606.21</ele>
 <time>2010-04-30T10:48:56Z</time>
 </trkpt>
 <trkpt lat="47.594147" lon="13.307724">
 <ele>606.30</ele>
 <time>2010-04-30T10:49:08Z</time>
 </trkpt>
 <trkpt lat="47.594105" lon="13.306887">
 <ele>605.08</ele>
 <time>2010-04-30T10:49:18Z</time>
 </trkpt>
 <trkpt lat="47.594139" lon="13.306039">
 <ele>602.97</ele>
 <time>2010-04-30T10:49:27Z</time>
 </trkpt>
 <trkpt lat="47.594273" lon="13.305483">
 <ele>601.93</ele>
 <time>2010-04-30T10:49:33Z</time>
 </trkpt>
 <trkpt lat="47.594437" lon="13.305032">
 <ele>601.27</ele>
 <time>2010-04-30T10:49:38Z</time>
 </trkpt>
 <trkpt lat="47.594532" lon="13.304453">
 <ele>600.28</ele>
 <time>2010-04-30T10:49:44Z</time>
 </trkpt>
 <trkpt lat="47.594673" lon="13.303795">
 <ele>598.99</ele>
 <time>2010-04-30T10:49:51Z</time>
 </trkpt>
 <trkpt lat="47.594883" lon="13.303298">
 <ele>598.13</ele>
 <time>2010-04-30T10:49:57Z</time>
 </trkpt>
 <trkpt lat="47.595181" lon="13.302559">
 <ele>596.78</ele>
 <time>2010-04-30T10:50:06Z</time>
 </trkpt>
 <trkpt lat="47.595238" lon="13.302109">
 <ele>596.25</ele>
 <time>2010-04-30T10:50:11Z</time>
 </trkpt>
 <trkpt lat="47.595207" lon="13.301437">
 <ele>595.64</ele>
 <time>2010-04-30T10:50:18Z</time>
 </trkpt>
 <trkpt lat="47.595177" lon="13.300511">
 <ele>593.98</ele>
 <time>2010-04-30T10:50:27Z</time>
 </trkpt>
 <trkpt lat="47.595264" lon="13.299587">
 <ele>593.42</ele>
 <time>2010-04-30T10:50:36Z</time>
 </trkpt>
 <trkpt lat="47.595280" lon="13.298935">
 <ele>592.70</ele>
 <time>2010-04-30T10:50:43Z</time>
 </trkpt>
 <trkpt lat="47.595177" lon="13.298444">
 <ele>592.43</ele>
 <time>2010-04-30T10:50:49Z</time>
 </trkpt>
 <trkpt lat="47.594986" lon="13.298033">
 <ele>592.95</ele>
 <time>2010-04-30T10:50:55Z</time>
 </trkpt>
 <trkpt lat="47.594624" lon="13.297499">
 <ele>592.18</ele>
 <time>2010-04-30T10:51:04Z</time>
 </trkpt>
 <trkpt lat="47.594555" lon="13.297363">
 <ele>592.12</ele>
 <time>2010-04-30T10:51:06Z</time>
 </trkpt>
 <trkpt lat="47.594475" lon="13.297131">
 <ele>592.12</ele>
 <time>2010-04-30T10:51:09Z</time>
 </trkpt>
 <trkpt lat="47.594410" lon="13.296534">
 <ele>592.40</ele>
 <time>2010-04-30T10:51:16Z</time>
 </trkpt>
 <trkpt lat="47.594379" lon="13.295659">
 <ele>592.06</ele>
 <time>2010-04-30T10:51:26Z</time>
 </trkpt>
 <trkpt lat="47.594303" lon="13.294802">
 <ele>591.54</ele>
 <time>2010-04-30T10:51:36Z</time>
 </trkpt>
 <trkpt lat="47.594147" lon="13.294224">
 <ele>591.58</ele>
 <time>2010-04-30T10:51:43Z</time>
 </trkpt>
 <trkpt lat="47.593895" lon="13.293704">
 <ele>590.77</ele>
 <time>2010-04-30T10:51:50Z</time>
 </trkpt>
 <trkpt lat="47.593475" lon="13.293035">
 <ele>590.39</ele>
 <time>2010-04-30T10:52:00Z</time>
 </trkpt>
 <trkpt lat="47.593006" lon="13.292466">
 <ele>589.59</ele>
 <time>2010-04-30T10:52:10Z</time>
 </trkpt>
 <trkpt lat="47.592564" lon="13.292092">
 <ele>588.46</ele>
 <time>2010-04-30T10:52:19Z</time>
 </trkpt>
 <trkpt lat="47.592026" lon="13.291746">
 <ele>588.51</ele>
 <time>2010-04-30T10:52:30Z</time>
 </trkpt>
 <trkpt lat="47.591297" lon="13.291282">
 <ele>587.28</ele>
 <time>2010-04-30T10:52:45Z</time>
 </trkpt>
 <trkpt lat="47.590858" lon="13.290892">
 <ele>587.50</ele>
 <time>2010-04-30T10:52:55Z</time>
 </trkpt>
 <trkpt lat="47.590477" lon="13.290387">
 <ele>587.49</ele>
 <time>2010-04-30T10:53:05Z</time>
 </trkpt>
 <trkpt lat="47.590122" lon="13.289738">
 <ele>587.42</ele>
 <time>2010-04-30T10:53:16Z</time>
 </trkpt>
 <trkpt lat="47.589802" lon="13.288966">
 <ele>587.23</ele>
 <time>2010-04-30T10:53:28Z</time>
 </trkpt>
 <trkpt lat="47.589561" lon="13.288203">
 <ele>587.56</ele>
 <time>2010-04-30T10:53:39Z</time>
 </trkpt>
 <trkpt lat="47.589397" lon="13.287394">
 <ele>586.92</ele>
 <time>2010-04-30T10:53:50Z</time>
 </trkpt>
 <trkpt lat="47.589291" lon="13.286679">
 <ele>586.51</ele>
 <time>2010-04-30T10:54:00Z</time>
 </trkpt>
 <trkpt lat="47.589214" lon="13.285805">
 <ele>586.31</ele>
 <time>2010-04-30T10:54:12Z</time>
 </trkpt>
 <trkpt lat="47.589172" lon="13.284912">
 <ele>585.79</ele>
 <time>2010-04-30T10:54:24Z</time>
 </trkpt>
 <trkpt lat="47.589157" lon="13.284325">
 <ele>585.36</ele>
 <time>2010-04-30T10:54:32Z</time>
 </trkpt>
 <trkpt lat="47.589138" lon="13.283489">
 <ele>584.06</ele>
 <time>2010-04-30T10:54:43Z</time>
 </trkpt>
 <trkpt lat="47.589111" lon="13.282641">
 <ele>583.67</ele>
 <time>2010-04-30T10:54:54Z</time>
 </trkpt>
 <trkpt lat="47.589085" lon="13.281652">
 <ele>582.91</ele>
 <time>2010-04-30T10:55:06Z</time>
 </trkpt>
 <trkpt lat="47.589062" lon="13.280819">
 <ele>582.28</ele>
 <time>2010-04-30T10:55:16Z</time>
 </trkpt>
 <trkpt lat="47.589031" lon="13.279628">
 <ele>580.17</ele>
 <time>2010-04-30T10:55:30Z</time>
 </trkpt>
 <trkpt lat="47.589008" lon="13.278904">
 <ele>580.84</ele>
 <time>2010-04-30T10:55:39Z</time>
 </trkpt>
 <trkpt lat="47.589001" lon="13.278701">
 <ele>581.28</ele>
 <time>2010-04-30T10:55:44Z</time>
 </trkpt>
 <trkpt lat="47.589005" lon="13.278663">
 <ele>581.06</ele>
 <time>2010-04-30T10:55:47Z</time>
 </trkpt>
 <trkpt lat="47.589001" lon="13.278599">
 <ele>580.94</ele>
 <time>2010-04-30T10:55:57Z</time>
 </trkpt>
 <trkpt lat="47.588993" lon="13.278392">
 <ele>580.47</ele>
 <time>2010-04-30T10:56:01Z</time>
 </trkpt>
 <trkpt lat="47.588989" lon="13.277879">
 <ele>579.54</ele>
 <time>2010-04-30T10:56:08Z</time>
 </trkpt>
 <trkpt lat="47.589020" lon="13.277202">
 <ele>578.75</ele>
 <time>2010-04-30T10:56:16Z</time>
 </trkpt>
 <trkpt lat="47.589111" lon="13.276354">
 <ele>578.15</ele>
 <time>2010-04-30T10:56:26Z</time>
 </trkpt>
 <trkpt lat="47.589214" lon="13.275546">
 <ele>578.56</ele>
 <time>2010-04-30T10:56:36Z</time>
 </trkpt>
 <trkpt lat="47.589306" lon="13.274814">
 <ele>579.18</ele>
 <time>2010-04-30T10:56:46Z</time>
 </trkpt>
 <trkpt lat="47.589359" lon="13.274257">
 <ele>580.85</ele>
 <time>2010-04-30T10:56:55Z</time>
 </trkpt>
 <trkpt lat="47.589359" lon="13.273647">
 <ele>583.09</ele>
 <time>2010-04-30T10:57:06Z</time>
 </trkpt>
 <trkpt lat="47.589310" lon="13.273200">
 <ele>584.72</ele>
 <time>2010-04-30T10:57:15Z</time>
 </trkpt>
 <trkpt lat="47.589203" lon="13.272746">
 <ele>585.88</ele>
 <time>2010-04-30T10:57:25Z</time>
 </trkpt>
 <trkpt lat="47.589012" lon="13.272275">
 <ele>587.78</ele>
 <time>2010-04-30T10:57:37Z</time>
 </trkpt>
 <trkpt lat="47.588776" lon="13.271904">
 <ele>589.45</ele>
 <time>2010-04-30T10:57:48Z</time>
 </trkpt>
 <trkpt lat="47.588554" lon="13.271612">
 <ele>591.19</ele>
 <time>2010-04-30T10:57:58Z</time>
 </trkpt>
 <trkpt lat="47.588284" lon="13.271242">
 <ele>593.91</ele>
 <time>2010-04-30T10:58:10Z</time>
 </trkpt>
 <trkpt lat="47.588097" lon="13.270871">
 <ele>594.78</ele>
 <time>2010-04-30T10:58:21Z</time>
 </trkpt>
 <trkpt lat="47.587994" lon="13.270554">
 <ele>596.88</ele>
 <time>2010-04-30T10:58:30Z</time>
 </trkpt>
 <trkpt lat="47.587887" lon="13.270325">
 <ele>598.30</ele>
 <time>2010-04-30T10:58:38Z</time>
 </trkpt>
 <trkpt lat="47.587746" lon="13.270023">
 <ele>599.57</ele>
 <time>2010-04-30T10:58:49Z</time>
 </trkpt>
 <trkpt lat="47.587597" lon="13.269729">
 <ele>601.63</ele>
 <time>2010-04-30T10:59:00Z</time>
 </trkpt>
 <trkpt lat="47.587429" lon="13.269535">
 <ele>603.44</ele>
 <time>2010-04-30T10:59:09Z</time>
 </trkpt>
 <trkpt lat="47.587406" lon="13.269524">
 <ele>603.43</ele>
 <time>2010-04-30T10:59:10Z</time>
 </trkpt>
 <trkpt lat="47.587250" lon="13.269562">
 <ele>604.02</ele>
 <time>2010-04-30T10:59:16Z</time>
 </trkpt>
 <trkpt lat="47.587124" lon="13.269472">
 <ele>605.33</ele>
 <time>2010-04-30T10:59:22Z</time>
 </trkpt>
 <trkpt lat="47.586910" lon="13.269335">
 <ele>606.58</ele>
 <time>2010-04-30T10:59:32Z</time>
 </trkpt>
 <trkpt lat="47.586704" lon="13.269252">
 <ele>607.69</ele>
 <time>2010-04-30T10:59:41Z</time>
 </trkpt>
 <trkpt lat="47.586491" lon="13.269198">
 <ele>609.03</ele>
 <time>2010-04-30T10:59:50Z</time>
 </trkpt>
 <trkpt lat="47.586250" lon="13.269197">
 <ele>611.02</ele>
 <time>2010-04-30T11:00:00Z</time>
 </trkpt>
 <trkpt lat="47.586002" lon="13.269242">
 <ele>612.34</ele>
 <time>2010-04-30T11:00:10Z</time>
 </trkpt>
 <trkpt lat="47.585773" lon="13.269312">
 <ele>613.10</ele>
 <time>2010-04-30T11:00:19Z</time>
 </trkpt>
 <trkpt lat="47.585552" lon="13.269438">
 <ele>613.70</ele>
 <time>2010-04-30T11:00:28Z</time>
 </trkpt>
 <trkpt lat="47.585327" lon="13.269595">
 <ele>614.16</ele>
 <time>2010-04-30T11:00:37Z</time>
 </trkpt>
 <trkpt lat="47.585110" lon="13.269761">
 <ele>615.66</ele>
 <time>2010-04-30T11:00:46Z</time>
 </trkpt>
 <trkpt lat="47.584877" lon="13.269930">
 <ele>615.97</ele>
 <time>2010-04-30T11:00:55Z</time>
 </trkpt>
 <trkpt lat="47.584599" lon="13.270059">
 <ele>615.96</ele>
 <time>2010-04-30T11:01:04Z</time>
 </trkpt>
 <trkpt lat="47.584312" lon="13.270140">
 <ele>615.87</ele>
 <time>2010-04-30T11:01:12Z</time>
 </trkpt>
 <trkpt lat="47.584011" lon="13.270151">
 <ele>615.57</ele>
 <time>2010-04-30T11:01:19Z</time>
 </trkpt>
 <trkpt lat="47.583687" lon="13.270066">
 <ele>614.57</ele>
 <time>2010-04-30T11:01:26Z</time>
 </trkpt>
 <trkpt lat="47.583260" lon="13.269900">
 <ele>612.50</ele>
 <time>2010-04-30T11:01:34Z</time>
 </trkpt>
 <trkpt lat="47.582714" lon="13.269689">
 <ele>608.90</ele>
 <time>2010-04-30T11:01:43Z</time>
 </trkpt>
 <trkpt lat="47.582211" lon="13.269549">
 <ele>604.67</ele>
 <time>2010-04-30T11:01:50Z</time>
 </trkpt>
 <trkpt lat="47.581772" lon="13.269490">
 <ele>600.98</ele>
 <time>2010-04-30T11:01:56Z</time>
 </trkpt>
 <trkpt lat="47.581291" lon="13.269497">
 <ele>596.05</ele>
 <time>2010-04-30T11:02:02Z</time>
 </trkpt>
 <trkpt lat="47.581036" lon="13.269536">
 <ele>594.33</ele>
 <time>2010-04-30T11:02:05Z</time>
 </trkpt>
 <trkpt lat="47.580532" lon="13.269701">
 <ele>589.78</ele>
 <time>2010-04-30T11:02:11Z</time>
 </trkpt>
 <trkpt lat="47.579994" lon="13.269990">
 <ele>584.35</ele>
 <time>2010-04-30T11:02:17Z</time>
 </trkpt>
 <trkpt lat="47.579449" lon="13.270365">
 <ele>578.75</ele>
 <time>2010-04-30T11:02:24Z</time>
 </trkpt>
 <trkpt lat="47.579014" lon="13.270585">
 <ele>575.58</ele>
 <time>2010-04-30T11:02:30Z</time>
 </trkpt>
 <trkpt lat="47.578587" lon="13.270648">
 <ele>571.68</ele>
 <time>2010-04-30T11:02:35Z</time>
 </trkpt>
 <trkpt lat="47.578175" lon="13.270561">
 <ele>567.27</ele>
 <time>2010-04-30T11:02:40Z</time>
 </trkpt>
 <trkpt lat="47.577854" lon="13.270364">
 <ele>564.46</ele>
 <time>2010-04-30T11:02:44Z</time>
 </trkpt>
 <trkpt lat="47.577583" lon="13.270101">
 <ele>561.27</ele>
 <time>2010-04-30T11:02:48Z</time>
 </trkpt>
 <trkpt lat="47.577286" lon="13.269653">
 <ele>557.13</ele>
 <time>2010-04-30T11:02:53Z</time>
 </trkpt>
 <trkpt lat="47.577072" lon="13.269088">
 <ele>555.21</ele>
 <time>2010-04-30T11:02:58Z</time>
 </trkpt>
 <trkpt lat="47.576969" lon="13.268601">
 <ele>553.39</ele>
 <time>2010-04-30T11:03:03Z</time>
 </trkpt>
 <trkpt lat="47.576962" lon="13.268519">
 <ele>553.26</ele>
 <time>2010-04-30T11:03:04Z</time>
 </trkpt>
 <trkpt lat="47.576965" lon="13.268258">
 <ele>552.89</ele>
 <time>2010-04-30T11:03:08Z</time>
 </trkpt>
 <trkpt lat="47.576920" lon="13.268039">
 <ele>552.58</ele>
 <time>2010-04-30T11:03:12Z</time>
 </trkpt>
 <trkpt lat="47.576920" lon="13.267953">
 <ele>551.97</ele>
 <time>2010-04-30T11:03:15Z</time>
 </trkpt>
 <trkpt lat="47.576969" lon="13.267957">
 <ele>551.70</ele>
 <time>2010-04-30T11:03:18Z</time>
 </trkpt>
 <trkpt lat="47.577053" lon="13.267917">
 <ele>551.96</ele>
 <time>2010-04-30T11:03:22Z</time>
 </trkpt>
 <trkpt lat="47.577221" lon="13.267497">
 <ele>550.18</ele>
 <time>2010-04-30T11:03:30Z</time>
 </trkpt>
 <trkpt lat="47.577423" lon="13.267231">
 <ele>549.21</ele>
 <time>2010-04-30T11:03:36Z</time>
 </trkpt>
 <trkpt lat="47.577541" lon="13.267119">
 <ele>548.24</ele>
 <time>2010-04-30T11:03:40Z</time>
 </trkpt>
 <trkpt lat="47.577545" lon="13.267033">
 <ele>548.01</ele>
 <time>2010-04-30T11:03:44Z</time>
 </trkpt>
 <trkpt lat="47.577496" lon="13.267048">
 <ele>547.97</ele>
 <time>2010-04-30T11:03:46Z</time>
 </trkpt>
 <trkpt lat="47.577400" lon="13.267108">
 <ele>547.71</ele>
 <time>2010-04-30T11:03:49Z</time>
 </trkpt>
 <trkpt lat="47.577225" lon="13.267044">
 <ele>546.55</ele>
 <time>2010-04-30T11:03:53Z</time>
 </trkpt>
 <trkpt lat="47.577190" lon="13.266977">
 <ele>546.12</ele>
 <time>2010-04-30T11:03:54Z</time>
 </trkpt>
 <trkpt lat="47.576996" lon="13.266353">
 <ele>544.43</ele>
 <time>2010-04-30T11:04:02Z</time>
 </trkpt>
 <trkpt lat="47.576908" lon="13.265691">
 <ele>543.97</ele>
 <time>2010-04-30T11:04:10Z</time>
 </trkpt>
 <trkpt lat="47.576920" lon="13.265197">
 <ele>543.63</ele>
 <time>2010-04-30T11:04:16Z</time>
 </trkpt>
 <trkpt lat="47.576984" lon="13.264708">
 <ele>543.19</ele>
 <time>2010-04-30T11:04:22Z</time>
 </trkpt>
 <trkpt lat="47.577141" lon="13.264178">
 <ele>543.07</ele>
 <time>2010-04-30T11:04:29Z</time>
 </trkpt>
 <trkpt lat="47.577320" lon="13.263466">
 <ele>543.13</ele>
 <time>2010-04-30T11:04:38Z</time>
 </trkpt>
 <trkpt lat="47.577484" lon="13.262995">
 <ele>542.94</ele>
 <time>2010-04-30T11:04:44Z</time>
 </trkpt>
 <trkpt lat="47.577595" lon="13.262782">
 <ele>542.89</ele>
 <time>2010-04-30T11:04:47Z</time>
 </trkpt>
 <trkpt lat="47.577988" lon="13.262113">
 <ele>542.02</ele>
 <time>2010-04-30T11:04:57Z</time>
 </trkpt>
 <trkpt lat="47.578239" lon="13.261724">
 <ele>542.19</ele>
 <time>2010-04-30T11:05:03Z</time>
 </trkpt>
 <trkpt lat="47.578487" lon="13.261251">
 <ele>542.02</ele>
 <time>2010-04-30T11:05:10Z</time>
 </trkpt>
 <trkpt lat="47.578758" lon="13.260708">
 <ele>541.80</ele>
 <time>2010-04-30T11:05:18Z</time>
 </trkpt>
 <trkpt lat="47.579109" lon="13.260145">
 <ele>541.59</ele>
 <time>2010-04-30T11:05:27Z</time>
 </trkpt>
 <trkpt lat="47.579155" lon="13.260082">
 <ele>541.51</ele>
 <time>2010-04-30T11:05:28Z</time>
 </trkpt>
 <trkpt lat="47.579372" lon="13.259610">
 <ele>541.84</ele>
 <time>2010-04-30T11:05:35Z</time>
 </trkpt>
 <trkpt lat="47.579491" lon="13.259168">
 <ele>541.06</ele>
 <time>2010-04-30T11:05:41Z</time>
 </trkpt>
 <trkpt lat="47.579556" lon="13.258671">
 <ele>541.91</ele>
 <time>2010-04-30T11:05:48Z</time>
 </trkpt>
 <trkpt lat="47.579594" lon="13.258444">
 <ele>542.98</ele>
 <time>2010-04-30T11:05:52Z</time>
 </trkpt>
 <trkpt lat="47.579613" lon="13.257879">
 <ele>543.73</ele>
 <time>2010-04-30T11:06:01Z</time>
 </trkpt>
 <trkpt lat="47.579605" lon="13.257152">
 <ele>544.10</ele>
 <time>2010-04-30T11:06:12Z</time>
 </trkpt>
 <trkpt lat="47.579613" lon="13.256805">
 <ele>544.43</ele>
 <time>2010-04-30T11:06:18Z</time>
 </trkpt>
 <trkpt lat="47.579678" lon="13.256724">
 <ele>544.96</ele>
 <time>2010-04-30T11:06:23Z</time>
 </trkpt>
 <trkpt lat="47.579708" lon="13.256532">
 <ele>544.70</ele>
 <time>2010-04-30T11:06:27Z</time>
 </trkpt>
 <trkpt lat="47.579750" lon="13.255828">
 <ele>544.30</ele>
 <time>2010-04-30T11:06:38Z</time>
 </trkpt>
 <trkpt lat="47.579807" lon="13.255291">
 <ele>544.53</ele>
 <time>2010-04-30T11:06:46Z</time>
 </trkpt>
 <trkpt lat="47.579891" lon="13.254604">
 <ele>544.33</ele>
 <time>2010-04-30T11:06:56Z</time>
 </trkpt>
 <trkpt lat="47.580021" lon="13.253825">
 <ele>543.92</ele>
 <time>2010-04-30T11:07:07Z</time>
 </trkpt>
 <trkpt lat="47.580212" lon="13.252932">
 <ele>543.00</ele>
 <time>2010-04-30T11:07:19Z</time>
 </trkpt>
 <trkpt lat="47.580460" lon="13.252010">
 <ele>542.30</ele>
 <time>2010-04-30T11:07:31Z</time>
 </trkpt>
 <trkpt lat="47.580830" lon="13.250770">
 <ele>541.22</ele>
 <time>2010-04-30T11:07:47Z</time>
 </trkpt>
 <trkpt lat="47.581066" lon="13.249896">
 <ele>540.46</ele>
 <time>2010-04-30T11:07:58Z</time>
 </trkpt>
 <trkpt lat="47.581245" lon="13.248986">
 <ele>539.57</ele>
 <time>2010-04-30T11:08:09Z</time>
 </trkpt>
 <trkpt lat="47.581318" lon="13.248464">
 <ele>539.28</ele>
 <time>2010-04-30T11:08:16Z</time>
 </trkpt>
 <trkpt lat="47.581394" lon="13.247756">
 <ele>538.72</ele>
 <time>2010-04-30T11:08:26Z</time>
 </trkpt>
 <trkpt lat="47.581429" lon="13.247041">
 <ele>539.22</ele>
 <time>2010-04-30T11:08:36Z</time>
 </trkpt>
 <trkpt lat="47.581436" lon="13.246388">
 <ele>539.17</ele>
 <time>2010-04-30T11:08:45Z</time>
 </trkpt>
 <trkpt lat="47.581425" lon="13.245642">
 <ele>539.67</ele>
 <time>2010-04-30T11:08:55Z</time>
 </trkpt>
 <trkpt lat="47.581425" lon="13.245009">
 <ele>539.97</ele>
 <time>2010-04-30T11:09:03Z</time>
 </trkpt>
 <trkpt lat="47.581482" lon="13.244222">
 <ele>540.10</ele>
 <time>2010-04-30T11:09:13Z</time>
 </trkpt>
 <trkpt lat="47.581612" lon="13.243562">
 <ele>539.81</ele>
 <time>2010-04-30T11:09:21Z</time>
 </trkpt>
 <trkpt lat="47.581863" lon="13.242763">
 <ele>538.45</ele>
 <time>2010-04-30T11:09:31Z</time>
 </trkpt>
 <trkpt lat="47.582123" lon="13.242142">
 <ele>537.66</ele>
 <time>2010-04-30T11:09:40Z</time>
 </trkpt>
 <trkpt lat="47.582336" lon="13.241619">
 <ele>537.66</ele>
 <time>2010-04-30T11:09:49Z</time>
 </trkpt>
 <trkpt lat="47.582527" lon="13.241017">
 <ele>538.63</ele>
 <time>2010-04-30T11:09:59Z</time>
 </trkpt>
 <trkpt lat="47.582664" lon="13.240388">
 <ele>538.53</ele>
 <time>2010-04-30T11:10:09Z</time>
 </trkpt>
 <trkpt lat="47.582748" lon="13.239713">
 <ele>538.57</ele>
 <time>2010-04-30T11:10:20Z</time>
 </trkpt>
 <trkpt lat="47.582783" lon="13.239332">
 <ele>539.69</ele>
 <time>2010-04-30T11:10:27Z</time>
 </trkpt>
 <trkpt lat="47.582844" lon="13.238651">
 <ele>541.09</ele>
 <time>2010-04-30T11:10:39Z</time>
 </trkpt>
 <trkpt lat="47.582893" lon="13.238088">
 <ele>541.41</ele>
 <time>2010-04-30T11:10:49Z</time>
 </trkpt>
 <trkpt lat="47.582977" lon="13.237500">
 <ele>542.71</ele>
 <time>2010-04-30T11:11:00Z</time>
 </trkpt>
 <trkpt lat="47.583080" lon="13.236928">
 <ele>543.87</ele>
 <time>2010-04-30T11:11:11Z</time>
 </trkpt>
 <trkpt lat="47.583237" lon="13.236280">
 <ele>545.29</ele>
 <time>2010-04-30T11:11:23Z</time>
 </trkpt>
 <trkpt lat="47.583427" lon="13.235735">
 <ele>545.56</ele>
 <time>2010-04-30T11:11:33Z</time>
 </trkpt>
 <trkpt lat="47.583725" lon="13.235076">
 <ele>545.47</ele>
 <time>2010-04-30T11:11:45Z</time>
 </trkpt>
 <trkpt lat="47.583939" lon="13.234696">
 <ele>545.64</ele>
 <time>2010-04-30T11:11:52Z</time>
 </trkpt>
 <trkpt lat="47.584248" lon="13.234235">
 <ele>544.62</ele>
 <time>2010-04-30T11:12:00Z</time>
 </trkpt>
 <trkpt lat="47.584576" lon="13.233816">
 <ele>542.84</ele>
 <time>2010-04-30T11:12:07Z</time>
 </trkpt>
 <trkpt lat="47.585106" lon="13.233165">
 <ele>540.30</ele>
 <time>2010-04-30T11:12:17Z</time>
 </trkpt>
 <trkpt lat="47.585518" lon="13.232554">
 <ele>538.07</ele>
 <time>2010-04-30T11:12:25Z</time>
 </trkpt>
 <trkpt lat="47.585827" lon="13.231930">
 <ele>536.52</ele>
 <time>2010-04-30T11:12:32Z</time>
 </trkpt>
 <trkpt lat="47.586113" lon="13.231137">
 <ele>535.62</ele>
 <time>2010-04-30T11:12:40Z</time>
 </trkpt>
 <trkpt lat="47.586281" lon="13.230442">
 <ele>533.99</ele>
 <time>2010-04-30T11:12:47Z</time>
 </trkpt>
 <trkpt lat="47.586403" lon="13.229587">
 <ele>534.30</ele>
 <time>2010-04-30T11:12:56Z</time>
 </trkpt>
 <trkpt lat="47.586437" lon="13.228754">
 <ele>533.60</ele>
 <time>2010-04-30T11:13:05Z</time>
 </trkpt>
 <trkpt lat="47.586403" lon="13.227987">
 <ele>534.02</ele>
 <time>2010-04-30T11:13:14Z</time>
 </trkpt>
 <trkpt lat="47.586369" lon="13.227124">
 <ele>532.79</ele>
 <time>2010-04-30T11:13:24Z</time>
 </trkpt>
 <trkpt lat="47.586380" lon="13.226419">
 <ele>532.28</ele>
 <time>2010-04-30T11:13:33Z</time>
 </trkpt>
 <trkpt lat="47.586445" lon="13.225648">
 <ele>532.41</ele>
 <time>2010-04-30T11:13:43Z</time>
 </trkpt>
 <trkpt lat="47.586548" lon="13.224650">
 <ele>532.09</ele>
 <time>2010-04-30T11:13:56Z</time>
 </trkpt>
 <trkpt lat="47.586567" lon="13.224123">
 <ele>531.91</ele>
 <time>2010-04-30T11:14:03Z</time>
 </trkpt>
 <trkpt lat="47.586567" lon="13.223582">
 <ele>531.61</ele>
 <time>2010-04-30T11:14:10Z</time>
 </trkpt>
 <trkpt lat="47.586533" lon="13.222837">
 <ele>530.80</ele>
 <time>2010-04-30T11:14:19Z</time>
 </trkpt>
 <trkpt lat="47.586491" lon="13.222176">
 <ele>529.95</ele>
 <time>2010-04-30T11:14:27Z</time>
 </trkpt>
 <trkpt lat="47.586456" lon="13.221256">
 <ele>528.78</ele>
 <time>2010-04-30T11:14:37Z</time>
 </trkpt>
 <trkpt lat="47.586487" lon="13.220339">
 <ele>528.20</ele>
 <time>2010-04-30T11:14:47Z</time>
 </trkpt>
 <trkpt lat="47.586590" lon="13.219369">
 <ele>527.67</ele>
 <time>2010-04-30T11:14:58Z</time>
 </trkpt>
 <trkpt lat="47.586704" lon="13.218336">
 <ele>526.98</ele>
 <time>2010-04-30T11:15:10Z</time>
 </trkpt>
 <trkpt lat="47.586819" lon="13.217323">
 <ele>526.69</ele>
 <time>2010-04-30T11:15:22Z</time>
 </trkpt>
 <trkpt lat="47.586937" lon="13.216218">
 <ele>526.48</ele>
 <time>2010-04-30T11:15:35Z</time>
 </trkpt>
 <trkpt lat="47.587051" lon="13.215299">
 <ele>525.98</ele>
 <time>2010-04-30T11:15:46Z</time>
 </trkpt>
 <trkpt lat="47.587227" lon="13.214304">
 <ele>525.84</ele>
 <time>2010-04-30T11:15:58Z</time>
 </trkpt>
 <trkpt lat="47.587463" lon="13.213384">
 <ele>525.91</ele>
 <time>2010-04-30T11:16:09Z</time>
 </trkpt>
 <trkpt lat="47.587791" lon="13.212395">
 <ele>525.37</ele>
 <time>2010-04-30T11:16:21Z</time>
 </trkpt>
 <trkpt lat="47.588131" lon="13.211466">
 <ele>524.79</ele>
 <time>2010-04-30T11:16:33Z</time>
 </trkpt>
 <trkpt lat="47.588451" lon="13.210549">
 <ele>524.11</ele>
 <time>2010-04-30T11:16:45Z</time>
 </trkpt>
 <trkpt lat="47.588730" lon="13.209761">
 <ele>523.29</ele>
 <time>2010-04-30T11:16:56Z</time>
 </trkpt>
 <trkpt lat="47.589119" lon="13.208681">
 <ele>523.09</ele>
 <time>2010-04-30T11:17:11Z</time>
 </trkpt>
 <trkpt lat="47.589390" lon="13.207908">
 <ele>522.52</ele>
 <time>2010-04-30T11:17:22Z</time>
 </trkpt>
 <trkpt lat="47.589607" lon="13.207116">
 <ele>522.14</ele>
 <time>2010-04-30T11:17:33Z</time>
 </trkpt>
 <trkpt lat="47.589825" lon="13.206133">
 <ele>521.84</ele>
 <time>2010-04-30T11:17:46Z</time>
 </trkpt>
 <trkpt lat="47.589966" lon="13.205447">
 <ele>521.35</ele>
 <time>2010-04-30T11:17:55Z</time>
 </trkpt>
 <trkpt lat="47.590160" lon="13.204703">
 <ele>520.91</ele>
 <time>2010-04-30T11:18:05Z</time>
 </trkpt>
 <trkpt lat="47.590469" lon="13.203785">
 <ele>520.68</ele>
 <time>2010-04-30T11:18:18Z</time>
 </trkpt>
 <trkpt lat="47.590748" lon="13.203091">
 <ele>521.16</ele>
 <time>2010-04-30T11:18:28Z</time>
 </trkpt>
 <trkpt lat="47.591022" lon="13.202295">
 <ele>521.10</ele>
 <time>2010-04-30T11:18:39Z</time>
 </trkpt>
 <trkpt lat="47.591190" lon="13.201627">
 <ele>521.20</ele>
 <time>2010-04-30T11:18:48Z</time>
 </trkpt>
 <trkpt lat="47.591290" lon="13.200855">
 <ele>521.33</ele>
 <time>2010-04-30T11:18:58Z</time>
 </trkpt>
 <trkpt lat="47.591290" lon="13.200068">
 <ele>521.38</ele>
 <time>2010-04-30T11:19:08Z</time>
 </trkpt>
 <trkpt lat="47.591206" lon="13.199234">
 <ele>521.59</ele>
 <time>2010-04-30T11:19:19Z</time>
 </trkpt>
 <trkpt lat="47.591106" lon="13.198344">
 <ele>521.62</ele>
 <time>2010-04-30T11:19:31Z</time>
 </trkpt>
 <trkpt lat="47.591015" lon="13.197494">
 <ele>521.24</ele>
 <time>2010-04-30T11:19:42Z</time>
 </trkpt>
 <trkpt lat="47.590919" lon="13.196628">
 <ele>520.60</ele>
 <time>2010-04-30T11:19:53Z</time>
 </trkpt>
 <trkpt lat="47.590878" lon="13.196054">
 <ele>520.41</ele>
 <time>2010-04-30T11:20:00Z</time>
 </trkpt>
 <trkpt lat="47.590813" lon="13.195484">
 <ele>519.52</ele>
 <time>2010-04-30T11:20:07Z</time>
 </trkpt>
 <trkpt lat="47.590714" lon="13.194553">
 <ele>519.14</ele>
 <time>2010-04-30T11:20:18Z</time>
 </trkpt>
 <trkpt lat="47.590572" lon="13.193372">
 <ele>518.58</ele>
 <time>2010-04-30T11:20:32Z</time>
 </trkpt>
 <trkpt lat="47.590389" lon="13.192431">
 <ele>518.66</ele>
 <time>2010-04-30T11:20:44Z</time>
 </trkpt>
 <trkpt lat="47.590202" lon="13.191678">
 <ele>518.04</ele>
 <time>2010-04-30T11:20:54Z</time>
 </trkpt>
 <trkpt lat="47.590080" lon="13.191074">
 <ele>517.45</ele>
 <time>2010-04-30T11:21:02Z</time>
 </trkpt>
 <trkpt lat="47.590008" lon="13.190367">
 <ele>517.89</ele>
 <time>2010-04-30T11:21:11Z</time>
 </trkpt>
 <trkpt lat="47.590012" lon="13.189709">
 <ele>518.52</ele>
 <time>2010-04-30T11:21:20Z</time>
 </trkpt>
 <trkpt lat="47.590076" lon="13.189104">
 <ele>519.24</ele>
 <time>2010-04-30T11:21:29Z</time>
 </trkpt>
 <trkpt lat="47.590187" lon="13.188517">
 <ele>520.06</ele>
 <time>2010-04-30T11:21:39Z</time>
 </trkpt>
 <trkpt lat="47.590305" lon="13.188117">
 <ele>520.83</ele>
 <time>2010-04-30T11:21:47Z</time>
 </trkpt>
 <trkpt lat="47.590431" lon="13.187665">
 <ele>522.23</ele>
 <time>2010-04-30T11:21:56Z</time>
 </trkpt>
 <trkpt lat="47.590584" lon="13.187161">
 <ele>523.82</ele>
 <time>2010-04-30T11:22:06Z</time>
 </trkpt>
 <trkpt lat="47.590740" lon="13.186605">
 <ele>524.93</ele>
 <time>2010-04-30T11:22:17Z</time>
 </trkpt>
 <trkpt lat="47.590851" lon="13.186072">
 <ele>525.14</ele>
 <time>2010-04-30T11:22:27Z</time>
 </trkpt>
 <trkpt lat="47.590923" lon="13.185567">
 <ele>526.15</ele>
 <time>2010-04-30T11:22:36Z</time>
 </trkpt>
 <trkpt lat="47.590954" lon="13.185129">
 <ele>526.35</ele>
 <time>2010-04-30T11:22:44Z</time>
 </trkpt>
 <trkpt lat="47.590965" lon="13.184885">
 <ele>526.42</ele>
 <time>2010-04-30T11:22:49Z</time>
 </trkpt>
 <trkpt lat="47.590965" lon="13.184423">
 <ele>526.67</ele>
 <time>2010-04-30T11:22:58Z</time>
 </trkpt>
 <trkpt lat="47.590954" lon="13.184018">
 <ele>526.88</ele>
 <time>2010-04-30T11:23:06Z</time>
 </trkpt>
 <trkpt lat="47.590881" lon="13.183354">
 <ele>527.43</ele>
 <time>2010-04-30T11:23:17Z</time>
 </trkpt>
 <trkpt lat="47.590775" lon="13.182747">
 <ele>527.09</ele>
 <time>2010-04-30T11:23:26Z</time>
 </trkpt>
 <trkpt lat="47.590603" lon="13.181951">
 <ele>526.89</ele>
 <time>2010-04-30T11:23:37Z</time>
 </trkpt>
 <trkpt lat="47.590466" lon="13.181262">
 <ele>525.92</ele>
 <time>2010-04-30T11:23:46Z</time>
 </trkpt>
 <trkpt lat="47.590355" lon="13.180803">
 <ele>525.38</ele>
 <time>2010-04-30T11:23:52Z</time>
 </trkpt>
 <trkpt lat="47.590214" lon="13.180128">
 <ele>523.91</ele>
 <time>2010-04-30T11:24:00Z</time>
 </trkpt>
 <trkpt lat="47.590183" lon="13.179559">
 <ele>522.16</ele>
 <time>2010-04-30T11:24:06Z</time>
 </trkpt>
 <trkpt lat="47.590229" lon="13.178869">
 <ele>520.18</ele>
 <time>2010-04-30T11:24:13Z</time>
 </trkpt>
 <trkpt lat="47.590359" lon="13.178269">
 <ele>518.61</ele>
 <time>2010-04-30T11:24:19Z</time>
 </trkpt>
 <trkpt lat="47.590580" lon="13.177686">
 <ele>516.68</ele>
 <time>2010-04-30T11:24:25Z</time>
 </trkpt>
 <trkpt lat="47.590813" lon="13.177221">
 <ele>514.85</ele>
 <time>2010-04-30T11:24:30Z</time>
 </trkpt>
 <trkpt lat="47.591160" lon="13.176586">
 <ele>512.58</ele>
 <time>2010-04-30T11:24:37Z</time>
 </trkpt>
 <trkpt lat="47.591541" lon="13.175904">
 <ele>511.29</ele>
 <time>2010-04-30T11:24:45Z</time>
 </trkpt>
 <trkpt lat="47.591869" lon="13.175321">
 <ele>511.17</ele>
 <time>2010-04-30T11:24:53Z</time>
 </trkpt>
 <trkpt lat="47.592216" lon="13.174680">
 <ele>512.36</ele>
 <time>2010-04-30T11:25:03Z</time>
 </trkpt>
 <trkpt lat="47.592632" lon="13.173903">
 <ele>512.44</ele>
 <time>2010-04-30T11:25:15Z</time>
 </trkpt>
 <trkpt lat="47.592785" lon="13.173594">
 <ele>512.92</ele>
 <time>2010-04-30T11:25:20Z</time>
 </trkpt>
 <trkpt lat="47.592999" lon="13.173177">
 <ele>512.72</ele>
 <time>2010-04-30T11:25:28Z</time>
 </trkpt>
 <trkpt lat="47.593208" lon="13.172733">
 <ele>512.93</ele>
 <time>2010-04-30T11:25:36Z</time>
 </trkpt>
 <trkpt lat="47.593475" lon="13.172260">
 <ele>512.16</ele>
 <time>2010-04-30T11:25:44Z</time>
 </trkpt>
 <trkpt lat="47.593803" lon="13.171741">
 <ele>511.39</ele>
 <time>2010-04-30T11:25:53Z</time>
 </trkpt>
 <trkpt lat="47.594170" lon="13.171168">
 <ele>511.34</ele>
 <time>2010-04-30T11:26:03Z</time>
 </trkpt>
 <trkpt lat="47.594498" lon="13.170636">
 <ele>510.66</ele>
 <time>2010-04-30T11:26:12Z</time>
 </trkpt>
 <trkpt lat="47.594696" lon="13.170355">
 <ele>510.14</ele>
 <time>2010-04-30T11:26:17Z</time>
 </trkpt>
 <trkpt lat="47.594955" lon="13.170130">
 <ele>508.43</ele>
 <time>2010-04-30T11:26:22Z</time>
 </trkpt>
 <trkpt lat="47.595158" lon="13.169904">
 <ele>507.20</ele>
 <time>2010-04-30T11:26:26Z</time>
 </trkpt>
 <trkpt lat="47.595280" lon="13.169521">
 <ele>506.10</ele>
 <time>2010-04-30T11:26:30Z</time>
 </trkpt>
 <trkpt lat="47.595428" lon="13.168762">
 <ele>505.88</ele>
 <time>2010-04-30T11:26:38Z</time>
 </trkpt>
 <trkpt lat="47.595562" lon="13.168003">
 <ele>505.50</ele>
 <time>2010-04-30T11:26:47Z</time>
 </trkpt>
 <trkpt lat="47.595592" lon="13.167722">
 <ele>504.49</ele>
 <time>2010-04-30T11:26:50Z</time>
 </trkpt>
 <trkpt lat="47.595699" lon="13.167408">
 <ele>503.74</ele>
 <time>2010-04-30T11:26:54Z</time>
 </trkpt>
 <trkpt lat="47.595745" lon="13.167353">
 <ele>503.73</ele>
 <time>2010-04-30T11:26:55Z</time>
 </trkpt>
 <trkpt lat="47.596127" lon="13.166924">
 <ele>504.16</ele>
 <time>2010-04-30T11:27:04Z</time>
 </trkpt>
 <trkpt lat="47.596539" lon="13.166470">
 <ele>504.21</ele>
 <time>2010-04-30T11:27:14Z</time>
 </trkpt>
 <trkpt lat="47.596874" lon="13.166192">
 <ele>504.36</ele>
 <time>2010-04-30T11:27:22Z</time>
 </trkpt>
 <trkpt lat="47.597149" lon="13.166055">
 <ele>504.82</ele>
 <time>2010-04-30T11:27:28Z</time>
 </trkpt>
 <trkpt lat="47.597343" lon="13.166017">
 <ele>505.27</ele>
 <time>2010-04-30T11:27:33Z</time>
 </trkpt>
 <trkpt lat="47.597458" lon="13.165968">
 <ele>505.26</ele>
 <time>2010-04-30T11:27:36Z</time>
 </trkpt>
 <trkpt lat="47.597702" lon="13.165959">
 <ele>505.83</ele>
 <time>2010-04-30T11:27:42Z</time>
 </trkpt>
 <trkpt lat="47.597839" lon="13.165959">
 <ele>505.68</ele>
 <time>2010-04-30T11:27:45Z</time>
 </trkpt>
 <trkpt lat="47.598083" lon="13.165866">
 <ele>505.07</ele>
 <time>2010-04-30T11:27:50Z</time>
 </trkpt>
 <trkpt lat="47.598564" lon="13.165634">
 <ele>504.62</ele>
 <time>2010-04-30T11:28:00Z</time>
 </trkpt>
 <trkpt lat="47.598888" lon="13.165508">
 <ele>504.70</ele>
 <time>2010-04-30T11:28:07Z</time>
 </trkpt>
 <trkpt lat="47.599415" lon="13.165271">
 <ele>504.76</ele>
 <time>2010-04-30T11:28:18Z</time>
 </trkpt>
 <trkpt lat="47.599754" lon="13.165124">
 <ele>504.77</ele>
 <time>2010-04-30T11:28:25Z</time>
 </trkpt>
 <trkpt lat="47.600014" lon="13.165027">
 <ele>504.88</ele>
 <time>2010-04-30T11:28:31Z</time>
 </trkpt>
 <trkpt lat="47.600285" lon="13.164898">
 <ele>504.81</ele>
 <time>2010-04-30T11:28:38Z</time>
 </trkpt>
 <trkpt lat="47.600403" lon="13.164834">
 <ele>505.02</ele>
 <time>2010-04-30T11:28:42Z</time>
 </trkpt>
 <trkpt lat="47.600616" lon="13.164688">
 <ele>504.65</ele>
 <time>2010-04-30T11:28:48Z</time>
 </trkpt>
 <trkpt lat="47.600685" lon="13.164659">
 <ele>505.03</ele>
 <time>2010-04-30T11:28:52Z</time>
 </trkpt>
 <trkpt lat="47.600685" lon="13.164670">
 <ele>505.28</ele>
 <time>2010-04-30T11:28:53Z</time>
 </trkpt>
 <trkpt lat="47.600681" lon="13.164684">
 <ele>505.40</ele>
 <time>2010-04-30T11:29:01Z</time>
 </trkpt>
 </trkseg>
 </trk>
</gpx>
